Darstellungsparameter: Aktuell verwendete Einstellungen:
Skalierung der Graphiken ... ?
xyx+y,   Skalierungsfaktor:      Skalierung: Modus: x, Faktor: 1
Darstellungszeitraum ... ?
Vom - - bis: - -   Zeitraum: 03.06.2014 - 09.06.2014
Min/Max/Avg-Anzeige ... ?
Zeige MMA aktuell
Zeige MMA Monat
Zeige MMA alles
Zeige --A aktuell
Zeige --A Monat
Zeige --A alles
Keine MMA-Anzeige
MMA:
Keine MMA-Graphiken
MMA-Basis: 03.06.2014 - 09.06.2014
Quicknavigation für Darstellung... ?
Tage:      1T, 2T, 3T, 5T -1T -2T -3T -5T +1T +2T +3T +5T
Wochen: 1W, 2W, 3W -1W -2W -3W +1W +2W +3W
Monate: 1M, 3M, 6M -1M -3M -6M +1M +3M +6M
Jahre:    1J, 3J, 5J, 10J -1J -3J -5J -10J +1J +3J +5J +10J
Nutze für die Darstellung ... ?
Originaldaten oder Mittelwerte auf ...
Stundenbasis Tagesbasis Wochenbasis
Monatsbasis Jahresbasis      Datenbasis: Original-Daten
Darstellen als:
Statistik (Auto) Statistik J:M      Darstellung:
Zur Graphik,    zurück zur Übersicht aller Sensoren.
 
Tabellarische Datenbersicht: ?
 
Sensor: Nr:Datum:Temp:Abs-Feuchte:Windchill:Wind:
Aussen-T/F 1 03-06-2014 00:00:00 15 C 9.23 g/m*3 15 C 0 km/h
2 03-06-2014 00:05:00 14.9 C 9.3 g/m*3 14.9 C 0 km/h
3 03-06-2014 00:10:00 14.8 C 9.25 g/m*3 14.8 C 0 km/h
4 03-06-2014 00:15:00 14.8 C 9.37 g/m*3 14.8 C 0 km/h
5 03-06-2014 00:20:00 14.7 C 9.19 g/m*3 14.7 C 0 km/h
6 03-06-2014 00:25:00 14.7 C 9.32 g/m*3 14.7 C 0 km/h
7 03-06-2014 00:30:00 14.6 C 9.26 g/m*3 14.6 C 0 km/h
8 03-06-2014 00:35:00 14.6 C 9.39 g/m*3 14.6 C 0 km/h
9 03-06-2014 00:40:00 14.4 C 9.27 g/m*3 14.4 C 0 km/h
10 03-06-2014 00:45:00 14.2 C 9.16 g/m*3 14.2 C 0 km/h
11 03-06-2014 00:50:00 14.1 C 9.22 g/m*3 14.1 C 0 km/h
12 03-06-2014 00:55:00 14 C 9.17 g/m*3 14 C 0 km/h
13 03-06-2014 01:00:00 13.9 C 9.11 g/m*3 13.9 C 0 km/h
14 03-06-2014 01:05:00 13.8 C 9.17 g/m*3 13.8 C 0 km/h
15 03-06-2014 01:10:00 13.7 C 9.24 g/m*3 13.7 C 0 km/h
16 03-06-2014 01:15:00 13.7 C 9.24 g/m*3 13.7 C 0 km/h
17 03-06-2014 01:20:00 13.6 C 9.18 g/m*3 13.6 C 0 km/h
18 03-06-2014 01:25:00 13.4 C 9.18 g/m*3 13.4 C 0 km/h
19 03-06-2014 01:30:00 13.4 C 9.18 g/m*3 13.4 C 0 km/h
20 03-06-2014 01:35:00 13.3 C 9.13 g/m*3 13.3 C 0 km/h
21 03-06-2014 01:40:00 13.2 C 9.07 g/m*3 13.2 C 0 km/h
22 03-06-2014 01:45:00 13.2 C 9.07 g/m*3 13.2 C 0 km/h
23 03-06-2014 01:50:00 13.1 C 9.13 g/m*3 13.1 C 0 km/h
24 03-06-2014 01:55:00 12.9 C 9.02 g/m*3 12.9 C 0 km/h
25 03-06-2014 02:00:00 12.8 C 9.07 g/m*3 12.8 C 0 km/h
Sensor: Nr:Datum:Temp:Abs-Feuchte:Windchill:Wind:
Aussen-T/F 26 03-06-2014 02:05:00 12.7 C 9.02 g/m*3 12.7 C 3.2 km/h
27 03-06-2014 02:10:00 12.7 C 9.02 g/m*3 12.7 C 3.2 km/h
28 03-06-2014 02:15:00 12.5 C 8.91 g/m*3 12.5 C 0 km/h
29 03-06-2014 02:20:00 12.4 C 8.96 g/m*3 12.4 C 0 km/h
30 03-06-2014 02:25:00 12.3 C 8.9 g/m*3 12.3 C 0 km/h
31 03-06-2014 02:30:00 12.2 C 8.85 g/m*3 12.2 C 0 km/h
32 03-06-2014 02:35:00 12.1 C 8.79 g/m*3 12.1 C 0 km/h
33 03-06-2014 02:40:00 11.9 C 8.79 g/m*3 11.9 C 0 km/h
34 03-06-2014 02:45:00 11.8 C 8.74 g/m*3 11.8 C 0 km/h
35 03-06-2014 02:50:00 11.8 C 8.74 g/m*3 11.8 C 0 km/h
36 03-06-2014 02:55:00 11.7 C 8.79 g/m*3 11.7 C 0 km/h
37 03-06-2014 03:00:00 11.7 C 8.79 g/m*3 11.7 C 0 km/h
38 03-06-2014 03:05:00 11.5 C 8.78 g/m*3 11.5 C 0 km/h
39 03-06-2014 03:10:00 11.4 C 8.72 g/m*3 11.4 C 0 km/h
40 03-06-2014 03:15:00 11.3 C 8.67 g/m*3 11.3 C 0 km/h
41 03-06-2014 03:20:00 11.2 C 8.62 g/m*3 11.2 C 0 km/h
42 03-06-2014 03:25:00 11.1 C 8.66 g/m*3 11.1 C 0 km/h
43 03-06-2014 03:30:00 11.1 C 8.66 g/m*3 11.1 C 0 km/h
44 03-06-2014 03:35:00 10.9 C 8.55 g/m*3 10.9 C 0 km/h
45 03-06-2014 03:40:00 10.9 C 8.55 g/m*3 10.9 C 0 km/h
46 03-06-2014 03:45:00 10.8 C 8.6 g/m*3 10.8 C 0 km/h
47 03-06-2014 03:50:00 10.8 C 8.6 g/m*3 10.8 C 0 km/h
48 03-06-2014 03:55:00 10.8 C 8.6 g/m*3 10.8 C 0 km/h
49 03-06-2014 04:00:00 10.7 C 8.55 g/m*3 10.7 C 0 km/h
50 03-06-2014 04:05:00 10.6 C 8.49 g/m*3 10.6 C 0 km/h
Sensor: Nr:Datum:Temp:Abs-Feuchte:Windchill:Wind:
Aussen-T/F 51 03-06-2014 04:10:00 10.5 C 8.53 g/m*3 10.5 C 0 km/h
52 03-06-2014 04:15:00 10.4 C 8.48 g/m*3 10.4 C 0 km/h
53 03-06-2014 04:20:00 10.4 C 8.48 g/m*3 10.4 C 0 km/h
54 03-06-2014 04:25:00 10.3 C 8.52 g/m*3 10.3 C 0 km/h
55 03-06-2014 04:30:00 10.3 C 8.52 g/m*3 10.3 C 0 km/h
56 03-06-2014 04:35:00 10.2 C 8.47 g/m*3 10.2 C 0 km/h
57 03-06-2014 04:40:00 10.2 C 8.47 g/m*3 10.2 C 0 km/h
58 03-06-2014 04:45:00 10.1 C 8.51 g/m*3 10.1 C 0 km/h
59 03-06-2014 04:50:00 10.1 C 8.51 g/m*3 10.1 C 0 km/h
60 03-06-2014 04:55:00 10 C 8.46 g/m*3 10 C 0 km/h
61 03-06-2014 05:00:00 9.9 C 8.4 g/m*3 9.9 C 0 km/h
62 03-06-2014 05:05:00 9.9 C 8.5 g/m*3 9.9 C 0 km/h
63 03-06-2014 05:10:00 9.9 C 8.5 g/m*3 9.9 C 0 km/h
64 03-06-2014 05:15:00 9.9 C 8.5 g/m*3 9.9 C 0 km/h
65 03-06-2014 05:20:00 9.8 C 8.44 g/m*3 9.8 C 0 km/h
66 03-06-2014 05:25:00 9.8 C 8.44 g/m*3 9.8 C 0 km/h
67 03-06-2014 05:30:00 9.8 C 8.54 g/m*3 9.8 C 0 km/h
68 03-06-2014 05:35:00 9.8 C 8.54 g/m*3 9.8 C 0 km/h
69 03-06-2014 05:40:00 9.8 C 8.54 g/m*3 9.8 C 0 km/h
70 03-06-2014 05:45:00 9.8 C 8.54 g/m*3 9.8 C 0 km/h
71 03-06-2014 05:50:00 9.8 C 8.54 g/m*3 9.8 C 0 km/h
72 03-06-2014 05:55:00 9.8 C 8.54 g/m*3 9.8 C 0 km/h
73 03-06-2014 06:00:00 9.8 C 8.54 g/m*3 9.8 C 0 km/h
74 03-06-2014 06:05:00 9.8 C 8.54 g/m*3 9.8 C 0 km/h
75 03-06-2014 06:10:00 9.9 C 8.68 g/m*3 9.25 C 6.4 km/h
Sensor: Nr:Datum:Temp:Abs-Feuchte:Windchill:Wind:
Aussen-T/F 76 03-06-2014 06:15:00 10 C 8.74 g/m*3 9.37 C 6.4 km/h
77 03-06-2014 06:20:00 10.1 C 8.7 g/m*3 10.1 C 0 km/h
78 03-06-2014 06:25:00 10.1 C 8.7 g/m*3 10.1 C 0 km/h
79 03-06-2014 06:30:00 10.2 C 8.76 g/m*3 10.2 C 0 km/h
80 03-06-2014 06:35:00 10.2 C 8.76 g/m*3 10.2 C 0 km/h
81 03-06-2014 06:40:00 10.3 C 8.81 g/m*3 10.3 C 0 km/h
82 03-06-2014 06:45:00 10.4 C 8.87 g/m*3 10.4 C 0 km/h
83 03-06-2014 06:50:00 10.5 C 8.92 g/m*3 10.5 C 3.2 km/h
84 03-06-2014 06:55:00 10.6 C 8.88 g/m*3 10.6 C 0 km/h
85 03-06-2014 07:00:00 10.7 C 8.94 g/m*3 10.7 C 0 km/h
86 03-06-2014 07:05:00 10.8 C 8.99 g/m*3 10.8 C 0 km/h
87 03-06-2014 07:10:00 10.9 C 9.05 g/m*3 10.9 C 1.6 km/h
88 03-06-2014 07:15:00 11 C 9.01 g/m*3 11 C 3.2 km/h
89 03-06-2014 07:20:00 11.1 C 9.07 g/m*3 11.1 C 3.2 km/h
90 03-06-2014 07:25:00 11.3 C 9.18 g/m*3 11.3 C 4.8 km/h
91 03-06-2014 07:30:00 11.4 C 9.14 g/m*3 11.4 C 4.8 km/h
92 03-06-2014 07:35:00 11.6 C 9.25 g/m*3 11.6 C 3.2 km/h
93 03-06-2014 07:40:00 11.7 C 9.2 g/m*3 11.7 C 4.8 km/h
94 03-06-2014 07:45:00 11.8 C 9.26 g/m*3 11.8 C 4.8 km/h
95 03-06-2014 07:50:00 12.1 C 9.44 g/m*3 12.1 C 3.2 km/h
96 03-06-2014 07:55:00 12.2 C 9.28 g/m*3 12.2 C 4.8 km/h
97 03-06-2014 08:00:00 12.3 C 9.34 g/m*3 12.3 C 4.8 km/h
98 03-06-2014 08:05:00 12.4 C 9.4 g/m*3 12.4 C 3.2 km/h
99 03-06-2014 08:10:00 12.5 C 9.35 g/m*3 12.5 C 3.2 km/h
100 03-06-2014 08:15:00 12.6 C 9.4 g/m*3 12.6 C 1.6 km/h
Sensor: Nr:Datum:Temp:Abs-Feuchte:Windchill:Wind:
Aussen-T/F 101 03-06-2014 08:20:00 12.7 C 9.46 g/m*3 12.7 C 1.6 km/h
102 03-06-2014 08:25:00 12.9 C 9.58 g/m*3 12.9 C 1.6 km/h
103 03-06-2014 08:30:00 13.1 C 9.47 g/m*3 13.1 C 3.2 km/h
104 03-06-2014 08:35:00 13.3 C 9.59 g/m*3 13.3 C 1.6 km/h
105 03-06-2014 08:40:00 13.4 C 9.65 g/m*3 13.4 C 3.2 km/h
106 03-06-2014 08:45:00 13.6 C 9.53 g/m*3 13.6 C 3.2 km/h
107 03-06-2014 08:50:00 13.7 C 9.59 g/m*3 13.7 C 4.8 km/h
108 03-06-2014 08:55:00 13.7 C 9.47 g/m*3 13.7 C 1.6 km/h
109 03-06-2014 09:00:00 13.8 C 9.53 g/m*3 13.8 C 3.2 km/h
110 03-06-2014 09:05:00 13.9 C 9.59 g/m*3 13.9 C 3.2 km/h
111 03-06-2014 09:10:00 14.1 C 9.71 g/m*3 14.1 C 3.2 km/h
112 03-06-2014 09:15:00 14.2 C 9.77 g/m*3 14.2 C 0 km/h
113 03-06-2014 09:20:00 14.3 C 9.95 g/m*3 14.3 C 1.6 km/h
114 03-06-2014 09:25:00 14.4 C 10.01 g/m*3 14.4 C 1.6 km/h
115 03-06-2014 09:30:00 14.4 C 10.01 g/m*3 14.4 C 0 km/h
116 03-06-2014 09:35:00 14.6 C 10.26 g/m*3 14.6 C 0 km/h
117 03-06-2014 09:40:00 14.7 C 10.2 g/m*3 14.7 C 1.6 km/h
118 03-06-2014 09:45:00 14.8 C 10.13 g/m*3 14.8 C 0 km/h
119 03-06-2014 09:50:00 15.1 C 10.19 g/m*3 15.1 C 1.6 km/h
120 03-06-2014 09:55:00 15.5 C 10.18 g/m*3 15.5 C 1.6 km/h
121 03-06-2014 10:00:00 16 C 10.63 g/m*3 16 C 1.6 km/h
122 03-06-2014 10:05:00 16.5 C 10.95 g/m*3 16.5 C 0 km/h
123 03-06-2014 10:10:00 17.1 C 10.77 g/m*3 17.1 C 1.6 km/h
124 03-06-2014 10:15:00 17.4 C 10.67 g/m*3 17.4 C 3.2 km/h
125 03-06-2014 10:20:00 17.8 C 10.62 g/m*3 17.8 C 3.2 km/h
Sensor: Nr:Datum:Temp:Abs-Feuchte:Windchill:Wind:
Aussen-T/F 126 03-06-2014 10:25:00 17.9 C 10.69 g/m*3 17.9 C 1.6 km/h
127 03-06-2014 10:30:00 18.2 C 10.72 g/m*3 18.2 C 0 km/h
128 03-06-2014 10:35:00 18.4 C 10.85 g/m*3 18.4 C 4.8 km/h
129 03-06-2014 10:40:00 18.7 C 10.89 g/m*3 18.7 C 3.2 km/h
130 03-06-2014 10:45:00 18.9 C 10.37 g/m*3 18.9 C 3.2 km/h
131 03-06-2014 10:50:00 18.9 C 11.02 g/m*3 18.9 C 3.2 km/h
132 03-06-2014 10:55:00 18.9 C 10.85 g/m*3 18.9 C 1.6 km/h
133 03-06-2014 11:00:00 18.8 C 10.79 g/m*3 18.8 C 1.6 km/h
134 03-06-2014 11:05:00 18.7 C 10.73 g/m*3 18.7 C 0 km/h
135 03-06-2014 11:10:00 18.6 C 11.46 g/m*3 18.6 C 0 km/h
136 03-06-2014 11:15:00 18.6 C 11.14 g/m*3 18.6 C 3.2 km/h
137 03-06-2014 11:20:00 18.6 C 11.14 g/m*3 18.6 C 3.2 km/h
138 03-06-2014 11:25:00 18.9 C 11.18 g/m*3 18.9 C 3.2 km/h
139 03-06-2014 11:30:00 19.3 C 10.78 g/m*3 19.3 C 3.2 km/h
140 03-06-2014 11:35:00 19.7 C 11.21 g/m*3 19.7 C 3.2 km/h
141 03-06-2014 11:40:00 20.1 C 10.95 g/m*3 20.1 C 3.2 km/h
142 03-06-2014 11:45:00 20.6 C 11.1 g/m*3 20.6 C 6.4 km/h
143 03-06-2014 11:50:00 20.9 C 11.47 g/m*3 20.9 C 4.8 km/h
144 03-06-2014 11:55:00 20.8 C 10.5 g/m*3 20.8 C 4.8 km/h
145 03-06-2014 12:00:00 20.7 C 11.34 g/m*3 20.7 C 1.6 km/h
146 03-06-2014 12:05:00 20.1 C 11.47 g/m*3 20.1 C 0 km/h
147 03-06-2014 12:10:00 19.2 C 11.87 g/m*3 19.2 C 0 km/h
148 03-06-2014 12:15:00 18.6 C 11.62 g/m*3 18.6 C 0 km/h
149 03-06-2014 12:20:00 18 C 11.52 g/m*3 18 C 0 km/h
150 03-06-2014 12:25:00 17.7 C 11.62 g/m*3 17.7 C 0 km/h
Sensor: Nr:Datum:Temp:Abs-Feuchte:Windchill:Wind:
Aussen-T/F 151 03-06-2014 12:30:00 17.6 C 11.7 g/m*3 17.6 C 0 km/h
152 03-06-2014 12:35:00 17.6 C 11.55 g/m*3 17.6 C 0 km/h
153 03-06-2014 12:40:00 17.8 C 11.84 g/m*3 17.8 C 0 km/h
154 03-06-2014 12:45:00 18.5 C 11.08 g/m*3 18.5 C 4.8 km/h
155 03-06-2014 12:50:00 19.7 C 10.53 g/m*3 19.7 C 3.2 km/h
156 03-06-2014 12:55:00 20.4 C 9.73 g/m*3 20.4 C 4.8 km/h
157 03-06-2014 13:00:00 21.1 C 9.58 g/m*3 21.1 C 3.2 km/h
158 03-06-2014 13:05:00 21.8 C 9.98 g/m*3 21.8 C 3.2 km/h
159 03-06-2014 13:10:00 22.2 C 9.42 g/m*3 22.2 C 6.4 km/h
160 03-06-2014 13:15:00 22.4 C 9.14 g/m*3 22.4 C 4.8 km/h
161 03-06-2014 13:20:00 22.7 C 9.5 g/m*3 22.7 C 4.8 km/h
162 03-06-2014 13:25:00 22.9 C 8.99 g/m*3 22.9 C 1.6 km/h
163 03-06-2014 13:30:00 23.1 C 8.27 g/m*3 23.1 C 6.4 km/h
164 03-06-2014 13:35:00 23.3 C 8.36 g/m*3 23.3 C 8.1 km/h
165 03-06-2014 13:40:00 23 C 8.22 g/m*3 23 C 4.8 km/h
166 03-06-2014 13:45:00 23.1 C 8.27 g/m*3 23.1 C 4.8 km/h
167 03-06-2014 13:50:00 23.3 C 8.36 g/m*3 23.3 C 8.1 km/h
168 03-06-2014 13:55:00 23.3 C 8.36 g/m*3 23.3 C 6.4 km/h
169 03-06-2014 14:20:00 21.7 C 10.68 g/m*3 21.7 C 1.6 km/h
170 03-06-2014 14:25:00 21 C 10.62 g/m*3 21 C 4.8 km/h
171 03-06-2014 14:30:00 20.9 C 11.11 g/m*3 20.9 C 1.6 km/h
172 03-06-2014 14:35:00 20.8 C 10.5 g/m*3 20.8 C 1.6 km/h
173 03-06-2014 14:40:00 20.8 C 9.6 g/m*3 20.8 C 14.5 km/h
174 03-06-2014 14:45:00 20.7 C 9.72 g/m*3 20.7 C 14.5 km/h
175 03-06-2014 14:50:00 20.6 C 9.84 g/m*3 20.6 C 6.4 km/h
Sensor: Nr:Datum:Temp:Abs-Feuchte:Windchill:Wind:
Aussen-T/F 176 03-06-2014 14:55:00 20.4 C 9.91 g/m*3 20.4 C 4.8 km/h
177 03-06-2014 15:00:00 20.2 C 9.79 g/m*3 20.2 C 6.4 km/h
178 03-06-2014 15:05:00 19.9 C 9.97 g/m*3 19.9 C 9.7 km/h
179 03-06-2014 15:10:00 19.7 C 9.85 g/m*3 19.7 C 8.1 km/h
180 03-06-2014 15:15:00 19.6 C 9.79 g/m*3 19.6 C 6.4 km/h
181 03-06-2014 15:20:00 19.6 C 9.79 g/m*3 19.6 C 8.1 km/h
182 03-06-2014 15:25:00 19.7 C 9.85 g/m*3 19.7 C 11.3 km/h
183 03-06-2014 15:30:00 19.8 C 9.57 g/m*3 19.8 C 6.4 km/h
184 03-06-2014 15:35:00 19.9 C 9.45 g/m*3 19.9 C 3.2 km/h
185 03-06-2014 15:40:00 20.1 C 9.73 g/m*3 20.1 C 6.4 km/h
186 03-06-2014 15:45:00 20.3 C 10.02 g/m*3 20.3 C 8.1 km/h
187 03-06-2014 15:50:00 20.5 C 9.25 g/m*3 20.5 C 9.7 km/h
188 03-06-2014 15:55:00 20.3 C 9.32 g/m*3 20.3 C 8.1 km/h
189 03-06-2014 16:00:00 20.3 C 9.32 g/m*3 20.3 C 3.2 km/h
190 03-06-2014 16:05:00 20.3 C 9.32 g/m*3 20.3 C 1.6 km/h
191 03-06-2014 16:10:00 20.4 C 9.73 g/m*3 20.4 C 8.1 km/h
192 03-06-2014 16:15:00 20.4 C 10.08 g/m*3 20.4 C 3.2 km/h
193 03-06-2014 16:20:00 20.4 C 9.91 g/m*3 20.4 C 0 km/h
194 03-06-2014 16:25:00 20.3 C 10.55 g/m*3 20.3 C 0 km/h
195 03-06-2014 16:30:00 20.1 C 11.65 g/m*3 20.1 C 0 km/h
196 03-06-2014 16:35:00 19.7 C 11.72 g/m*3 19.7 C 0 km/h
197 03-06-2014 16:40:00 19.4 C 11.51 g/m*3 19.4 C 0 km/h
198 03-06-2014 16:45:00 19.2 C 11.71 g/m*3 19.2 C 0 km/h
199 03-06-2014 16:50:00 19 C 11.41 g/m*3 19 C 0 km/h
200 03-06-2014 16:55:00 18.8 C 11.6 g/m*3 18.8 C 0 km/h
Sensor: Nr:Datum:Temp:Abs-Feuchte:Windchill:Wind:
Aussen-T/F 201 03-06-2014 17:00:00 18.8 C 11.6 g/m*3 18.8 C 0 km/h
202 03-06-2014 17:05:00 18.8 C 11.43 g/m*3 18.8 C 0 km/h
203 03-06-2014 17:10:00 18.9 C 11.66 g/m*3 18.9 C 0 km/h
204 03-06-2014 17:15:00 18.9 C 11.83 g/m*3 18.9 C 0 km/h
205 03-06-2014 17:20:00 18.9 C 11.99 g/m*3 18.9 C 0 km/h
206 03-06-2014 17:25:00 18.9 C 11.99 g/m*3 18.9 C 0 km/h
207 03-06-2014 17:30:00 18.8 C 11.92 g/m*3 18.8 C 0 km/h
208 03-06-2014 17:35:00 18.8 C 12.08 g/m*3 18.8 C 0 km/h
209 03-06-2014 17:40:00 18.9 C 11.99 g/m*3 18.9 C 0 km/h
210 03-06-2014 17:45:00 19.1 C 10.82 g/m*3 19.1 C 0 km/h
211 03-06-2014 17:50:00 19.4 C 11.68 g/m*3 19.4 C 1.6 km/h
212 03-06-2014 17:55:00 19.8 C 11.44 g/m*3 19.8 C 1.6 km/h
213 03-06-2014 18:00:00 20.1 C 10.95 g/m*3 20.1 C 3.2 km/h
214 03-06-2014 18:05:00 20.1 C 10.08 g/m*3 20.1 C 6.4 km/h
215 03-06-2014 18:10:00 20.2 C 10.14 g/m*3 20.2 C 4.8 km/h
216 03-06-2014 18:15:00 20.3 C 10.2 g/m*3 20.3 C 3.2 km/h
217 03-06-2014 18:20:00 20.4 C 11.85 g/m*3 20.4 C 1.6 km/h
218 03-06-2014 18:25:00 20.4 C 12.21 g/m*3 20.4 C 0 km/h
219 03-06-2014 18:30:00 20.3 C 12.31 g/m*3 20.3 C 1.6 km/h
220 03-06-2014 18:35:00 20.4 C 9.91 g/m*3 20.4 C 4.8 km/h
221 03-06-2014 18:40:00 20.9 C 9.83 g/m*3 20.9 C 4.8 km/h
222 03-06-2014 18:45:00 21.4 C 9.75 g/m*3 21.4 C 4.8 km/h
223 03-06-2014 18:50:00 21.7 C 9.73 g/m*3 21.7 C 1.6 km/h
224 03-06-2014 18:55:00 21.5 C 11.5 g/m*3 21.5 C 0 km/h
225 03-06-2014 19:00:00 21.2 C 11.68 g/m*3 21.2 C 0 km/h
Sensor: Nr:Datum:Temp:Abs-Feuchte:Windchill:Wind:
Aussen-T/F 226 03-06-2014 19:05:00 20.9 C 11.47 g/m*3 20.9 C 0 km/h
227 03-06-2014 19:10:00 20.5 C 11.57 g/m*3 20.5 C 0 km/h
228 03-06-2014 19:15:00 20.1 C 11.99 g/m*3 20.1 C 0 km/h
229 03-06-2014 19:20:00 19.8 C 11.61 g/m*3 19.8 C 1.6 km/h
230 03-06-2014 19:25:00 19.6 C 11.48 g/m*3 19.6 C 1.6 km/h
231 03-06-2014 19:30:00 19.3 C 11.78 g/m*3 19.3 C 0 km/h
232 03-06-2014 19:35:00 18.9 C 11.66 g/m*3 18.9 C 0 km/h
233 03-06-2014 19:40:00 18.4 C 11.48 g/m*3 18.4 C 0 km/h
234 03-06-2014 19:45:00 18.1 C 11.59 g/m*3 18.1 C 0 km/h
235 03-06-2014 19:50:00 17.8 C 11.38 g/m*3 17.8 C 0 km/h
236 03-06-2014 19:55:00 17.6 C 11.4 g/m*3 17.6 C 1.6 km/h
237 03-06-2014 20:00:00 17.5 C 11.33 g/m*3 17.5 C 1.6 km/h
238 03-06-2014 20:05:00 17.3 C 11.2 g/m*3 17.3 C 0 km/h
239 03-06-2014 20:10:00 17.2 C 11.28 g/m*3 17.2 C 1.6 km/h
240 03-06-2014 20:15:00 17.2 C 11.13 g/m*3 17.2 C 0 km/h
241 03-06-2014 20:20:00 17.1 C 11.21 g/m*3 17.1 C 0 km/h
242 03-06-2014 20:25:00 16.9 C 11.22 g/m*3 16.9 C 0 km/h
243 03-06-2014 20:30:00 16.9 C 11.08 g/m*3 16.9 C 0 km/h
244 03-06-2014 20:35:00 16.8 C 11.01 g/m*3 16.8 C 0 km/h
245 03-06-2014 20:40:00 16.8 C 11.01 g/m*3 16.8 C 1.6 km/h
246 03-06-2014 20:45:00 16.8 C 11.01 g/m*3 16.8 C 0 km/h
247 03-06-2014 20:50:00 16.9 C 11.22 g/m*3 16.9 C 0 km/h
248 03-06-2014 20:55:00 16.9 C 11.22 g/m*3 16.9 C 0 km/h
249 03-06-2014 21:00:00 16.8 C 11.29 g/m*3 16.8 C 0 km/h
250 03-06-2014 21:05:00 16.8 C 11.29 g/m*3 16.8 C 0 km/h
Sensor: Nr:Datum:Temp:Abs-Feuchte:Windchill:Wind:
Aussen-T/F 251 03-06-2014 21:10:00 16.7 C 11.23 g/m*3 16.7 C 1.6 km/h
252 03-06-2014 21:15:00 16.5 C 11.09 g/m*3 16.5 C 0 km/h
253 03-06-2014 21:20:00 16.4 C 10.89 g/m*3 16.4 C 1.6 km/h
254 03-06-2014 21:25:00 16.2 C 10.76 g/m*3 16.2 C 0 km/h
255 03-06-2014 21:30:00 16.1 C 10.69 g/m*3 16.1 C 0 km/h
256 03-06-2014 21:35:00 15.9 C 10.56 g/m*3 15.9 C 0 km/h
257 03-06-2014 21:40:00 15.8 C 10.36 g/m*3 15.8 C 0 km/h
258 03-06-2014 21:45:00 15.7 C 10.3 g/m*3 15.7 C 0 km/h
259 03-06-2014 21:50:00 15.6 C 10.24 g/m*3 15.6 C 0 km/h
260 03-06-2014 21:55:00 15.4 C 10.12 g/m*3 15.4 C 0 km/h
261 03-06-2014 22:00:00 15.3 C 10.06 g/m*3 15.3 C 0 km/h
262 03-06-2014 22:05:00 15.2 C 10.12 g/m*3 15.2 C 0 km/h
263 03-06-2014 22:10:00 15.1 C 10.06 g/m*3 15.1 C 0 km/h
264 03-06-2014 22:15:00 14.9 C 9.94 g/m*3 14.9 C 0 km/h
265 03-06-2014 22:20:00 14.8 C 10.01 g/m*3 14.8 C 0 km/h
266 03-06-2014 22:25:00 14.7 C 9.95 g/m*3 14.7 C 0 km/h
267 03-06-2014 22:30:00 14.6 C 9.89 g/m*3 14.6 C 0 km/h
268 03-06-2014 22:35:00 14.4 C 9.77 g/m*3 14.4 C 0 km/h
269 03-06-2014 22:40:00 14.3 C 9.83 g/m*3 14.3 C 0 km/h
270 03-06-2014 22:45:00 14.2 C 9.89 g/m*3 14.2 C 0 km/h
271 03-06-2014 22:50:00 14.2 C 9.89 g/m*3 14.2 C 0 km/h
272 03-06-2014 22:55:00 14.1 C 9.83 g/m*3 14.1 C 0 km/h
273 03-06-2014 23:00:00 14 C 9.77 g/m*3 14 C 1.6 km/h
274 03-06-2014 23:05:00 13.9 C 9.71 g/m*3 13.9 C 0 km/h
275 03-06-2014 23:10:00 13.9 C 9.83 g/m*3 13.9 C 0 km/h
Sensor: Nr:Datum:Temp:Abs-Feuchte:Windchill:Wind:
Aussen-T/F 276 03-06-2014 23:15:00 13.8 C 9.77 g/m*3 13.8 C 0 km/h
277 03-06-2014 23:20:00 13.7 C 9.71 g/m*3 13.7 C 0 km/h
278 03-06-2014 23:25:00 13.6 C 9.77 g/m*3 13.6 C 0 km/h
279 03-06-2014 23:30:00 13.6 C 9.77 g/m*3 13.6 C 0 km/h
280 03-06-2014 23:35:00 13.4 C 9.65 g/m*3 13.4 C 0 km/h
281 03-06-2014 23:40:00 13.4 C 9.88 g/m*3 13.4 C 0 km/h
282 03-06-2014 23:45:00 13.5 C 9.83 g/m*3 13.5 C 6.4 km/h
283 03-06-2014 23:50:00 13.4 C 9.76 g/m*3 13.4 C 0 km/h
284 03-06-2014 23:55:00 13.4 C 9.76 g/m*3 13.4 C 0 km/h
285 04-06-2014 00:00:00 13.2 C 9.76 g/m*3 13.2 C 0 km/h
286 04-06-2014 00:05:00 13.2 C 9.76 g/m*3 13.2 C 0 km/h
287 04-06-2014 00:10:00 13.1 C 9.81 g/m*3 13.1 C 1.6 km/h
288 04-06-2014 00:15:00 13.1 C 9.81 g/m*3 13.1 C 0 km/h
289 04-06-2014 00:20:00 13 C 9.75 g/m*3 13 C 0 km/h
290 04-06-2014 00:25:00 13 C 9.75 g/m*3 13 C 0 km/h
291 04-06-2014 00:30:00 12.9 C 9.81 g/m*3 12.9 C 0 km/h
292 04-06-2014 00:35:00 12.9 C 9.69 g/m*3 12.9 C 0 km/h
293 04-06-2014 00:40:00 12.8 C 9.74 g/m*3 12.8 C 0 km/h
294 04-06-2014 00:45:00 12.8 C 9.74 g/m*3 12.8 C 0 km/h
295 04-06-2014 00:50:00 12.8 C 9.74 g/m*3 12.8 C 0 km/h
296 04-06-2014 00:55:00 12.8 C 9.74 g/m*3 12.8 C 0 km/h
297 04-06-2014 01:00:00 12.7 C 9.68 g/m*3 12.7 C 0 km/h
298 04-06-2014 01:05:00 12.7 C 9.68 g/m*3 12.7 C 0 km/h
299 04-06-2014 01:10:00 12.5 C 9.68 g/m*3 12.5 C 0 km/h
300 04-06-2014 01:15:00 12.4 C 9.62 g/m*3 12.4 C 0 km/h
Sensor: Nr:Datum:Temp:Abs-Feuchte:Windchill:Wind:
Aussen-T/F 301 04-06-2014 01:20:00 12.3 C 9.56 g/m*3 12.3 C 0 km/h
302 04-06-2014 01:25:00 12.3 C 9.66 g/m*3 12.3 C 0 km/h
303 04-06-2014 01:30:00 12.2 C 9.5 g/m*3 12.2 C 0 km/h
304 04-06-2014 01:35:00 12.1 C 9.54 g/m*3 12.1 C 0 km/h
305 04-06-2014 01:40:00 11.9 C 9.43 g/m*3 11.9 C 0 km/h
306 04-06-2014 01:45:00 11.9 C 9.43 g/m*3 11.9 C 0 km/h
307 04-06-2014 01:50:00 11.9 C 9.43 g/m*3 11.9 C 0 km/h
308 04-06-2014 01:55:00 11.9 C 9.43 g/m*3 11.9 C 0 km/h
309 04-06-2014 02:00:00 11.8 C 9.47 g/m*3 11.8 C 1.6 km/h
310 04-06-2014 02:05:00 11.8 C 9.47 g/m*3 11.8 C 1.6 km/h
311 04-06-2014 02:10:00 11.8 C 9.47 g/m*3 11.8 C 0 km/h
312 04-06-2014 02:15:00 11.8 C 9.47 g/m*3 11.8 C 0 km/h
313 04-06-2014 02:20:00 11.7 C 9.52 g/m*3 11.7 C 0 km/h
314 04-06-2014 02:25:00 11.7 C 9.52 g/m*3 11.7 C 0 km/h
315 04-06-2014 02:30:00 11.6 C 9.46 g/m*3 11.6 C 0 km/h
316 04-06-2014 02:35:00 11.5 C 9.4 g/m*3 11.5 C 0 km/h
317 04-06-2014 02:40:00 11.4 C 9.34 g/m*3 11.4 C 0 km/h
318 04-06-2014 02:45:00 11.4 C 9.34 g/m*3 11.4 C 0 km/h
319 04-06-2014 02:50:00 11.3 C 9.38 g/m*3 11.3 C 0 km/h
320 04-06-2014 02:55:00 11.3 C 9.38 g/m*3 11.3 C 0 km/h
321 04-06-2014 03:00:00 11.3 C 9.38 g/m*3 11.3 C 0 km/h
322 04-06-2014 03:05:00 11.3 C 9.38 g/m*3 11.3 C 0 km/h
323 04-06-2014 03:10:00 11.2 C 9.33 g/m*3 11.2 C 0 km/h
324 04-06-2014 03:15:00 11.1 C 9.27 g/m*3 11.1 C 0 km/h
325 04-06-2014 03:20:00 11.1 C 9.27 g/m*3 11.1 C 0 km/h
Sensor: Nr:Datum:Temp:Abs-Feuchte:Windchill:Wind:
Aussen-T/F 326 04-06-2014 03:25:00 11 C 9.31 g/m*3 11 C 0 km/h
327 04-06-2014 03:30:00 10.9 C 9.25 g/m*3 10.9 C 0 km/h
328 04-06-2014 03:35:00 10.9 C 9.25 g/m*3 10.9 C 0 km/h
329 04-06-2014 03:40:00 10.8 C 9.19 g/m*3 10.8 C 0 km/h
330 04-06-2014 03:45:00 10.8 C 9.19 g/m*3 10.8 C 0 km/h
331 04-06-2014 03:50:00 10.8 C 9.19 g/m*3 10.8 C 0 km/h
332 04-06-2014 03:55:00 10.8 C 9.19 g/m*3 10.8 C 0 km/h
333 04-06-2014 04:00:00 10.8 C 9.19 g/m*3 10.8 C 0 km/h
334 04-06-2014 04:05:00 10.8 C 9.29 g/m*3 10.8 C 0 km/h
335 04-06-2014 04:10:00 10.8 C 9.29 g/m*3 10.8 C 1.6 km/h
336 04-06-2014 04:15:00 10.7 C 9.23 g/m*3 10.7 C 1.6 km/h
337 04-06-2014 04:20:00 10.7 C 9.23 g/m*3 10.7 C 0 km/h
338 04-06-2014 04:25:00 10.7 C 9.23 g/m*3 10.7 C 0 km/h
339 04-06-2014 04:30:00 10.6 C 9.17 g/m*3 10.6 C 0 km/h
340 04-06-2014 04:35:00 10.5 C 9.12 g/m*3 10.5 C 0 km/h
341 04-06-2014 04:40:00 10.5 C 9.12 g/m*3 10.5 C 0 km/h
342 04-06-2014 04:45:00 10.6 C 9.17 g/m*3 10.6 C 1.6 km/h
343 04-06-2014 04:50:00 10.6 C 9.17 g/m*3 10.6 C 0 km/h
344 04-06-2014 04:55:00 10.6 C 9.17 g/m*3 10.6 C 0 km/h
345 04-06-2014 05:00:00 10.7 C 9.23 g/m*3 10.7 C 0 km/h
346 04-06-2014 05:05:00 10.7 C 9.23 g/m*3 10.7 C 0 km/h
347 04-06-2014 05:10:00 10.8 C 9.39 g/m*3 10.8 C 0 km/h
348 04-06-2014 05:15:00 10.8 C 9.39 g/m*3 10.8 C 0 km/h
349 04-06-2014 05:20:00 10.9 C 9.45 g/m*3 10.9 C 0 km/h
350 04-06-2014 05:25:00 10.9 C 9.35 g/m*3 10.9 C 0 km/h
Sensor: Nr:Datum:Temp:Abs-Feuchte:Windchill:Wind:
Aussen-T/F 351 04-06-2014 05:30:00 10.9 C 9.35 g/m*3 10.9 C 0 km/h
352 04-06-2014 05:35:00 10.9 C 9.35 g/m*3 10.9 C 0 km/h
353 04-06-2014 05:40:00 10.9 C 9.35 g/m*3 10.9 C 0 km/h
354 04-06-2014 05:45:00 10.9 C 9.35 g/m*3 10.9 C 0 km/h
355 04-06-2014 05:50:00 10.9 C 9.35 g/m*3 10.9 C 0 km/h
356 04-06-2014 05:55:00 10.9 C 9.35 g/m*3 10.9 C 0 km/h
357 04-06-2014 06:00:00 10.9 C 9.35 g/m*3 10.9 C 0 km/h
358 04-06-2014 06:05:00 11.1 C 9.47 g/m*3 11.1 C 0 km/h
359 04-06-2014 06:10:00 11.2 C 9.53 g/m*3 11.2 C 1.6 km/h
360 04-06-2014 06:15:00 11.3 C 9.59 g/m*3 11.3 C 0 km/h
361 04-06-2014 06:20:00 11.4 C 9.65 g/m*3 11.4 C 1.6 km/h
362 04-06-2014 06:25:00 11.6 C 9.67 g/m*3 11.6 C 0 km/h
363 04-06-2014 06:30:00 11.7 C 9.73 g/m*3 11.7 C 0 km/h
364 04-06-2014 06:35:00 11.8 C 9.79 g/m*3 11.8 C 0 km/h
365 04-06-2014 06:40:00 11.9 C 9.74 g/m*3 11.9 C 1.6 km/h
366 04-06-2014 06:45:00 12.1 C 9.87 g/m*3 12.1 C 0 km/h
367 04-06-2014 06:50:00 12.1 C 9.76 g/m*3 12.1 C 0 km/h
368 04-06-2014 06:55:00 12.2 C 9.82 g/m*3 12.2 C 0 km/h
369 04-06-2014 07:00:00 12.3 C 9.77 g/m*3 12.3 C 0 km/h
370 04-06-2014 07:05:00 12.4 C 9.83 g/m*3 12.4 C 0 km/h
371 04-06-2014 07:10:00 12.5 C 9.89 g/m*3 12.5 C 0 km/h
372 04-06-2014 07:15:00 12.6 C 9.85 g/m*3 12.6 C 0 km/h
373 04-06-2014 07:20:00 12.7 C 9.91 g/m*3 12.7 C 0 km/h
374 04-06-2014 07:25:00 12.8 C 10.08 g/m*3 12.8 C 1.6 km/h
375 04-06-2014 07:30:00 12.9 C 10.03 g/m*3 12.9 C 0 km/h
Sensor: Nr:Datum:Temp:Abs-Feuchte:Windchill:Wind:
Aussen-T/F 376 04-06-2014 07:35:00 13.1 C 10.16 g/m*3 13.1 C 0 km/h
377 04-06-2014 07:40:00 13.3 C 10.17 g/m*3 13.3 C 0 km/h
378 04-06-2014 07:45:00 13.4 C 10.23 g/m*3 13.4 C 0 km/h
379 04-06-2014 07:50:00 13.6 C 10.36 g/m*3 13.6 C 0 km/h
380 04-06-2014 07:55:00 13.7 C 10.3 g/m*3 13.7 C 0 km/h
381 04-06-2014 08:00:00 13.8 C 10.37 g/m*3 13.8 C 0 km/h
382 04-06-2014 08:05:00 14 C 10.49 g/m*3 14 C 0 km/h
383 04-06-2014 08:10:00 14.4 C 10.75 g/m*3 14.4 C 0 km/h
384 04-06-2014 08:15:00 14.8 C 10.77 g/m*3 14.8 C 1.6 km/h
385 04-06-2014 08:20:00 15.3 C 10.97 g/m*3 15.3 C 1.6 km/h
386 04-06-2014 08:25:00 15.7 C 11.11 g/m*3 15.7 C 1.6 km/h
387 04-06-2014 08:30:00 15.9 C 11.1 g/m*3 15.9 C 1.6 km/h
388 04-06-2014 08:35:00 16.2 C 11.17 g/m*3 16.2 C 1.6 km/h
389 04-06-2014 08:40:00 16.4 C 11.17 g/m*3 16.4 C 1.6 km/h
390 04-06-2014 08:45:00 16.8 C 11.58 g/m*3 16.8 C 1.6 km/h
391 04-06-2014 08:50:00 17.1 C 11.21 g/m*3 17.1 C 6.4 km/h
392 04-06-2014 08:55:00 17.4 C 11.12 g/m*3 17.4 C 4.8 km/h
393 04-06-2014 09:00:00 17.5 C 11.18 g/m*3 17.5 C 3.2 km/h
394 04-06-2014 09:05:00 17.6 C 11.1 g/m*3 17.6 C 1.6 km/h
395 04-06-2014 09:10:00 17.7 C 10.86 g/m*3 17.7 C 9.7 km/h
396 04-06-2014 09:15:00 17.8 C 11.08 g/m*3 17.8 C 3.2 km/h
397 04-06-2014 09:20:00 17.8 C 11.08 g/m*3 17.8 C 4.8 km/h
398 04-06-2014 09:25:00 17.8 C 10.93 g/m*3 17.8 C 3.2 km/h
399 04-06-2014 09:30:00 17.9 C 11.15 g/m*3 17.9 C 8.1 km/h
400 04-06-2014 09:35:00 18.1 C 11.43 g/m*3 18.1 C 4.8 km/h
Sensor: Nr:Datum:Temp:Abs-Feuchte:Windchill:Wind:
Aussen-T/F 401 04-06-2014 09:40:00 18.3 C 11.26 g/m*3 18.3 C 4.8 km/h
402 04-06-2014 09:45:00 18.3 C 11.1 g/m*3 18.3 C 14.5 km/h
403 04-06-2014 09:50:00 18.3 C 11.1 g/m*3 18.3 C 12.9 km/h
404 04-06-2014 09:55:00 18.3 C 11.1 g/m*3 18.3 C 4.8 km/h
405 04-06-2014 11:40:00 20.4 C 12.21 g/m*3 20.4 C 6.4 km/h
406 04-06-2014 11:45:00 20.6 C 12.17 g/m*3 20.6 C 3.2 km/h
407 04-06-2014 11:50:00 20.8 C 11.77 g/m*3 20.8 C 3.2 km/h
408 04-06-2014 11:55:00 20.9 C 11.84 g/m*3 20.9 C 3.2 km/h
409 04-06-2014 12:00:00 21 C 11.54 g/m*3 21 C 8.1 km/h
410 04-06-2014 12:05:00 20.9 C 11.47 g/m*3 20.9 C 3.2 km/h
411 04-06-2014 12:10:00 20.9 C 11.84 g/m*3 20.9 C 3.2 km/h
412 04-06-2014 12:15:00 20.8 C 11.59 g/m*3 20.8 C 3.2 km/h
413 04-06-2014 12:20:00 20.6 C 12.35 g/m*3 20.6 C 1.6 km/h
414 04-06-2014 12:25:00 20.3 C 11.61 g/m*3 20.3 C 3.2 km/h
415 04-06-2014 12:30:00 20.1 C 12.34 g/m*3 20.1 C 0 km/h
416 04-06-2014 12:35:00 19.8 C 11.27 g/m*3 19.8 C 3.2 km/h
417 04-06-2014 12:40:00 19.7 C 11.04 g/m*3 19.7 C 6.4 km/h
418 04-06-2014 12:45:00 19.5 C 10.91 g/m*3 19.5 C 11.3 km/h
419 04-06-2014 12:50:00 19.3 C 10.78 g/m*3 19.3 C 9.7 km/h
420 04-06-2014 12:55:00 19.1 C 10.66 g/m*3 19.1 C 14.5 km/h
421 04-06-2014 13:00:00 18.8 C 10.79 g/m*3 18.8 C 19.3 km/h
422 04-06-2014 13:05:00 18.4 C 10.85 g/m*3 18.4 C 14.5 km/h
423 04-06-2014 13:10:00 18.2 C 11.19 g/m*3 18.2 C 11.3 km/h
424 04-06-2014 13:15:00 17.9 C 11.15 g/m*3 17.9 C 8.1 km/h
425 04-06-2014 13:20:00 17.8 C 10.93 g/m*3 17.8 C 4.8 km/h
Sensor: Nr:Datum:Temp:Abs-Feuchte:Windchill:Wind:
Aussen-T/F 426 04-06-2014 13:25:00 17.9 C 11.15 g/m*3 17.9 C 6.4 km/h
427 04-06-2014 13:30:00 18 C 11.21 g/m*3 18 C 9.7 km/h
428 04-06-2014 13:35:00 17.9 C 11.3 g/m*3 17.9 C 12.9 km/h
429 04-06-2014 13:40:00 17.8 C 11.23 g/m*3 17.8 C 8.1 km/h
430 04-06-2014 13:45:00 17.7 C 11.47 g/m*3 17.7 C 9.7 km/h
431 04-06-2014 13:50:00 17.7 C 12.07 g/m*3 17.7 C 8.1 km/h
432 04-06-2014 13:55:00 17.6 C 12 g/m*3 17.6 C 3.2 km/h
433 04-06-2014 14:00:00 17.5 C 11.63 g/m*3 17.5 C 4.8 km/h
434 04-06-2014 14:05:00 17.4 C 11.71 g/m*3 17.4 C 6.4 km/h
435 04-06-2014 14:10:00 17.3 C 11.93 g/m*3 17.3 C 6.4 km/h
436 04-06-2014 14:15:00 17.2 C 12.01 g/m*3 17.2 C 0 km/h
437 04-06-2014 14:20:00 17.1 C 11.94 g/m*3 17.1 C 0 km/h
438 04-06-2014 14:25:00 16.9 C 11.94 g/m*3 16.9 C 0 km/h
439 04-06-2014 14:30:00 16.7 C 11.94 g/m*3 16.7 C 0 km/h
440 04-06-2014 14:35:00 16.5 C 12.08 g/m*3 16.5 C 0 km/h
441 04-06-2014 14:40:00 16.4 C 12.14 g/m*3 16.4 C 0 km/h
442 04-06-2014 14:45:00 16.5 C 12.36 g/m*3 16.5 C 0 km/h
443 04-06-2014 14:50:00 16.8 C 12.87 g/m*3 16.8 C 0 km/h
444 04-06-2014 14:55:00 17.1 C 13.1 g/m*3 17.1 C 3.2 km/h
445 04-06-2014 15:00:00 17.4 C 13.19 g/m*3 17.4 C 4.8 km/h
446 04-06-2014 15:05:00 17.6 C 12.9 g/m*3 17.6 C 3.2 km/h
447 04-06-2014 15:10:00 17.8 C 12.9 g/m*3 17.8 C 4.8 km/h
448 04-06-2014 15:15:00 17.9 C 12.83 g/m*3 17.9 C 1.6 km/h
449 04-06-2014 15:20:00 17.8 C 12.9 g/m*3 17.8 C 0 km/h
450 04-06-2014 15:25:00 17.6 C 13.05 g/m*3 17.6 C 0 km/h
Sensor: Nr:Datum:Temp:Abs-Feuchte:Windchill:Wind:
Aussen-T/F 451 04-06-2014 15:30:00 17.2 C 12.89 g/m*3 17.2 C 0 km/h
452 04-06-2014 15:35:00 17.1 C 13.1 g/m*3 17.1 C 0 km/h
453 04-06-2014 15:40:00 17.2 C 13.33 g/m*3 17.2 C 0 km/h
454 04-06-2014 15:45:00 17.2 C 13.18 g/m*3 17.2 C 4.8 km/h
455 04-06-2014 15:50:00 17.2 C 13.18 g/m*3 17.2 C 3.2 km/h
456 04-06-2014 15:55:00 17.3 C 13.26 g/m*3 17.3 C 0 km/h
457 04-06-2014 16:00:00 17.4 C 13.34 g/m*3 17.4 C 0 km/h
458 04-06-2014 16:05:00 17.5 C 13.42 g/m*3 17.5 C 0 km/h
459 04-06-2014 16:10:00 17.4 C 13.34 g/m*3 17.4 C 0 km/h
460 04-06-2014 16:15:00 17.4 C 13.34 g/m*3 17.4 C 0 km/h
461 04-06-2014 16:20:00 17.4 C 13.49 g/m*3 17.4 C 0 km/h
462 04-06-2014 16:25:00 17.3 C 13.41 g/m*3 17.3 C 0 km/h
463 04-06-2014 16:30:00 17.2 C 13.33 g/m*3 17.2 C 0 km/h
464 04-06-2014 16:35:00 17.1 C 13.39 g/m*3 17.1 C 0 km/h
465 04-06-2014 16:40:00 16.7 C 13.07 g/m*3 16.7 C 0 km/h
466 04-06-2014 16:45:00 16.6 C 13.14 g/m*3 16.6 C 0 km/h
467 04-06-2014 16:50:00 16.5 C 13.06 g/m*3 16.5 C 1.6 km/h
468 04-06-2014 16:55:00 16.6 C 13.28 g/m*3 16.6 C 0 km/h
469 04-06-2014 17:00:00 16.4 C 12.98 g/m*3 16.4 C 0 km/h
470 04-06-2014 17:05:00 16.6 C 13.28 g/m*3 16.6 C 0 km/h
471 04-06-2014 17:10:00 16.6 C 13.28 g/m*3 16.6 C 0 km/h
472 04-06-2014 17:15:00 16.7 C 13.36 g/m*3 16.7 C 0 km/h
473 04-06-2014 17:20:00 16.8 C 13.58 g/m*3 16.8 C 0 km/h
474 04-06-2014 17:25:00 16.8 C 13.58 g/m*3 16.8 C 0 km/h
475 04-06-2014 17:30:00 16.8 C 13.58 g/m*3 16.8 C 0 km/h
Sensor: Nr:Datum:Temp:Abs-Feuchte:Windchill:Wind:
Aussen-T/F 476 04-06-2014 17:35:00 16.8 C 13.58 g/m*3 16.8 C 4.8 km/h
477 04-06-2014 17:40:00 16.8 C 13.58 g/m*3 16.8 C 0 km/h
478 04-06-2014 17:45:00 16.5 C 13.06 g/m*3 16.5 C 3.2 km/h
479 04-06-2014 17:50:00 16.3 C 12.9 g/m*3 16.3 C 1.6 km/h
480 04-06-2014 17:55:00 16.2 C 12.82 g/m*3 16.2 C 0 km/h
481 04-06-2014 18:00:00 16.1 C 12.75 g/m*3 16.1 C 0 km/h
482 04-06-2014 18:05:00 16.1 C 12.88 g/m*3 16.1 C 0 km/h
483 04-06-2014 18:10:00 16.2 C 12.96 g/m*3 16.2 C 0 km/h
484 04-06-2014 18:15:00 16.2 C 13.1 g/m*3 16.2 C 0 km/h
485 04-06-2014 18:20:00 16.3 C 13.18 g/m*3 16.3 C 0 km/h
486 04-06-2014 18:25:00 16.5 C 13.34 g/m*3 16.5 C 0 km/h
487 04-06-2014 18:30:00 16.6 C 13.28 g/m*3 16.6 C 0 km/h
488 04-06-2014 18:35:00 16.9 C 13.38 g/m*3 16.9 C 6.4 km/h
489 04-06-2014 18:40:00 17.2 C 13.47 g/m*3 17.2 C 0 km/h
490 04-06-2014 18:45:00 17.4 C 13.34 g/m*3 17.4 C 1.6 km/h
491 04-06-2014 18:50:00 17.8 C 13.36 g/m*3 17.8 C 1.6 km/h
492 04-06-2014 18:55:00 17.9 C 13.59 g/m*3 17.9 C 0 km/h
493 04-06-2014 19:00:00 17.9 C 13.44 g/m*3 17.9 C 0 km/h
494 04-06-2014 19:05:00 18.1 C 13.44 g/m*3 18.1 C 1.6 km/h
495 04-06-2014 19:10:00 18.1 C 13.75 g/m*3 18.1 C 3.2 km/h
496 04-06-2014 19:15:00 18.1 C 13.13 g/m*3 18.1 C 1.6 km/h
497 04-06-2014 19:20:00 18 C 13.52 g/m*3 18 C 0 km/h
498 04-06-2014 19:25:00 17.8 C 13.51 g/m*3 17.8 C 0 km/h
499 04-06-2014 19:30:00 17.6 C 13.5 g/m*3 17.6 C 0 km/h
500 04-06-2014 19:35:00 17.6 C 13.5 g/m*3 17.6 C 1.6 km/h
Sensor: Nr:Datum:Temp:Abs-Feuchte:Windchill:Wind:
Aussen-T/F 501 04-06-2014 21:45:00 14.6 C 11.89 g/m*3 14.6 C 0 km/h
502 04-06-2014 21:50:00 14.5 C 11.69 g/m*3 14.5 C 0 km/h
503 04-06-2014 21:55:00 14.5 C 11.69 g/m*3 14.5 C 1.6 km/h
504 05-06-2014 00:35:00 13.4 C 10.69 g/m*3 13.4 C 11.3 km/h
505 05-06-2014 00:40:00 13.4 C 10.69 g/m*3 13.4 C 6.4 km/h
506 05-06-2014 00:45:00 13.2 C 10.22 g/m*3 13.2 C 19.3 km/h
507 05-06-2014 00:50:00 13.2 C 10.1 g/m*3 13.2 C 16.1 km/h
508 05-06-2014 00:55:00 13 C 9.98 g/m*3 13 C 8.1 km/h
509 05-06-2014 01:00:00 12.9 C 10.03 g/m*3 12.9 C 4.8 km/h
510 05-06-2014 01:05:00 12.8 C 9.86 g/m*3 12.8 C 9.7 km/h
511 05-06-2014 01:10:00 12.7 C 9.8 g/m*3 12.7 C 14.5 km/h
512 05-06-2014 01:15:00 12.7 C 10.02 g/m*3 12.7 C 3.2 km/h
513 05-06-2014 01:20:00 12.7 C 10.02 g/m*3 12.7 C 1.6 km/h
514 05-06-2014 01:25:00 12.5 C 9.89 g/m*3 12.5 C 1.6 km/h
515 05-06-2014 01:30:00 12.4 C 9.72 g/m*3 12.4 C 4.8 km/h
516 05-06-2014 01:35:00 12.4 C 9.62 g/m*3 12.4 C 3.2 km/h
517 05-06-2014 01:40:00 12.4 C 9.62 g/m*3 12.4 C 8.1 km/h
518 05-06-2014 01:45:00 12.4 C 9.62 g/m*3 12.4 C 3.2 km/h
519 05-06-2014 01:50:00 12.3 C 9.66 g/m*3 12.3 C 1.6 km/h
520 05-06-2014 01:55:00 12.3 C 9.66 g/m*3 12.3 C 1.6 km/h
521 05-06-2014 02:00:00 12.2 C 9.71 g/m*3 12.2 C 1.6 km/h
522 05-06-2014 02:05:00 12.1 C 9.65 g/m*3 12.1 C 1.6 km/h
523 05-06-2014 02:10:00 12.1 C 9.54 g/m*3 12.1 C 1.6 km/h
524 05-06-2014 02:15:00 12.1 C 9.54 g/m*3 12.1 C 9.7 km/h
525 05-06-2014 02:20:00 12.1 C 9.54 g/m*3 12.1 C 3.2 km/h
Sensor: Nr:Datum:Temp:Abs-Feuchte:Windchill:Wind:
Aussen-T/F 526 05-06-2014 02:25:00 12.1 C 9.33 g/m*3 12.1 C 1.6 km/h
527 05-06-2014 02:30:00 12.1 C 9.44 g/m*3 12.1 C 1.6 km/h
528 05-06-2014 02:35:00 12.1 C 9.44 g/m*3 12.1 C 1.6 km/h
529 05-06-2014 02:40:00 12 C 9.38 g/m*3 12 C 1.6 km/h
530 05-06-2014 02:45:00 11.9 C 9.43 g/m*3 11.9 C 0 km/h
531 05-06-2014 02:50:00 11.8 C 9.16 g/m*3 11.8 C 9.7 km/h
532 05-06-2014 02:55:00 11.8 C 8.95 g/m*3 11.8 C 16.1 km/h
533 05-06-2014 03:00:00 11.9 C 8.79 g/m*3 11.9 C 14.5 km/h
534 05-06-2014 03:05:00 11.8 C 8.42 g/m*3 11.8 C 11.3 km/h
535 05-06-2014 03:10:00 11.6 C 8 g/m*3 11.6 C 20.9 km/h
536 05-06-2014 03:15:00 11.4 C 7.8 g/m*3 11.4 C 20.9 km/h
537 05-06-2014 03:20:00 11.3 C 7.65 g/m*3 11.3 C 16.1 km/h
538 05-06-2014 03:25:00 11.2 C 7.7 g/m*3 11.2 C 16.1 km/h
539 05-06-2014 03:30:00 11.1 C 7.76 g/m*3 11.1 C 8.1 km/h
540 05-06-2014 03:35:00 11.1 C 7.76 g/m*3 11.1 C 9.7 km/h
541 05-06-2014 03:40:00 11.1 C 7.76 g/m*3 11.1 C 1.6 km/h
542 05-06-2014 03:45:00 10 C 8.08 g/m*3 10 C 1.6 km/h
543 05-06-2014 03:50:00 9.7 C 8.11 g/m*3 9.7 C 3.2 km/h
544 05-06-2014 03:55:00 9.4 C 8.05 g/m*3 9.4 C 1.6 km/h
545 05-06-2014 04:00:00 9.1 C 7.99 g/m*3 9.1 C 1.6 km/h
546 05-06-2014 04:05:00 8.9 C 7.97 g/m*3 8.9 C 1.6 km/h
547 05-06-2014 04:10:00 8.8 C 7.92 g/m*3 8.8 C 1.6 km/h
548 05-06-2014 04:15:00 8.8 C 8.01 g/m*3 8.8 C 1.6 km/h
549 05-06-2014 04:20:00 8.8 C 8.01 g/m*3 8.8 C 1.6 km/h
550 05-06-2014 04:25:00 8.7 C 7.96 g/m*3 8.7 C 0 km/h
Sensor: Nr:Datum:Temp:Abs-Feuchte:Windchill:Wind:
Aussen-T/F 551 05-06-2014 04:30:00 8.7 C 7.96 g/m*3 8.7 C 1.6 km/h
552 05-06-2014 04:35:00 8.7 C 7.96 g/m*3 8.7 C 0 km/h
553 05-06-2014 04:40:00 8.7 C 7.96 g/m*3 8.7 C 1.6 km/h
554 05-06-2014 04:45:00 8.8 C 8.01 g/m*3 8.8 C 3.2 km/h
555 05-06-2014 04:50:00 8.9 C 7.97 g/m*3 8.9 C 3.2 km/h
556 05-06-2014 04:55:00 9.1 C 7.99 g/m*3 9.1 C 3.2 km/h
557 05-06-2014 05:00:00 9.2 C 8.04 g/m*3 9.2 C 3.2 km/h
558 05-06-2014 05:05:00 9.1 C 7.99 g/m*3 9.1 C 1.6 km/h
559 05-06-2014 05:10:00 9 C 7.93 g/m*3 9 C 0 km/h
560 05-06-2014 05:15:00 8.9 C 7.97 g/m*3 8.9 C 0 km/h
561 05-06-2014 05:20:00 8.8 C 7.92 g/m*3 8.8 C 0 km/h
562 05-06-2014 05:25:00 8.7 C 7.87 g/m*3 8.7 C 0 km/h
563 05-06-2014 05:30:00 8.6 C 7.82 g/m*3 8.6 C 0 km/h
564 05-06-2014 05:35:00 8.6 C 7.91 g/m*3 8.6 C 1.6 km/h
565 05-06-2014 05:40:00 8.5 C 7.94 g/m*3 8.5 C 0 km/h
566 05-06-2014 05:45:00 8.5 C 7.94 g/m*3 8.5 C 0 km/h
567 05-06-2014 05:50:00 8.5 C 7.94 g/m*3 8.5 C 0 km/h
568 05-06-2014 05:55:00 8.5 C 8.03 g/m*3 8.5 C 0 km/h
569 05-06-2014 06:00:00 8.5 C 8.03 g/m*3 8.5 C 0 km/h
570 05-06-2014 06:05:00 8.5 C 8.03 g/m*3 8.5 C 0 km/h
571 05-06-2014 06:10:00 8.5 C 8.11 g/m*3 8.5 C 0 km/h
572 05-06-2014 06:15:00 8.5 C 8.11 g/m*3 8.5 C 0 km/h
573 05-06-2014 06:20:00 8.6 C 8.16 g/m*3 8.6 C 0 km/h
574 05-06-2014 06:25:00 8.7 C 8.22 g/m*3 8.7 C 0 km/h
575 05-06-2014 06:30:00 8.7 C 8.22 g/m*3 8.7 C 0 km/h
Sensor: Nr:Datum:Temp:Abs-Feuchte:Windchill:Wind:
Aussen-T/F 576 05-06-2014 06:35:00 8.7 C 8.22 g/m*3 8.7 C 0 km/h
577 05-06-2014 06:40:00 8.7 C 8.22 g/m*3 8.7 C 0 km/h
578 05-06-2014 06:45:00 8.8 C 8.27 g/m*3 8.8 C 0 km/h
579 05-06-2014 06:50:00 8.8 C 8.27 g/m*3 8.8 C 0 km/h
580 05-06-2014 06:55:00 8.9 C 8.32 g/m*3 8.9 C 0 km/h
581 05-06-2014 07:00:00 8.9 C 8.32 g/m*3 8.9 C 1.6 km/h
582 05-06-2014 07:05:00 9 C 8.38 g/m*3 9 C 0 km/h
583 05-06-2014 07:10:00 9.1 C 8.43 g/m*3 9.1 C 0 km/h
584 05-06-2014 07:15:00 9.1 C 8.43 g/m*3 9.1 C 0 km/h
585 05-06-2014 07:20:00 9.2 C 8.48 g/m*3 9.2 C 3.2 km/h
586 05-06-2014 07:25:00 9.3 C 8.54 g/m*3 8.56 C 6.4 km/h
587 05-06-2014 07:30:00 9.4 C 8.5 g/m*3 7.97 C 9.7 km/h
588 05-06-2014 07:35:00 9.7 C 8.57 g/m*3 8.33 C 9.7 km/h
589 05-06-2014 07:40:00 9.9 C 8.59 g/m*3 9.25 C 6.4 km/h
590 05-06-2014 07:45:00 10.3 C 8.71 g/m*3 9.34 C 8.1 km/h
591 05-06-2014 07:50:00 10.6 C 8.59 g/m*3 9.69 C 8.1 km/h
592 05-06-2014 07:55:00 10.9 C 8.65 g/m*3 9.28 C 12.9 km/h
593 05-06-2014 08:00:00 11.2 C 8.62 g/m*3 11.2 C 14.5 km/h
594 05-06-2014 08:05:00 11.4 C 8.72 g/m*3 11.4 C 12.9 km/h
595 05-06-2014 08:10:00 11.6 C 8.73 g/m*3 11.6 C 8.1 km/h
596 05-06-2014 08:15:00 11.7 C 8.79 g/m*3 11.7 C 4.8 km/h
597 05-06-2014 08:20:00 11.8 C 8.74 g/m*3 11.8 C 20.9 km/h
598 05-06-2014 08:25:00 11.8 C 8.74 g/m*3 11.8 C 8.1 km/h
599 05-06-2014 08:30:00 12 C 8.85 g/m*3 12 C 4.8 km/h
600 05-06-2014 08:35:00 12.2 C 8.85 g/m*3 12.2 C 8.1 km/h
Sensor: Nr:Datum:Temp:Abs-Feuchte:Windchill:Wind:
Aussen-T/F 601 05-06-2014 08:40:00 12.2 C 8.85 g/m*3 12.2 C 6.4 km/h
602 05-06-2014 08:45:00 12.3 C 8.69 g/m*3 12.3 C 8.1 km/h
603 05-06-2014 08:50:00 12.6 C 8.85 g/m*3 12.6 C 6.4 km/h
604 05-06-2014 08:55:00 12.8 C 9.07 g/m*3 12.8 C 6.4 km/h
605 05-06-2014 09:00:00 12.9 C 8.9 g/m*3 12.9 C 3.2 km/h
606 05-06-2014 09:05:00 13.1 C 8.9 g/m*3 13.1 C 8.1 km/h
607 05-06-2014 09:10:00 13.1 C 8.9 g/m*3 13.1 C 9.7 km/h
608 05-06-2014 09:15:00 13.2 C 8.61 g/m*3 13.2 C 17.7 km/h
609 05-06-2014 09:20:00 13.1 C 8.56 g/m*3 13.1 C 9.7 km/h
610 05-06-2014 09:25:00 13.2 C 8.61 g/m*3 13.2 C 12.9 km/h
611 05-06-2014 09:30:00 13.3 C 8.43 g/m*3 13.3 C 11.3 km/h
612 05-06-2014 09:35:00 13.4 C 8.6 g/m*3 13.4 C 12.9 km/h
613 05-06-2014 09:40:00 13.6 C 8.24 g/m*3 13.6 C 22.5 km/h
614 05-06-2014 09:45:00 13.7 C 8.53 g/m*3 13.7 C 17.7 km/h
615 05-06-2014 09:50:00 13.9 C 8.15 g/m*3 13.9 C 16.1 km/h
616 05-06-2014 09:55:00 14.2 C 8.3 g/m*3 14.2 C 22.5 km/h
617 05-06-2014 10:00:00 14.3 C 8.23 g/m*3 14.3 C 27.4 km/h
618 05-06-2014 10:05:00 14.5 C 8.46 g/m*3 14.5 C 14.5 km/h
619 05-06-2014 10:10:00 14.7 C 8.44 g/m*3 14.7 C 19.3 km/h
620 05-06-2014 10:15:00 14.8 C 8.36 g/m*3 14.8 C 16.1 km/h
621 05-06-2014 10:20:00 15 C 8.21 g/m*3 15 C 20.9 km/h
622 05-06-2014 10:25:00 15.1 C 8.26 g/m*3 15.1 C 16.1 km/h
623 05-06-2014 10:30:00 14.8 C 8.23 g/m*3 14.8 C 14.5 km/h
624 05-06-2014 10:35:00 14.6 C 8.13 g/m*3 14.6 C 12.9 km/h
625 05-06-2014 10:40:00 14.7 C 8.31 g/m*3 14.7 C 8.1 km/h
Sensor: Nr:Datum:Temp:Abs-Feuchte:Windchill:Wind:
Aussen-T/F 626 05-06-2014 10:45:00 14.8 C 8.23 g/m*3 14.8 C 19.3 km/h
627 05-06-2014 10:50:00 14.8 C 8.23 g/m*3 14.8 C 20.9 km/h
628 05-06-2014 10:55:00 15 C 8.21 g/m*3 15 C 19.3 km/h
629 05-06-2014 11:00:00 15.2 C 8.44 g/m*3 15.2 C 16.1 km/h
630 05-06-2014 11:05:00 15.3 C 8.1 g/m*3 15.3 C 24.1 km/h
631 05-06-2014 11:10:00 15.3 C 8.1 g/m*3 15.3 C 17.7 km/h
632 05-06-2014 11:15:00 15.5 C 8.33 g/m*3 15.5 C 12.9 km/h
633 05-06-2014 11:20:00 15.7 C 8.03 g/m*3 15.7 C 20.9 km/h
634 05-06-2014 11:25:00 15.5 C 8.06 g/m*3 15.5 C 19.3 km/h
635 05-06-2014 11:30:00 15.6 C 8.38 g/m*3 15.6 C 14.5 km/h
636 05-06-2014 11:35:00 16.1 C 8.5 g/m*3 16.1 C 16.1 km/h
637 05-06-2014 11:40:00 16.4 C 8.1 g/m*3 16.4 C 20.9 km/h
638 05-06-2014 11:45:00 16.6 C 8.05 g/m*3 16.6 C 17.7 km/h
639 05-06-2014 11:50:00 16.6 C 8.05 g/m*3 16.6 C 19.3 km/h
640 05-06-2014 11:55:00 16.8 C 8.29 g/m*3 16.8 C 16.1 km/h
641 05-06-2014 12:00:00 16.8 C 7.72 g/m*3 16.8 C 16.1 km/h
642 05-06-2014 12:05:00 16.7 C 7.82 g/m*3 16.7 C 29 km/h
643 05-06-2014 12:10:00 16.4 C 7.82 g/m*3 16.4 C 19.3 km/h
644 05-06-2014 12:15:00 16.6 C 7.91 g/m*3 16.6 C 20.9 km/h
645 05-06-2014 12:20:00 16.7 C 7.96 g/m*3 16.7 C 14.5 km/h
646 05-06-2014 12:25:00 16.7 C 8.24 g/m*3 16.7 C 9.7 km/h
647 05-06-2014 12:30:00 16.7 C 8.1 g/m*3 16.7 C 17.7 km/h
648 05-06-2014 12:35:00 17.1 C 7.86 g/m*3 17.1 C 20.9 km/h
649 05-06-2014 12:40:00 17.1 C 8.15 g/m*3 17.1 C 16.1 km/h
650 05-06-2014 12:45:00 17 C 7.81 g/m*3 17 C 20.9 km/h
Sensor: Nr:Datum:Temp:Abs-Feuchte:Windchill:Wind:
Aussen-T/F 651 05-06-2014 12:50:00 17.1 C 7.86 g/m*3 17.1 C 17.7 km/h
652 05-06-2014 12:55:00 17.3 C 7.96 g/m*3 17.3 C 24.1 km/h
653 05-06-2014 13:00:00 17.3 C 7.96 g/m*3 17.3 C 16.1 km/h
654 05-06-2014 13:05:00 17.4 C 7.85 g/m*3 17.4 C 16.1 km/h
655 05-06-2014 13:10:00 17.6 C 7.95 g/m*3 17.6 C 16.1 km/h
656 05-06-2014 13:15:00 17.8 C 7.74 g/m*3 17.8 C 16.1 km/h
657 05-06-2014 13:20:00 17.9 C 7.79 g/m*3 17.9 C 20.9 km/h
658 05-06-2014 13:25:00 17.9 C 7.79 g/m*3 17.9 C 19.3 km/h
659 05-06-2014 13:30:00 17.6 C 7.65 g/m*3 17.6 C 12.9 km/h
660 05-06-2014 13:35:00 17.6 C 7.35 g/m*3 17.6 C 11.3 km/h
661 05-06-2014 13:40:00 17.5 C 7.6 g/m*3 17.5 C 14.5 km/h
662 05-06-2014 13:45:00 17.6 C 7.95 g/m*3 17.6 C 14.5 km/h
663 05-06-2014 13:50:00 18 C 7.83 g/m*3 18 C 11.3 km/h
664 05-06-2014 13:55:00 18.1 C 7.73 g/m*3 18.1 C 14.5 km/h
665 05-06-2014 14:00:00 18.1 C 7.57 g/m*3 18.1 C 17.7 km/h
666 05-06-2014 14:05:00 17.9 C 7.48 g/m*3 17.9 C 16.1 km/h
667 05-06-2014 14:10:00 17.9 C 7.48 g/m*3 17.9 C 12.9 km/h
668 05-06-2014 14:15:00 17.8 C 7.74 g/m*3 17.8 C 16.1 km/h
669 05-06-2014 14:20:00 18.2 C 7.93 g/m*3 18.2 C 14.5 km/h
670 05-06-2014 14:25:00 18.4 C 7.71 g/m*3 18.4 C 12.9 km/h
671 05-06-2014 14:30:00 18.3 C 7.35 g/m*3 18.3 C 14.5 km/h
672 05-06-2014 14:35:00 18.1 C 7.57 g/m*3 18.1 C 16.1 km/h
673 05-06-2014 14:40:00 17.9 C 7.33 g/m*3 17.9 C 17.7 km/h
674 05-06-2014 14:45:00 17.7 C 7.39 g/m*3 17.7 C 14.5 km/h
675 05-06-2014 14:50:00 17.7 C 7.85 g/m*3 17.7 C 8.1 km/h
Sensor: Nr:Datum:Temp:Abs-Feuchte:Windchill:Wind:
Aussen-T/F 676 05-06-2014 14:55:00 17.8 C 7.89 g/m*3 17.8 C 6.4 km/h
677 05-06-2014 15:00:00 17.9 C 7.79 g/m*3 17.9 C 12.9 km/h
678 05-06-2014 15:05:00 18.4 C 7.71 g/m*3 18.4 C 11.3 km/h
679 05-06-2014 15:10:00 18.9 C 7.94 g/m*3 18.9 C 12.9 km/h
680 05-06-2014 15:15:00 19 C 7.33 g/m*3 19 C 19.3 km/h
681 05-06-2014 15:20:00 18.7 C 7.36 g/m*3 18.7 C 12.9 km/h
682 05-06-2014 15:25:00 18.4 C 7.24 g/m*3 18.4 C 9.7 km/h
683 05-06-2014 15:30:00 18.3 C 7.51 g/m*3 18.3 C 14.5 km/h
684 05-06-2014 15:35:00 18.1 C 7.73 g/m*3 18.1 C 14.5 km/h
685 05-06-2014 15:40:00 18.3 C 7.66 g/m*3 18.3 C 19.3 km/h
686 05-06-2014 15:45:00 18.9 C 7.61 g/m*3 18.9 C 14.5 km/h
687 05-06-2014 15:50:00 18.9 C 7.61 g/m*3 18.9 C 12.9 km/h
688 05-06-2014 15:55:00 18.7 C 7.52 g/m*3 18.7 C 22.5 km/h
689 05-06-2014 16:00:00 18.6 C 7.48 g/m*3 18.6 C 20.9 km/h
690 05-06-2014 16:05:00 19.2 C 7.42 g/m*3 19.2 C 16.1 km/h
691 05-06-2014 16:10:00 19.7 C 7.47 g/m*3 19.7 C 24.1 km/h
692 05-06-2014 16:15:00 20.1 C 7.65 g/m*3 20.1 C 16.1 km/h
693 05-06-2014 16:20:00 20.1 C 7.3 g/m*3 20.1 C 12.9 km/h
694 05-06-2014 16:25:00 19.7 C 7.81 g/m*3 19.7 C 12.9 km/h
695 05-06-2014 16:30:00 19.6 C 7.43 g/m*3 19.6 C 12.9 km/h
696 05-06-2014 16:35:00 19.8 C 7.52 g/m*3 19.8 C 14.5 km/h
697 05-06-2014 16:40:00 19.8 C 7.34 g/m*3 19.8 C 17.7 km/h
698 05-06-2014 16:45:00 19.6 C 6.92 g/m*3 19.6 C 16.1 km/h
699 05-06-2014 16:50:00 19.8 C 7.52 g/m*3 19.8 C 12.9 km/h
700 05-06-2014 16:55:00 20.1 C 6.95 g/m*3 20.1 C 11.3 km/h
Sensor: Nr:Datum:Temp:Abs-Feuchte:Windchill:Wind:
Aussen-T/F 701 05-06-2014 17:00:00 19.6 C 7.09 g/m*3 19.6 C 11.3 km/h
702 05-06-2014 17:05:00 19.2 C 7.09 g/m*3 19.2 C 11.3 km/h
703 05-06-2014 17:10:00 18.8 C 7.25 g/m*3 18.8 C 4.8 km/h
704 05-06-2014 17:15:00 18.6 C 7.48 g/m*3 18.6 C 6.4 km/h
705 05-06-2014 17:20:00 18.6 C 7.48 g/m*3 18.6 C 8.1 km/h
706 05-06-2014 17:25:00 18.7 C 7.52 g/m*3 18.7 C 11.3 km/h
707 05-06-2014 17:30:00 18.7 C 7.84 g/m*3 18.7 C 9.7 km/h
708 05-06-2014 17:35:00 18.7 C 7.36 g/m*3 18.7 C 9.7 km/h
709 05-06-2014 17:40:00 18.6 C 7.64 g/m*3 18.6 C 9.7 km/h
710 05-06-2014 17:45:00 19.2 C 7.42 g/m*3 19.2 C 12.9 km/h
711 05-06-2014 17:50:00 20.1 C 7.3 g/m*3 20.1 C 14.5 km/h
712 05-06-2014 17:55:00 20.5 C 6.94 g/m*3 20.5 C 17.7 km/h
713 05-06-2014 18:00:00 20.8 C 7.42 g/m*3 20.8 C 16.1 km/h
714 05-06-2014 18:05:00 20.8 C 7.24 g/m*3 20.8 C 14.5 km/h
715 05-06-2014 18:10:00 21 C 7.14 g/m*3 21 C 19.3 km/h
716 05-06-2014 18:15:00 20.8 C 7.42 g/m*3 20.8 C 17.7 km/h
717 05-06-2014 18:20:00 20.7 C 7.02 g/m*3 20.7 C 19.3 km/h
718 05-06-2014 18:25:00 20.7 C 7.38 g/m*3 20.7 C 11.3 km/h
719 05-06-2014 18:30:00 20.7 C 7.38 g/m*3 20.7 C 16.1 km/h
720 05-06-2014 18:35:00 20.6 C 7.34 g/m*3 20.6 C 24.1 km/h
721 05-06-2014 18:40:00 20.7 C 7.02 g/m*3 20.7 C 17.7 km/h
722 05-06-2014 18:45:00 20.7 C 7.02 g/m*3 20.7 C 14.5 km/h
723 05-06-2014 18:50:00 20.7 C 6.84 g/m*3 20.7 C 11.3 km/h
724 05-06-2014 18:55:00 20.5 C 7.12 g/m*3 20.5 C 9.7 km/h
725 05-06-2014 19:00:00 20.6 C 7.16 g/m*3 20.6 C 11.3 km/h
Sensor: Nr:Datum:Temp:Abs-Feuchte:Windchill:Wind:
Aussen-T/F 726 05-06-2014 19:05:00 20.6 C 6.8 g/m*3 20.6 C 14.5 km/h
727 05-06-2014 19:10:00 20.3 C 7.03 g/m*3 20.3 C 17.7 km/h
728 05-06-2014 19:15:00 20.1 C 7.13 g/m*3 20.1 C 9.7 km/h
729 05-06-2014 19:20:00 19.9 C 6.87 g/m*3 19.9 C 16.1 km/h
730 05-06-2014 19:25:00 19.8 C 6.66 g/m*3 19.8 C 14.5 km/h
731 05-06-2014 19:30:00 19.7 C 6.62 g/m*3 19.7 C 9.7 km/h
732 05-06-2014 19:35:00 19.6 C 6.92 g/m*3 19.6 C 12.9 km/h
733 05-06-2014 19:40:00 19.6 C 7.09 g/m*3 19.6 C 14.5 km/h
734 05-06-2014 19:45:00 19.4 C 6.51 g/m*3 19.4 C 14.5 km/h
735 05-06-2014 19:50:00 19.3 C 6.63 g/m*3 19.3 C 20.9 km/h
736 05-06-2014 19:55:00 19.2 C 6.6 g/m*3 19.2 C 9.7 km/h
737 05-06-2014 20:00:00 19.2 C 6.76 g/m*3 19.2 C 14.5 km/h
738 05-06-2014 20:05:00 19.1 C 6.56 g/m*3 19.1 C 8.1 km/h
739 05-06-2014 20:10:00 19 C 6.68 g/m*3 19 C 11.3 km/h
740 05-06-2014 20:15:00 19 C 6.68 g/m*3 19 C 11.3 km/h
741 05-06-2014 20:20:00 18.9 C 6.97 g/m*3 18.9 C 4.8 km/h
742 05-06-2014 20:25:00 18.8 C 7.57 g/m*3 18.8 C 4.8 km/h
743 05-06-2014 20:30:00 18.7 C 7.68 g/m*3 18.7 C 6.4 km/h
744 05-06-2014 20:35:00 18.5 C 7.44 g/m*3 18.5 C 8.1 km/h
745 05-06-2014 20:40:00 18.3 C 8.6 g/m*3 18.3 C 1.6 km/h
746 05-06-2014 20:45:00 17.8 C 8.8 g/m*3 17.8 C 1.6 km/h
747 05-06-2014 20:50:00 17.4 C 8.45 g/m*3 17.4 C 1.6 km/h
748 05-06-2014 20:55:00 17.1 C 8.73 g/m*3 17.1 C 1.6 km/h
749 05-06-2014 21:00:00 16.8 C 8.72 g/m*3 16.8 C 1.6 km/h
750 05-06-2014 21:05:00 16.4 C 9.07 g/m*3 16.4 C 0 km/h
Sensor: Nr:Datum:Temp:Abs-Feuchte:Windchill:Wind:
Aussen-T/F 751 05-06-2014 21:10:00 15.9 C 8.94 g/m*3 15.9 C 1.6 km/h
752 05-06-2014 21:15:00 15.6 C 8.64 g/m*3 15.6 C 1.6 km/h
753 05-06-2014 21:20:00 15.4 C 8.15 g/m*3 15.4 C 1.6 km/h
754 05-06-2014 21:25:00 15.1 C 8.64 g/m*3 15.1 C 1.6 km/h
755 05-06-2014 21:30:00 14.8 C 8.49 g/m*3 14.8 C 1.6 km/h
756 05-06-2014 21:35:00 14.6 C 8.51 g/m*3 14.6 C 1.6 km/h
757 05-06-2014 21:40:00 14.3 C 8.48 g/m*3 14.3 C 1.6 km/h
758 05-06-2014 21:45:00 14.2 C 8.43 g/m*3 14.2 C 1.6 km/h
759 05-06-2014 21:50:00 14.1 C 8.37 g/m*3 14.1 C 1.6 km/h
760 05-06-2014 21:55:00 13.9 C 8.39 g/m*3 13.9 C 1.6 km/h
761 05-06-2014 22:00:00 13.7 C 8.41 g/m*3 13.7 C 0 km/h
762 05-06-2014 22:05:00 13.6 C 8.36 g/m*3 13.6 C 0 km/h
763 05-06-2014 22:10:00 13.4 C 8.37 g/m*3 13.4 C 0 km/h
764 05-06-2014 22:15:00 13.2 C 8.38 g/m*3 13.2 C 0 km/h
765 05-06-2014 22:20:00 12.9 C 8.23 g/m*3 12.9 C 0 km/h
766 05-06-2014 22:25:00 12.8 C 8.29 g/m*3 12.8 C 0 km/h
767 05-06-2014 22:30:00 12.7 C 8.24 g/m*3 12.7 C 0 km/h
768 05-06-2014 22:35:00 12.6 C 8.3 g/m*3 12.6 C 0 km/h
769 05-06-2014 22:40:00 12.4 C 8.3 g/m*3 12.4 C 0 km/h
770 05-06-2014 22:45:00 12.3 C 8.25 g/m*3 12.3 C 0 km/h
771 05-06-2014 22:50:00 12.1 C 8.26 g/m*3 12.1 C 0 km/h
772 05-06-2014 22:55:00 11.9 C 8.05 g/m*3 11.9 C 0 km/h
773 05-06-2014 23:00:00 11.8 C 8 g/m*3 11.8 C 0 km/h
774 05-06-2014 23:05:00 11.7 C 7.95 g/m*3 11.7 C 0 km/h
775 05-06-2014 23:10:00 11.6 C 8 g/m*3 11.6 C 0 km/h
Sensor: Nr:Datum:Temp:Abs-Feuchte:Windchill:Wind:
Aussen-T/F 776 05-06-2014 23:15:00 11.5 C 7.85 g/m*3 11.5 C 0 km/h
777 05-06-2014 23:20:00 11.3 C 7.75 g/m*3 11.3 C 0 km/h
778 05-06-2014 23:25:00 11.2 C 7.91 g/m*3 11.2 C 0 km/h
779 05-06-2014 23:30:00 11.1 C 7.96 g/m*3 11.1 C 0 km/h
780 05-06-2014 23:35:00 10.9 C 7.76 g/m*3 10.9 C 0 km/h
781 05-06-2014 23:40:00 10.8 C 7.71 g/m*3 10.8 C 0 km/h
782 05-06-2014 23:45:00 10.8 C 7.81 g/m*3 10.8 C 3.2 km/h
783 05-06-2014 23:50:00 10.8 C 7.81 g/m*3 10.8 C 3.2 km/h
784 05-06-2014 23:55:00 10.8 C 7.81 g/m*3 10.8 C 0 km/h
785 06-06-2014 00:00:00 10.6 C 7.81 g/m*3 10.6 C 1.6 km/h
786 06-06-2014 00:05:00 10.5 C 7.86 g/m*3 10.5 C 0 km/h
787 06-06-2014 00:10:00 10.3 C 7.76 g/m*3 10.3 C 0 km/h
788 06-06-2014 00:15:00 10.2 C 7.71 g/m*3 10.2 C 0 km/h
789 06-06-2014 00:20:00 10.1 C 7.75 g/m*3 10.1 C 0 km/h
790 06-06-2014 00:25:00 10 C 7.71 g/m*3 10 C 0 km/h
791 06-06-2014 00:30:00 9.9 C 7.66 g/m*3 9.9 C 0 km/h
792 06-06-2014 00:35:00 9.9 C 7.66 g/m*3 9.9 C 0 km/h
793 06-06-2014 00:40:00 9.8 C 7.7 g/m*3 9.8 C 0 km/h
794 06-06-2014 00:45:00 9.7 C 7.65 g/m*3 9.7 C 0 km/h
795 06-06-2014 00:50:00 9.7 C 7.74 g/m*3 9.7 C 0 km/h
796 06-06-2014 00:55:00 9.6 C 7.69 g/m*3 9.6 C 0 km/h
797 06-06-2014 01:00:00 9.5 C 7.65 g/m*3 9.5 C 0 km/h
798 06-06-2014 01:05:00 9.4 C 7.6 g/m*3 9.4 C 0 km/h
799 06-06-2014 01:10:00 9.3 C 7.64 g/m*3 9.3 C 0 km/h
800 06-06-2014 01:15:00 9.3 C 7.64 g/m*3 9.3 C 0 km/h
Sensor: Nr:Datum:Temp:Abs-Feuchte:Windchill:Wind:
Aussen-T/F 801 06-06-2014 01:20:00 9.2 C 7.68 g/m*3 9.2 C 0 km/h
802 06-06-2014 01:25:00 9.1 C 7.63 g/m*3 9.1 C 0 km/h
803 06-06-2014 01:30:00 9.1 C 7.63 g/m*3 9.1 C 0 km/h
804 06-06-2014 01:35:00 9.1 C 7.63 g/m*3 9.1 C 0 km/h
805 06-06-2014 01:40:00 9.1 C 7.54 g/m*3 9.1 C 0 km/h
806 06-06-2014 01:45:00 8.9 C 7.53 g/m*3 8.9 C 0 km/h
807 06-06-2014 01:50:00 8.9 C 7.53 g/m*3 8.9 C 0 km/h
808 06-06-2014 01:55:00 8.8 C 7.57 g/m*3 8.8 C 0 km/h
809 06-06-2014 02:00:00 8.7 C 7.52 g/m*3 8.7 C 0 km/h
810 06-06-2014 02:05:00 8.7 C 7.44 g/m*3 8.7 C 0 km/h
811 06-06-2014 02:10:00 8.7 C 7.52 g/m*3 8.7 C 0 km/h
812 06-06-2014 02:15:00 8.7 C 7.44 g/m*3 8.7 C 0 km/h
813 06-06-2014 02:20:00 8.7 C 7.52 g/m*3 8.7 C 0 km/h
814 06-06-2014 02:25:00 8.6 C 7.39 g/m*3 8.6 C 0 km/h
815 06-06-2014 02:30:00 8.4 C 7.38 g/m*3 8.4 C 0 km/h
816 06-06-2014 02:35:00 8.4 C 7.38 g/m*3 8.4 C 0 km/h
817 06-06-2014 02:40:00 8.4 C 7.38 g/m*3 8.4 C 0 km/h
818 06-06-2014 02:45:00 8.3 C 7.33 g/m*3 8.3 C 0 km/h
819 06-06-2014 02:50:00 8.3 C 7.42 g/m*3 8.3 C 0 km/h
820 06-06-2014 02:55:00 8.3 C 7.42 g/m*3 8.3 C 0 km/h
821 06-06-2014 03:00:00 8.3 C 7.42 g/m*3 8.3 C 0 km/h
822 06-06-2014 03:05:00 8.2 C 7.37 g/m*3 8.2 C 0 km/h
823 06-06-2014 03:10:00 8.2 C 7.37 g/m*3 8.2 C 0 km/h
824 06-06-2014 03:15:00 8.1 C 7.32 g/m*3 8.1 C 0 km/h
825 06-06-2014 03:20:00 8.1 C 7.41 g/m*3 8.1 C 0 km/h
Sensor: Nr:Datum:Temp:Abs-Feuchte:Windchill:Wind:
Aussen-T/F 826 06-06-2014 03:25:00 7.9 C 7.31 g/m*3 7.9 C 0 km/h
827 06-06-2014 03:30:00 7.9 C 7.31 g/m*3 7.9 C 0 km/h
828 06-06-2014 03:35:00 7.8 C 7.26 g/m*3 7.8 C 0 km/h
829 06-06-2014 03:40:00 7.8 C 7.35 g/m*3 7.8 C 0 km/h
830 06-06-2014 03:45:00 7.7 C 7.3 g/m*3 7.7 C 0 km/h
831 06-06-2014 03:50:00 7.7 C 7.3 g/m*3 7.7 C 0 km/h
832 06-06-2014 03:55:00 7.7 C 7.3 g/m*3 7.7 C 0 km/h
833 06-06-2014 04:00:00 7.6 C 7.25 g/m*3 7.6 C 0 km/h
834 06-06-2014 04:05:00 7.5 C 7.2 g/m*3 7.5 C 0 km/h
835 06-06-2014 04:10:00 7.4 C 7.24 g/m*3 7.4 C 0 km/h
836 06-06-2014 04:15:00 7.4 C 7.24 g/m*3 7.4 C 1.6 km/h
837 06-06-2014 04:20:00 7.3 C 7.19 g/m*3 7.3 C 0 km/h
838 06-06-2014 04:25:00 7.3 C 7.19 g/m*3 7.3 C 0 km/h
839 06-06-2014 04:30:00 7.3 C 7.19 g/m*3 7.3 C 0 km/h
840 06-06-2014 04:35:00 7.2 C 7.22 g/m*3 7.2 C 0 km/h
841 06-06-2014 04:40:00 7.2 C 7.22 g/m*3 7.2 C 0 km/h
842 06-06-2014 04:45:00 7.2 C 7.22 g/m*3 7.2 C 0 km/h
843 06-06-2014 04:50:00 7.2 C 7.22 g/m*3 7.2 C 0 km/h
844 06-06-2014 04:55:00 7.1 C 7.18 g/m*3 7.1 C 0 km/h
845 06-06-2014 05:00:00 7.1 C 7.18 g/m*3 7.1 C 0 km/h
846 06-06-2014 05:05:00 7 C 7.13 g/m*3 7 C 0 km/h
847 06-06-2014 05:10:00 7.1 C 7.25 g/m*3 7.1 C 0 km/h
848 06-06-2014 05:15:00 7 C 7.21 g/m*3 7 C 0 km/h
849 06-06-2014 05:20:00 7 C 7.21 g/m*3 7 C 0 km/h
850 06-06-2014 05:25:00 6.9 C 7.16 g/m*3 6.9 C 0 km/h
Sensor: Nr:Datum:Temp:Abs-Feuchte:Windchill:Wind:
Aussen-T/F 851 06-06-2014 05:30:00 6.8 C 7.11 g/m*3 6.8 C 0 km/h
852 06-06-2014 05:35:00 6.8 C 7.11 g/m*3 6.8 C 0 km/h
853 06-06-2014 05:40:00 6.8 C 7.11 g/m*3 6.8 C 0 km/h
854 06-06-2014 05:45:00 6.8 C 7.11 g/m*3 6.8 C 0 km/h
855 06-06-2014 05:50:00 6.8 C 7.11 g/m*3 6.8 C 0 km/h
856 06-06-2014 05:55:00 6.8 C 7.11 g/m*3 6.8 C 0 km/h
857 06-06-2014 06:00:00 6.8 C 7.19 g/m*3 6.8 C 0 km/h
858 06-06-2014 06:05:00 6.8 C 7.19 g/m*3 6.8 C 0 km/h
859 06-06-2014 06:10:00 6.8 C 7.19 g/m*3 6.8 C 0 km/h
860 06-06-2014 06:15:00 6.8 C 7.19 g/m*3 6.8 C 0 km/h
861 06-06-2014 06:20:00 6.8 C 7.19 g/m*3 6.8 C 0 km/h
862 06-06-2014 06:25:00 6.8 C 7.19 g/m*3 6.8 C 0 km/h
863 06-06-2014 06:30:00 6.9 C 7.24 g/m*3 6.9 C 0 km/h
864 06-06-2014 06:35:00 6.9 C 7.24 g/m*3 6.9 C 0 km/h
865 06-06-2014 06:40:00 6.9 C 7.24 g/m*3 6.9 C 0 km/h
866 06-06-2014 06:45:00 7 C 7.28 g/m*3 7 C 0 km/h
867 06-06-2014 06:50:00 7.1 C 7.33 g/m*3 7.1 C 0 km/h
868 06-06-2014 06:55:00 7.1 C 7.33 g/m*3 7.1 C 0 km/h
869 06-06-2014 07:00:00 7.2 C 7.38 g/m*3 7.2 C 0 km/h
870 06-06-2014 07:05:00 7.2 C 7.38 g/m*3 7.2 C 0 km/h
871 06-06-2014 07:10:00 7.3 C 7.43 g/m*3 7.3 C 0 km/h
872 06-06-2014 07:15:00 7.4 C 7.48 g/m*3 7.4 C 0 km/h
873 06-06-2014 07:20:00 7.5 C 7.52 g/m*3 7.5 C 1.6 km/h
874 06-06-2014 07:25:00 7.6 C 7.57 g/m*3 7.6 C 0 km/h
875 06-06-2014 07:30:00 7.7 C 7.62 g/m*3 7.7 C 0 km/h
Sensor: Nr:Datum:Temp:Abs-Feuchte:Windchill:Wind:
Aussen-T/F 876 06-06-2014 07:35:00 7.8 C 7.67 g/m*3 7.8 C 0 km/h
877 06-06-2014 07:40:00 8 C 7.77 g/m*3 8 C 0 km/h
878 06-06-2014 07:45:00 8.2 C 7.87 g/m*3 8.2 C 0 km/h
879 06-06-2014 07:50:00 8.5 C 8.03 g/m*3 8.5 C 0 km/h
880 06-06-2014 07:55:00 8.8 C 8.09 g/m*3 8.8 C 0 km/h
881 06-06-2014 08:00:00 9.1 C 8.25 g/m*3 9.1 C 0 km/h
882 06-06-2014 08:05:00 9.5 C 8.37 g/m*3 9.5 C 0 km/h
883 06-06-2014 08:10:00 9.8 C 8.44 g/m*3 9.8 C 0 km/h
884 06-06-2014 08:15:00 10.2 C 8.37 g/m*3 10.2 C 0 km/h
885 06-06-2014 08:20:00 10.4 C 8.29 g/m*3 10.4 C 0 km/h
886 06-06-2014 08:25:00 10.7 C 8.35 g/m*3 10.7 C 0 km/h
887 06-06-2014 08:30:00 10.9 C 8.36 g/m*3 10.9 C 0 km/h
888 06-06-2014 08:35:00 11.2 C 8.51 g/m*3 11.2 C 0 km/h
889 06-06-2014 08:40:00 11.5 C 8.78 g/m*3 11.5 C 0 km/h
890 06-06-2014 08:45:00 11.9 C 8.9 g/m*3 11.9 C 1.6 km/h
891 06-06-2014 08:50:00 12.4 C 9.07 g/m*3 12.4 C 0 km/h
892 06-06-2014 08:55:00 13 C 9.19 g/m*3 13 C 0 km/h
893 06-06-2014 09:00:00 13.3 C 9.01 g/m*3 13.3 C 1.6 km/h
894 06-06-2014 09:05:00 13.3 C 8.9 g/m*3 13.3 C 0 km/h
895 06-06-2014 09:10:00 13.3 C 8.9 g/m*3 13.3 C 1.6 km/h
896 06-06-2014 09:15:00 13.3 C 9.13 g/m*3 13.3 C 0 km/h
897 06-06-2014 09:20:00 13.3 C 9.24 g/m*3 13.3 C 0 km/h
898 06-06-2014 09:25:00 13.4 C 9.18 g/m*3 13.4 C 1.6 km/h
899 06-06-2014 09:30:00 13.5 C 9.24 g/m*3 13.5 C 4.8 km/h
900 06-06-2014 09:35:00 13.6 C 9.18 g/m*3 13.6 C 4.8 km/h
Sensor: Nr:Datum:Temp:Abs-Feuchte:Windchill:Wind:
Aussen-T/F 901 06-06-2014 09:40:00 13.7 C 9.24 g/m*3 13.7 C 1.6 km/h
902 06-06-2014 09:45:00 13.8 C 9.29 g/m*3 13.8 C 1.6 km/h
903 06-06-2014 09:50:00 14.1 C 9.47 g/m*3 14.1 C 3.2 km/h
904 06-06-2014 09:55:00 14.3 C 9.58 g/m*3 14.3 C 3.2 km/h
905 06-06-2014 10:00:00 14.7 C 9.69 g/m*3 14.7 C 3.2 km/h
906 06-06-2014 10:05:00 15.1 C 9.8 g/m*3 15.1 C 1.6 km/h
907 06-06-2014 10:10:00 15.5 C 10.18 g/m*3 15.5 C 3.2 km/h
908 06-06-2014 10:15:00 15.8 C 9.83 g/m*3 15.8 C 0 km/h
909 06-06-2014 10:20:00 16.3 C 10.27 g/m*3 16.3 C 1.6 km/h
910 06-06-2014 10:25:00 16.8 C 10.15 g/m*3 16.8 C 1.6 km/h
911 06-06-2014 10:30:00 17.2 C 9.96 g/m*3 17.2 C 1.6 km/h
912 06-06-2014 10:35:00 17.4 C 10.23 g/m*3 17.4 C 3.2 km/h
913 06-06-2014 10:40:00 17.4 C 10.52 g/m*3 17.4 C 3.2 km/h
914 06-06-2014 10:45:00 17.5 C 9.99 g/m*3 17.5 C 3.2 km/h
915 06-06-2014 10:50:00 17.6 C 10.35 g/m*3 17.6 C 3.2 km/h
916 06-06-2014 10:55:00 17.7 C 10.56 g/m*3 17.7 C 0 km/h
917 06-06-2014 11:00:00 17.8 C 10.93 g/m*3 17.8 C 1.6 km/h
918 06-06-2014 11:05:00 17.9 C 11.15 g/m*3 17.9 C 0 km/h
919 06-06-2014 11:10:00 17.7 C 11.16 g/m*3 17.7 C 0 km/h
920 06-06-2014 11:15:00 17.8 C 11.38 g/m*3 17.8 C 3.2 km/h
921 06-06-2014 11:20:00 18.2 C 10.57 g/m*3 18.2 C 4.8 km/h
922 06-06-2014 11:25:00 19.1 C 10.33 g/m*3 19.1 C 6.4 km/h
923 06-06-2014 11:30:00 20.2 C 10.32 g/m*3 20.2 C 8.1 km/h
924 06-06-2014 11:35:00 20.8 C 10.5 g/m*3 20.8 C 9.7 km/h
925 06-06-2014 11:40:00 21.1 C 10.69 g/m*3 21.1 C 11.3 km/h
Sensor: Nr:Datum:Temp:Abs-Feuchte:Windchill:Wind:
Aussen-T/F 926 06-06-2014 11:45:00 21.4 C 10.69 g/m*3 21.4 C 11.3 km/h
927 06-06-2014 11:50:00 21.7 C 10.87 g/m*3 21.7 C 8.1 km/h
928 06-06-2014 11:55:00 21.9 C 10.42 g/m*3 21.9 C 11.3 km/h
929 06-06-2014 12:00:00 22.2 C 10.41 g/m*3 22.2 C 11.3 km/h
930 06-06-2014 12:05:00 22.3 C 9.87 g/m*3 22.3 C 11.3 km/h
931 06-06-2014 12:10:00 22.6 C 9.84 g/m*3 22.6 C 9.7 km/h
932 06-06-2014 12:15:00 22.8 C 9.96 g/m*3 22.8 C 4.8 km/h
933 06-06-2014 12:20:00 23.1 C 11.16 g/m*3 23.1 C 6.4 km/h
934 06-06-2014 12:25:00 23.3 C 9.83 g/m*3 23.3 C 6.4 km/h
935 06-06-2014 12:30:00 23.4 C 10.3 g/m*3 23.4 C 6.4 km/h
936 06-06-2014 12:35:00 23.6 C 9.57 g/m*3 23.6 C 11.3 km/h
937 06-06-2014 12:40:00 23.5 C 9.52 g/m*3 23.5 C 6.4 km/h
938 06-06-2014 12:45:00 23.6 C 8.93 g/m*3 23.6 C 4.8 km/h
939 06-06-2014 12:50:00 23.8 C 9.25 g/m*3 23.8 C 4.8 km/h
940 06-06-2014 12:55:00 23.9 C 8.65 g/m*3 23.9 C 4.8 km/h
941 06-06-2014 13:00:00 24.1 C 8.97 g/m*3 24.1 C 3.2 km/h
942 06-06-2014 13:05:00 24.3 C 9.52 g/m*3 24.3 C 6.4 km/h
943 06-06-2014 13:10:00 24.5 C 10.07 g/m*3 24.5 C 8.1 km/h
944 06-06-2014 13:15:00 24.6 C 8.78 g/m*3 24.6 C 6.4 km/h
945 06-06-2014 13:20:00 24.4 C 9.79 g/m*3 24.4 C 8.1 km/h
946 06-06-2014 13:25:00 24.7 C 9.05 g/m*3 24.7 C 6.4 km/h
947 06-06-2014 13:30:00 24.8 C 10.02 g/m*3 24.8 C 6.4 km/h
948 06-06-2014 13:35:00 25 C 9.21 g/m*3 25 C 9.7 km/h
949 06-06-2014 13:40:00 25 C 9.44 g/m*3 25 C 11.3 km/h
950 06-06-2014 13:45:00 24.8 C 9.79 g/m*3 24.8 C 6.4 km/h
Sensor: Nr:Datum:Temp:Abs-Feuchte:Windchill:Wind:
Aussen-T/F 951 06-06-2014 13:50:00 25 C 8.75 g/m*3 25 C 6.4 km/h
952 06-06-2014 13:55:00 25.3 C 10.07 g/m*3 25.3 C 6.4 km/h
953 06-06-2014 14:00:00 25.6 C 9.28 g/m*3 25.6 C 6.4 km/h
954 06-06-2014 14:05:00 25.6 C 10 g/m*3 25.6 C 9.7 km/h
955 06-06-2014 14:10:00 25.7 C 10.29 g/m*3 25.7 C 6.4 km/h
956 06-06-2014 14:15:00 25.8 C 9.87 g/m*3 25.8 C 11.3 km/h
957 06-06-2014 14:20:00 25.8 C 9.39 g/m*3 25.8 C 14.5 km/h
958 06-06-2014 14:25:00 25.9 C 9.44 g/m*3 25.9 C 14.5 km/h
959 06-06-2014 14:30:00 26 C 9.98 g/m*3 26 C 14.5 km/h
960 06-06-2014 14:35:00 26.1 C 9.79 g/m*3 26.1 C 12.9 km/h
961 06-06-2014 14:40:00 26.2 C 10.34 g/m*3 26.2 C 11.3 km/h
962 06-06-2014 14:45:00 26.2 C 10.09 g/m*3 26.2 C 11.3 km/h
963 06-06-2014 14:50:00 26.3 C 9.9 g/m*3 26.3 C 6.4 km/h
964 06-06-2014 14:55:00 26.4 C 10.21 g/m*3 26.4 C 6.4 km/h
965 06-06-2014 15:00:00 26.7 C 9.87 g/m*3 26.7 C 6.4 km/h
966 06-06-2014 15:05:00 26.6 C 9.57 g/m*3 26.6 C 6.4 km/h
967 06-06-2014 15:10:00 26.5 C 10.01 g/m*3 26.5 C 8.1 km/h
968 06-06-2014 15:15:00 26.6 C 9.82 g/m*3 26.6 C 4.8 km/h
969 06-06-2014 15:20:00 26.7 C 9.11 g/m*3 26.7 C 8.1 km/h
970 06-06-2014 15:25:00 26.7 C 9.37 g/m*3 26.7 C 4.8 km/h
971 06-06-2014 15:30:00 26.7 C 9.62 g/m*3 26.7 C 4.8 km/h
972 06-06-2014 15:35:00 26.8 C 9.42 g/m*3 26.8 C 11.3 km/h
973 06-06-2014 15:40:00 26.9 C 9.73 g/m*3 26.9 C 8.1 km/h
974 06-06-2014 15:45:00 27.4 C 10.52 g/m*3 27.4 C 6.4 km/h
975 06-06-2014 15:50:00 27.8 C 10.22 g/m*3 27.8 C 6.4 km/h
Sensor: Nr:Datum:Temp:Abs-Feuchte:Windchill:Wind:
Aussen-T/F 976 06-06-2014 15:55:00 27.8 C 10.22 g/m*3 27.8 C 8.1 km/h
977 06-06-2014 16:00:00 27.8 C 10.22 g/m*3 27.8 C 12.9 km/h
978 06-06-2014 16:05:00 27.6 C 9.31 g/m*3 27.6 C 9.7 km/h
979 06-06-2014 16:10:00 27.3 C 11.25 g/m*3 27.3 C 6.4 km/h
980 06-06-2014 16:15:00 27.1 C 9.32 g/m*3 27.1 C 4.8 km/h
981 06-06-2014 16:20:00 27.2 C 10.15 g/m*3 27.2 C 9.7 km/h
982 06-06-2014 16:25:00 27.8 C 9.68 g/m*3 27.8 C 9.7 km/h
983 06-06-2014 16:30:00 28.2 C 10.17 g/m*3 28.2 C 11.3 km/h
984 06-06-2014 16:35:00 27.8 C 10.49 g/m*3 27.8 C 6.4 km/h
985 06-06-2014 16:40:00 27.3 C 9.68 g/m*3 27.3 C 3.2 km/h
986 06-06-2014 16:45:00 27.2 C 9.63 g/m*3 27.2 C 6.4 km/h
987 06-06-2014 16:50:00 27.4 C 9.21 g/m*3 27.4 C 3.2 km/h
988 06-06-2014 16:55:00 27.4 C 9.21 g/m*3 27.4 C 4.8 km/h
989 06-06-2014 17:00:00 27.2 C 9.63 g/m*3 27.2 C 4.8 km/h
990 06-06-2014 17:05:00 27.5 C 10.58 g/m*3 27.5 C 11.3 km/h
991 06-06-2014 17:10:00 27.9 C 9.74 g/m*3 27.9 C 3.2 km/h
992 06-06-2014 17:15:00 28.1 C 9.3 g/m*3 28.1 C 3.2 km/h
993 06-06-2014 17:20:00 27.8 C 8.88 g/m*3 27.8 C 3.2 km/h
994 06-06-2014 17:25:00 27.7 C 10.16 g/m*3 27.7 C 0 km/h
995 06-06-2014 17:30:00 27.9 C 9.74 g/m*3 27.9 C 6.4 km/h
996 06-06-2014 17:35:00 27.8 C 11.57 g/m*3 27.8 C 6.4 km/h
997 06-06-2014 17:40:00 27 C 11.58 g/m*3 27 C 1.6 km/h
998 06-06-2014 17:45:00 25.8 C 12.76 g/m*3 25.8 C 1.6 km/h
999 06-06-2014 17:50:00 25.7 C 10.53 g/m*3 25.7 C 8.1 km/h
1000 06-06-2014 17:55:00 26.4 C 11.7 g/m*3 26.4 C 8.1 km/h
Sensor: Nr:Datum:Temp:Abs-Feuchte:Windchill:Wind:
Aussen-T/F 1001 06-06-2014 18:00:00 27.3 C 10.2 g/m*3 27.3 C 8.1 km/h
1002 06-06-2014 18:05:00 27.8 C 11.03 g/m*3 27.8 C 11.3 km/h
1003 06-06-2014 18:10:00 28.1 C 10.94 g/m*3 28.1 C 8.1 km/h
1004 06-06-2014 18:15:00 28.2 C 10.45 g/m*3 28.2 C 9.7 km/h
1005 06-06-2014 18:20:00 28.1 C 10.12 g/m*3 28.1 C 11.3 km/h
1006 06-06-2014 18:25:00 28.2 C 10.45 g/m*3 28.2 C 9.7 km/h
1007 06-06-2014 18:30:00 28.3 C 10.23 g/m*3 28.3 C 11.3 km/h
1008 06-06-2014 18:35:00 28.4 C 10.56 g/m*3 28.4 C 6.4 km/h
1009 06-06-2014 18:40:00 28.3 C 10.51 g/m*3 28.3 C 9.7 km/h
1010 06-06-2014 18:45:00 28 C 9.79 g/m*3 28 C 8.1 km/h
1011 06-06-2014 18:50:00 28.1 C 10.39 g/m*3 28.1 C 9.7 km/h
1012 06-06-2014 18:55:00 28.1 C 11.76 g/m*3 28.1 C 6.4 km/h
1013 06-06-2014 19:00:00 28 C 10.88 g/m*3 28 C 8.1 km/h
1014 06-06-2014 19:05:00 28.1 C 10.66 g/m*3 28.1 C 6.4 km/h
1015 06-06-2014 19:10:00 27.9 C 10.01 g/m*3 27.9 C 6.4 km/h
1016 06-06-2014 19:15:00 27.6 C 10.11 g/m*3 27.6 C 8.1 km/h
1017 06-06-2014 19:20:00 27.3 C 10.2 g/m*3 27.3 C 9.7 km/h
1018 06-06-2014 19:25:00 27.1 C 10.35 g/m*3 27.1 C 9.7 km/h
1019 06-06-2014 19:30:00 26.7 C 12.4 g/m*3 26.7 C 6.4 km/h
1020 06-06-2014 19:35:00 26 C 12.17 g/m*3 26 C 0 km/h
1021 06-06-2014 19:40:00 25.3 C 12.17 g/m*3 25.3 C 1.6 km/h
1022 06-06-2014 19:45:00 24.8 C 11.61 g/m*3 24.8 C 4.8 km/h
1023 06-06-2014 19:50:00 24.6 C 10.58 g/m*3 24.6 C 4.8 km/h
1024 06-06-2014 19:55:00 24.6 C 13.05 g/m*3 24.6 C 1.6 km/h
1025 06-06-2014 20:00:00 24.2 C 12.76 g/m*3 24.2 C 1.6 km/h
Sensor: Nr:Datum:Temp:Abs-Feuchte:Windchill:Wind:
Aussen-T/F 1026 06-06-2014 20:05:00 23.9 C 12.55 g/m*3 23.9 C 1.6 km/h
1027 06-06-2014 20:10:00 23.6 C 12.97 g/m*3 23.6 C 3.2 km/h
1028 06-06-2014 20:15:00 23 C 12.74 g/m*3 23 C 0 km/h
1029 06-06-2014 20:20:00 22.6 C 12.86 g/m*3 22.6 C 1.6 km/h
1030 06-06-2014 20:25:00 22.3 C 12.64 g/m*3 22.3 C 0 km/h
1031 06-06-2014 20:30:00 22 C 12.42 g/m*3 22 C 1.6 km/h
1032 06-06-2014 20:35:00 21.8 C 12.66 g/m*3 21.8 C 0 km/h
1033 06-06-2014 20:40:00 21.6 C 12.52 g/m*3 21.6 C 0 km/h
1034 06-06-2014 20:45:00 21.4 C 12.19 g/m*3 21.4 C 1.6 km/h
1035 06-06-2014 20:50:00 21.3 C 12.49 g/m*3 21.3 C 1.6 km/h
1036 06-06-2014 20:55:00 21.2 C 12.6 g/m*3 21.2 C 0 km/h
1037 06-06-2014 21:00:00 21 C 12.27 g/m*3 21 C 1.6 km/h
1038 06-06-2014 21:05:00 20.8 C 12.31 g/m*3 20.8 C 1.6 km/h
1039 06-06-2014 21:10:00 20.4 C 12.21 g/m*3 20.4 C 0 km/h
1040 06-06-2014 21:15:00 20.2 C 11.89 g/m*3 20.2 C 1.6 km/h
1041 06-06-2014 21:20:00 19.9 C 11.85 g/m*3 19.9 C 0 km/h
1042 06-06-2014 21:25:00 19.7 C 11.89 g/m*3 19.7 C 1.6 km/h
1043 06-06-2014 21:30:00 19.6 C 11.99 g/m*3 19.6 C 1.6 km/h
1044 06-06-2014 21:35:00 19.3 C 11.61 g/m*3 19.3 C 1.6 km/h
1045 06-06-2014 21:40:00 19.2 C 11.71 g/m*3 19.2 C 1.6 km/h
1046 06-06-2014 21:45:00 19.1 C 11.8 g/m*3 19.1 C 1.6 km/h
1047 06-06-2014 21:50:00 18.9 C 11.5 g/m*3 18.9 C 1.6 km/h
1048 06-06-2014 21:55:00 18.8 C 11.76 g/m*3 18.8 C 1.6 km/h
1049 06-06-2014 22:00:00 18.7 C 11.53 g/m*3 18.7 C 1.6 km/h
1050 06-06-2014 22:05:00 18.6 C 11.62 g/m*3 18.6 C 1.6 km/h
Sensor: Nr:Datum:Temp:Abs-Feuchte:Windchill:Wind:
Aussen-T/F 1051 06-06-2014 22:10:00 18.4 C 11.32 g/m*3 18.4 C 1.6 km/h
1052 06-06-2014 22:15:00 18.4 C 11.48 g/m*3 18.4 C 0 km/h
1053 06-06-2014 22:20:00 18.3 C 11.26 g/m*3 18.3 C 0 km/h
1054 06-06-2014 22:25:00 18.2 C 11.35 g/m*3 18.2 C 0 km/h
1055 06-06-2014 22:30:00 18.1 C 11.59 g/m*3 18.1 C 1.6 km/h
1056 06-06-2014 22:35:00 18 C 11.37 g/m*3 18 C 1.6 km/h
1057 06-06-2014 22:40:00 17.9 C 11.15 g/m*3 17.9 C 0 km/h
1058 06-06-2014 22:45:00 17.9 C 10.84 g/m*3 17.9 C 0 km/h
1059 06-06-2014 22:50:00 17.9 C 11.15 g/m*3 17.9 C 0 km/h
1060 06-06-2014 22:55:00 17.8 C 11.38 g/m*3 17.8 C 1.6 km/h
1061 06-06-2014 23:00:00 17.7 C 11.32 g/m*3 17.7 C 1.6 km/h
1062 06-06-2014 23:05:00 17.6 C 11.1 g/m*3 17.6 C 1.6 km/h
1063 06-06-2014 23:10:00 17.5 C 10.88 g/m*3 17.5 C 0 km/h
1064 06-06-2014 23:15:00 17.4 C 11.26 g/m*3 17.4 C 0 km/h
1065 06-06-2014 23:20:00 17.4 C 11.26 g/m*3 17.4 C 0 km/h
1066 06-06-2014 23:25:00 17.3 C 11.34 g/m*3 17.3 C 1.6 km/h
1067 06-06-2014 23:30:00 17.2 C 10.84 g/m*3 17.2 C 0 km/h
1068 06-06-2014 23:35:00 17.2 C 10.69 g/m*3 17.2 C 0 km/h
1069 06-06-2014 23:40:00 17.2 C 11.13 g/m*3 17.2 C 0 km/h
1070 06-06-2014 23:45:00 17.1 C 10.92 g/m*3 17.1 C 0 km/h
1071 06-06-2014 23:50:00 16.8 C 10.87 g/m*3 16.8 C 0 km/h
1072 06-06-2014 23:55:00 16.7 C 10.94 g/m*3 16.7 C 0 km/h
1073 07-06-2014 00:00:00 16.5 C 10.81 g/m*3 16.5 C 0 km/h
1074 07-06-2014 00:05:00 16.4 C 10.47 g/m*3 16.4 C 0 km/h
1075 07-06-2014 00:10:00 16.4 C 10.47 g/m*3 16.4 C 0 km/h
Sensor: Nr:Datum:Temp:Abs-Feuchte:Windchill:Wind:
Aussen-T/F 1076 07-06-2014 00:15:00 16.3 C 10.54 g/m*3 16.3 C 0 km/h
1077 07-06-2014 00:20:00 16.2 C 10.48 g/m*3 16.2 C 3.2 km/h
1078 07-06-2014 00:25:00 16.1 C 10.55 g/m*3 16.1 C 1.6 km/h
1079 07-06-2014 00:30:00 15.9 C 10.43 g/m*3 15.9 C 0 km/h
1080 07-06-2014 00:35:00 15.8 C 10.5 g/m*3 15.8 C 0 km/h
1081 07-06-2014 00:40:00 15.7 C 10.57 g/m*3 15.7 C 0 km/h
1082 07-06-2014 00:45:00 15.6 C 10.64 g/m*3 15.6 C 0 km/h
1083 07-06-2014 00:50:00 15.4 C 10.38 g/m*3 15.4 C 0 km/h
1084 07-06-2014 00:55:00 15.2 C 10.38 g/m*3 15.2 C 0 km/h
1085 07-06-2014 01:00:00 15.2 C 10.38 g/m*3 15.2 C 0 km/h
1086 07-06-2014 01:05:00 15.1 C 10.45 g/m*3 15.1 C 0 km/h
1087 07-06-2014 01:10:00 15.1 C 10.45 g/m*3 15.1 C 0 km/h
1088 07-06-2014 01:15:00 14.9 C 10.32 g/m*3 14.9 C 0 km/h
1089 07-06-2014 01:20:00 14.9 C 10.32 g/m*3 14.9 C 0 km/h
1090 07-06-2014 01:25:00 14.8 C 10.39 g/m*3 14.8 C 0 km/h
1091 07-06-2014 01:30:00 14.8 C 10.39 g/m*3 14.8 C 0 km/h
1092 07-06-2014 01:35:00 14.6 C 10.26 g/m*3 14.6 C 0 km/h
1093 07-06-2014 01:40:00 14.5 C 10.32 g/m*3 14.5 C 0 km/h
1094 07-06-2014 01:45:00 14.4 C 10.26 g/m*3 14.4 C 0 km/h
1095 07-06-2014 01:50:00 14.2 C 10.01 g/m*3 14.2 C 0 km/h
1096 07-06-2014 01:55:00 14.1 C 9.95 g/m*3 14.1 C 0 km/h
1097 07-06-2014 02:00:00 14.1 C 10.07 g/m*3 14.1 C 0 km/h
1098 07-06-2014 02:05:00 14 C 10.01 g/m*3 14 C 0 km/h
1099 07-06-2014 02:10:00 14 C 10.01 g/m*3 14 C 0 km/h
1100 07-06-2014 02:15:00 14 C 10.13 g/m*3 14 C 0 km/h
Sensor: Nr:Datum:Temp:Abs-Feuchte:Windchill:Wind:
Aussen-T/F 1101 07-06-2014 02:20:00 14 C 10.01 g/m*3 14 C 0 km/h
1102 07-06-2014 02:25:00 14 C 10.01 g/m*3 14 C 0 km/h
1103 07-06-2014 02:30:00 14 C 10.01 g/m*3 14 C 0 km/h
1104 07-06-2014 02:35:00 13.9 C 9.95 g/m*3 13.9 C 0 km/h
1105 07-06-2014 02:40:00 13.8 C 10.01 g/m*3 13.8 C 0 km/h
1106 07-06-2014 02:45:00 13.7 C 9.95 g/m*3 13.7 C 0 km/h
1107 07-06-2014 02:50:00 13.7 C 9.95 g/m*3 13.7 C 0 km/h
1108 07-06-2014 02:55:00 13.6 C 10 g/m*3 13.6 C 0 km/h
1109 07-06-2014 03:00:00 13.5 C 9.94 g/m*3 13.5 C 0 km/h
1110 07-06-2014 03:05:00 13.4 C 9.88 g/m*3 13.4 C 0 km/h
1111 07-06-2014 03:10:00 13.4 C 9.88 g/m*3 13.4 C 0 km/h
1112 07-06-2014 03:15:00 13.3 C 9.94 g/m*3 13.3 C 0 km/h
1113 07-06-2014 03:20:00 13.3 C 9.94 g/m*3 13.3 C 0 km/h
1114 07-06-2014 03:25:00 13.2 C 9.87 g/m*3 13.2 C 0 km/h
1115 07-06-2014 03:30:00 13.1 C 9.81 g/m*3 13.1 C 0 km/h
1116 07-06-2014 03:35:00 12.9 C 9.81 g/m*3 12.9 C 0 km/h
1117 07-06-2014 03:40:00 12.9 C 9.81 g/m*3 12.9 C 0 km/h
1118 07-06-2014 03:45:00 12.8 C 9.74 g/m*3 12.8 C 0 km/h
1119 07-06-2014 03:50:00 12.8 C 9.74 g/m*3 12.8 C 0 km/h
1120 07-06-2014 03:55:00 12.8 C 9.74 g/m*3 12.8 C 0 km/h
1121 07-06-2014 04:00:00 12.7 C 9.68 g/m*3 12.7 C 0 km/h
1122 07-06-2014 04:05:00 12.7 C 9.68 g/m*3 12.7 C 0 km/h
1123 07-06-2014 04:10:00 12.7 C 9.8 g/m*3 12.7 C 0 km/h
1124 07-06-2014 04:15:00 12.6 C 9.74 g/m*3 12.6 C 0 km/h
1125 07-06-2014 04:20:00 12.5 C 9.68 g/m*3 12.5 C 0 km/h
Sensor: Nr:Datum:Temp:Abs-Feuchte:Windchill:Wind:
Aussen-T/F 1126 07-06-2014 04:25:00 12.4 C 9.72 g/m*3 12.4 C 0 km/h
1127 07-06-2014 04:30:00 12.4 C 9.72 g/m*3 12.4 C 0 km/h
1128 07-06-2014 04:35:00 12.3 C 9.77 g/m*3 12.3 C 0 km/h
1129 07-06-2014 04:40:00 12.3 C 9.66 g/m*3 12.3 C 0 km/h
1130 07-06-2014 04:45:00 12.3 C 9.66 g/m*3 12.3 C 0 km/h
1131 07-06-2014 04:50:00 12.2 C 9.6 g/m*3 12.2 C 0 km/h
1132 07-06-2014 04:55:00 12.2 C 9.6 g/m*3 12.2 C 0 km/h
1133 07-06-2014 05:00:00 12.2 C 9.6 g/m*3 12.2 C 0 km/h
1134 07-06-2014 05:05:00 12.2 C 9.71 g/m*3 12.2 C 0 km/h
1135 07-06-2014 05:10:00 12.1 C 9.65 g/m*3 12.1 C 0 km/h
1136 07-06-2014 05:15:00 12.1 C 9.65 g/m*3 12.1 C 0 km/h
1137 07-06-2014 05:20:00 12.1 C 9.65 g/m*3 12.1 C 0 km/h
1138 07-06-2014 05:25:00 12.1 C 9.76 g/m*3 12.1 C 0 km/h
1139 07-06-2014 05:30:00 12.1 C 9.76 g/m*3 12.1 C 0 km/h
1140 07-06-2014 05:35:00 12.1 C 9.76 g/m*3 12.1 C 0 km/h
1141 07-06-2014 05:40:00 12 C 9.7 g/m*3 12 C 0 km/h
1142 07-06-2014 05:45:00 12 C 9.7 g/m*3 12 C 0 km/h
1143 07-06-2014 05:50:00 12 C 9.7 g/m*3 12 C 0 km/h
1144 07-06-2014 05:55:00 12.1 C 9.76 g/m*3 12.1 C 0 km/h
1145 07-06-2014 06:00:00 12.1 C 9.76 g/m*3 12.1 C 0 km/h
1146 07-06-2014 06:05:00 12.1 C 9.76 g/m*3 12.1 C 0 km/h
1147 07-06-2014 06:10:00 12.2 C 9.82 g/m*3 12.2 C 0 km/h
1148 07-06-2014 06:15:00 12.2 C 9.82 g/m*3 12.2 C 0 km/h
1149 07-06-2014 06:20:00 12.2 C 9.82 g/m*3 12.2 C 0 km/h
1150 07-06-2014 06:25:00 12.2 C 9.82 g/m*3 12.2 C 0 km/h
Sensor: Nr:Datum:Temp:Abs-Feuchte:Windchill:Wind:
Aussen-T/F 1151 07-06-2014 06:30:00 12.2 C 9.93 g/m*3 12.2 C 0 km/h
1152 07-06-2014 06:35:00 12.2 C 9.93 g/m*3 12.2 C 0 km/h
1153 07-06-2014 06:40:00 12.2 C 9.93 g/m*3 12.2 C 0 km/h
1154 07-06-2014 06:45:00 12.3 C 9.99 g/m*3 12.3 C 0 km/h
1155 07-06-2014 06:50:00 12.3 C 9.99 g/m*3 12.3 C 0 km/h
1156 07-06-2014 06:55:00 12.4 C 10.05 g/m*3 12.4 C 0 km/h
1157 07-06-2014 07:00:00 12.6 C 10.18 g/m*3 12.6 C 0 km/h
1158 07-06-2014 07:05:00 12.7 C 10.24 g/m*3 12.7 C 0 km/h
1159 07-06-2014 07:10:00 12.8 C 10.19 g/m*3 12.8 C 0 km/h
1160 07-06-2014 07:15:00 12.9 C 10.26 g/m*3 12.9 C 0 km/h
1161 07-06-2014 07:20:00 13.1 C 10.38 g/m*3 13.1 C 0 km/h
1162 07-06-2014 07:25:00 13.1 C 10.27 g/m*3 13.1 C 0 km/h
1163 07-06-2014 07:30:00 13.2 C 10.33 g/m*3 13.2 C 0 km/h
1164 07-06-2014 07:35:00 13.3 C 10.4 g/m*3 13.3 C 0 km/h
1165 07-06-2014 07:40:00 13.4 C 10.46 g/m*3 13.4 C 0 km/h
1166 07-06-2014 07:45:00 13.6 C 10.71 g/m*3 13.6 C 0 km/h
1167 07-06-2014 07:50:00 13.8 C 10.72 g/m*3 13.8 C 0 km/h
1168 07-06-2014 07:55:00 14.1 C 10.68 g/m*3 14.1 C 1.6 km/h
1169 07-06-2014 08:00:00 14.4 C 10.88 g/m*3 14.4 C 0 km/h
1170 07-06-2014 08:05:00 14.6 C 10.89 g/m*3 14.6 C 0 km/h
1171 07-06-2014 08:10:00 14.9 C 11.09 g/m*3 14.9 C 0 km/h
1172 07-06-2014 08:15:00 15.2 C 11.16 g/m*3 15.2 C 0 km/h
1173 07-06-2014 08:20:00 15.6 C 11.17 g/m*3 15.6 C 0 km/h
1174 07-06-2014 08:25:00 15.8 C 11.31 g/m*3 15.8 C 0 km/h
1175 07-06-2014 08:30:00 16.1 C 11.38 g/m*3 16.1 C 0 km/h
Sensor: Nr:Datum:Temp:Abs-Feuchte:Windchill:Wind:
Aussen-T/F 1176 07-06-2014 08:35:00 16.3 C 11.52 g/m*3 16.3 C 0 km/h
1177 07-06-2014 08:40:00 16.4 C 11.45 g/m*3 16.4 C 0 km/h
1178 07-06-2014 08:45:00 16.7 C 11.51 g/m*3 16.7 C 0 km/h
1179 07-06-2014 08:50:00 16.8 C 11.58 g/m*3 16.8 C 0 km/h
1180 07-06-2014 08:55:00 17.1 C 11.65 g/m*3 17.1 C 0 km/h
1181 07-06-2014 09:00:00 17.3 C 11.93 g/m*3 17.3 C 1.6 km/h
1182 07-06-2014 09:05:00 17.5 C 11.78 g/m*3 17.5 C 0 km/h
1183 07-06-2014 09:10:00 17.7 C 11.92 g/m*3 17.7 C 0 km/h
1184 07-06-2014 09:15:00 17.4 C 11.86 g/m*3 17.4 C 0 km/h
1185 07-06-2014 09:20:00 17.4 C 11.86 g/m*3 17.4 C 0 km/h
1186 07-06-2014 09:25:00 17.4 C 12 g/m*3 17.4 C 0 km/h
1187 07-06-2014 09:30:00 17.3 C 12.08 g/m*3 17.3 C 0 km/h
1188 07-06-2014 09:35:00 17.2 C 12.01 g/m*3 17.2 C 0 km/h
1189 07-06-2014 09:40:00 17.3 C 12.08 g/m*3 17.3 C 0 km/h
1190 07-06-2014 09:45:00 17.4 C 12.3 g/m*3 17.4 C 0 km/h
1191 07-06-2014 09:50:00 17.6 C 12.45 g/m*3 17.6 C 0 km/h
1192 07-06-2014 09:55:00 18 C 12.59 g/m*3 18 C 0 km/h
1193 07-06-2014 10:00:00 18.4 C 12.74 g/m*3 18.4 C 0 km/h
1194 07-06-2014 10:05:00 18.9 C 12.96 g/m*3 18.9 C 0 km/h
1195 07-06-2014 10:10:00 19.3 C 13.1 g/m*3 19.3 C 0 km/h
1196 07-06-2014 10:15:00 19.8 C 13.32 g/m*3 19.8 C 0 km/h
1197 07-06-2014 10:20:00 20 C 13.48 g/m*3 20 C 0 km/h
1198 07-06-2014 10:25:00 20.4 C 13.44 g/m*3 20.4 C 0 km/h
1199 07-06-2014 10:30:00 20.6 C 13.42 g/m*3 20.6 C 0 km/h
1200 07-06-2014 10:35:00 20.8 C 13.76 g/m*3 20.8 C 0 km/h
Sensor: Nr:Datum:Temp:Abs-Feuchte:Windchill:Wind:
Aussen-T/F 1201 07-06-2014 10:40:00 21.1 C 13.82 g/m*3 21.1 C 0 km/h
1202 07-06-2014 10:45:00 21.4 C 13.87 g/m*3 21.4 C 0 km/h
1203 07-06-2014 10:50:00 21.4 C 14.25 g/m*3 21.4 C 0 km/h
1204 07-06-2014 10:55:00 21.6 C 14.41 g/m*3 21.6 C 0 km/h
1205 07-06-2014 11:00:00 21.8 C 14.2 g/m*3 21.8 C 1.6 km/h
1206 07-06-2014 11:05:00 21.8 C 14.58 g/m*3 21.8 C 0 km/h
1207 07-06-2014 11:10:00 22.1 C 14.64 g/m*3 22.1 C 1.6 km/h
1208 07-06-2014 11:15:00 22.9 C 14.31 g/m*3 22.9 C 3.2 km/h
1209 07-06-2014 11:20:00 23.8 C 14.84 g/m*3 23.8 C 4.8 km/h
1210 07-06-2014 11:25:00 24.2 C 15.18 g/m*3 24.2 C 1.6 km/h
1211 07-06-2014 11:30:00 24.8 C 13.88 g/m*3 24.8 C 4.8 km/h
1212 07-06-2014 11:35:00 25.4 C 13.42 g/m*3 25.4 C 6.4 km/h
1213 07-06-2014 11:40:00 26.2 C 13.05 g/m*3 26.2 C 9.7 km/h
1214 07-06-2014 11:45:00 26.9 C 14.08 g/m*3 26.9 C 8.1 km/h
1215 07-06-2014 11:50:00 27.4 C 13.16 g/m*3 27.4 C 1.6 km/h
1216 07-06-2014 11:55:00 27.7 C 13.37 g/m*3 27.7 C 3.2 km/h
1217 07-06-2014 12:00:00 27.8 C 13.99 g/m*3 27.8 C 4.8 km/h
1218 07-06-2014 12:05:00 28.1 C 13.4 g/m*3 28.1 C 8.1 km/h
1219 07-06-2014 12:10:00 28.7 C 14.69 g/m*3 28.7 C 8.1 km/h
1220 07-06-2014 12:15:00 28.8 C 12.79 g/m*3 28.8 C 4.8 km/h
1221 07-06-2014 12:20:00 28.7 C 14.13 g/m*3 28.7 C 4.8 km/h
1222 07-06-2014 12:25:00 28.5 C 13.42 g/m*3 28.5 C 4.8 km/h
1223 07-06-2014 12:30:00 28.5 C 12.58 g/m*3 28.5 C 6.4 km/h
1224 07-06-2014 12:35:00 28.6 C 12.93 g/m*3 28.6 C 6.4 km/h
1225 07-06-2014 12:40:00 28.7 C 12.72 g/m*3 28.7 C 6.4 km/h
Sensor: Nr:Datum:Temp:Abs-Feuchte:Windchill:Wind:
Aussen-T/F 1226 07-06-2014 12:45:00 28.9 C 14.57 g/m*3 28.9 C 6.4 km/h
1227 07-06-2014 12:50:00 29.1 C 12.71 g/m*3 29.1 C 4.8 km/h
1228 07-06-2014 12:55:00 29.2 C 13.94 g/m*3 29.2 C 6.4 km/h
1229 07-06-2014 13:00:00 29.2 C 12.2 g/m*3 29.2 C 6.4 km/h
1230 07-06-2014 13:05:00 29.2 C 13.36 g/m*3 29.2 C 4.8 km/h
1231 07-06-2014 13:10:00 29.3 C 14.31 g/m*3 29.3 C 3.2 km/h
1232 07-06-2014 13:15:00 29.4 C 13.8 g/m*3 29.4 C 8.1 km/h
1233 07-06-2014 13:20:00 29.6 C 12.46 g/m*3 29.6 C 8.1 km/h
1234 07-06-2014 13:25:00 29.8 C 13.2 g/m*3 29.8 C 4.8 km/h
1235 07-06-2014 13:30:00 30.1 C 12.5 g/m*3 30.1 C 4.8 km/h
1236 07-06-2014 13:35:00 30.3 C 12.94 g/m*3 30.3 C 3.2 km/h
1237 07-06-2014 13:40:00 30.2 C 15.02 g/m*3 30.2 C 8.1 km/h
1238 07-06-2014 13:45:00 30.4 C 13.94 g/m*3 30.4 C 8.1 km/h
1239 07-06-2014 13:50:00 30.3 C 12.33 g/m*3 30.3 C 8.1 km/h
1240 07-06-2014 13:55:00 30.1 C 12.81 g/m*3 30.1 C 8.1 km/h
1241 07-06-2014 14:00:00 30.2 C 12.57 g/m*3 30.2 C 6.4 km/h
1242 07-06-2014 14:05:00 30.3 C 13.25 g/m*3 30.3 C 3.2 km/h
1243 07-06-2014 14:10:00 30.4 C 12.7 g/m*3 30.4 C 9.7 km/h
1244 07-06-2014 14:15:00 30.6 C 12.53 g/m*3 30.6 C 3.2 km/h
1245 07-06-2014 14:20:00 30.6 C 13.47 g/m*3 30.6 C 11.3 km/h
1246 07-06-2014 14:25:00 30.7 C 12.91 g/m*3 30.7 C 9.7 km/h
1247 07-06-2014 14:30:00 30.7 C 11.34 g/m*3 30.7 C 6.4 km/h
1248 07-06-2014 14:35:00 30.7 C 11.34 g/m*3 30.7 C 8.1 km/h
1249 07-06-2014 14:40:00 30.9 C 11.78 g/m*3 30.9 C 9.7 km/h
1250 07-06-2014 14:45:00 30.9 C 13.37 g/m*3 30.9 C 6.4 km/h
Sensor: Nr:Datum:Temp:Abs-Feuchte:Windchill:Wind:
Aussen-T/F 1251 07-06-2014 14:50:00 30.7 C 15.12 g/m*3 30.7 C 4.8 km/h
1252 07-06-2014 14:55:00 30.6 C 12.53 g/m*3 30.6 C 4.8 km/h
1253 07-06-2014 15:00:00 30.8 C 13.3 g/m*3 30.8 C 8.1 km/h
1254 07-06-2014 15:05:00 31.1 C 12.87 g/m*3 31.1 C 6.4 km/h
1255 07-06-2014 15:10:00 31.1 C 11.26 g/m*3 31.1 C 11.3 km/h
1256 07-06-2014 15:15:00 31.1 C 12.23 g/m*3 31.1 C 4.8 km/h
1257 07-06-2014 15:20:00 31.2 C 11.97 g/m*3 31.2 C 1.6 km/h
1258 07-06-2014 15:25:00 31.3 C 12.03 g/m*3 31.3 C 4.8 km/h
1259 07-06-2014 15:30:00 31.3 C 12.68 g/m*3 31.3 C 1.6 km/h
1260 07-06-2014 15:35:00 31.1 C 14.48 g/m*3 31.1 C 1.6 km/h
1261 07-06-2014 15:40:00 30.6 C 13.78 g/m*3 30.6 C 3.2 km/h
1262 07-06-2014 15:45:00 30.5 C 12.46 g/m*3 30.5 C 3.2 km/h
1263 07-06-2014 15:50:00 30.5 C 13.4 g/m*3 30.5 C 4.8 km/h
1264 07-06-2014 15:55:00 30.1 C 15.24 g/m*3 30.1 C 4.8 km/h
1265 07-06-2014 16:00:00 29.3 C 14.6 g/m*3 29.3 C 4.8 km/h
1266 07-06-2014 16:05:00 28.8 C 15.63 g/m*3 28.8 C 3.2 km/h
1267 07-06-2014 16:10:00 28.6 C 15.46 g/m*3 28.6 C 1.6 km/h
1268 07-06-2014 16:15:00 28.2 C 15.95 g/m*3 28.2 C 0 km/h
1269 07-06-2014 16:20:00 27.8 C 16.14 g/m*3 27.8 C 1.6 km/h
1270 07-06-2014 16:25:00 27.8 C 16.41 g/m*3 27.8 C 1.6 km/h
1271 07-06-2014 16:30:00 27.8 C 16.41 g/m*3 27.8 C 1.6 km/h
1272 07-06-2014 16:35:00 27.7 C 16.58 g/m*3 27.7 C 0 km/h
1273 07-06-2014 16:40:00 27.4 C 16.31 g/m*3 27.4 C 1.6 km/h
1274 07-06-2014 16:45:00 27.2 C 16.39 g/m*3 27.2 C 1.6 km/h
1275 07-06-2014 16:50:00 26.9 C 16.64 g/m*3 26.9 C 1.6 km/h
Sensor: Nr:Datum:Temp:Abs-Feuchte:Windchill:Wind:
Aussen-T/F 1276 07-06-2014 16:55:00 26.7 C 16.45 g/m*3 26.7 C 0 km/h
1277 07-06-2014 17:00:00 26.4 C 16.18 g/m*3 26.4 C 0 km/h
1278 07-06-2014 17:05:00 26.3 C 16.59 g/m*3 26.3 C 0 km/h
1279 07-06-2014 17:10:00 26.1 C 16.65 g/m*3 26.1 C 0 km/h
1280 07-06-2014 17:15:00 25.8 C 16.37 g/m*3 25.8 C 0 km/h
1281 07-06-2014 17:20:00 25.6 C 16.43 g/m*3 25.6 C 1.6 km/h
1282 07-06-2014 17:25:00 25.4 C 16.48 g/m*3 25.4 C 1.6 km/h
1283 07-06-2014 17:30:00 25.2 C 16.3 g/m*3 25.2 C 1.6 km/h
1284 07-06-2014 17:35:00 25.1 C 15.97 g/m*3 25.1 C 0 km/h
1285 07-06-2014 17:40:00 25 C 16.34 g/m*3 25 C 0 km/h
1286 07-06-2014 17:45:00 24.9 C 16.02 g/m*3 24.9 C 0 km/h
1287 07-06-2014 17:50:00 24.9 C 16.25 g/m*3 24.9 C 0 km/h
1288 07-06-2014 17:55:00 25.1 C 16.67 g/m*3 25.1 C 0 km/h
1289 07-06-2014 18:00:00 25.5 C 17.05 g/m*3 25.5 C 0 km/h
1290 07-06-2014 18:05:00 25.9 C 17.43 g/m*3 25.9 C 1.6 km/h
1291 07-06-2014 18:10:00 26.5 C 17.52 g/m*3 26.5 C 0 km/h
1292 07-06-2014 18:15:00 26.6 C 17.12 g/m*3 26.6 C 1.6 km/h
1293 07-06-2014 18:20:00 26.4 C 17.43 g/m*3 26.4 C 3.2 km/h
1294 07-06-2014 18:25:00 26.5 C 17.52 g/m*3 26.5 C 0 km/h
1295 07-06-2014 18:30:00 26.8 C 17.82 g/m*3 26.8 C 0 km/h
1296 07-06-2014 18:35:00 27.1 C 17.6 g/m*3 27.1 C 0 km/h
1297 07-06-2014 18:40:00 26.9 C 17.4 g/m*3 26.9 C 0 km/h
1298 07-06-2014 18:45:00 26.7 C 17.21 g/m*3 26.7 C 0 km/h
1299 07-06-2014 18:50:00 26.3 C 17.08 g/m*3 26.3 C 1.6 km/h
1300 07-06-2014 18:55:00 25.8 C 16.85 g/m*3 25.8 C 1.6 km/h
Sensor: Nr:Datum:Temp:Abs-Feuchte:Windchill:Wind:
Aussen-T/F 1301 07-06-2014 19:00:00 25.7 C 17 g/m*3 25.7 C 0 km/h
1302 07-06-2014 19:05:00 25.6 C 16.67 g/m*3 25.6 C 0 km/h
1303 07-06-2014 19:10:00 25.2 C 16.53 g/m*3 25.2 C 1.6 km/h
1304 07-06-2014 19:15:00 24.9 C 16.48 g/m*3 24.9 C 0 km/h
1305 07-06-2014 19:20:00 24.6 C 16.21 g/m*3 24.6 C 0 km/h
1306 07-06-2014 19:25:00 24.4 C 16.02 g/m*3 24.4 C 0 km/h
1307 07-06-2014 19:30:00 24.4 C 16.25 g/m*3 24.4 C 1.6 km/h
1308 07-06-2014 19:35:00 24.4 C 16.25 g/m*3 24.4 C 0 km/h
1309 07-06-2014 19:40:00 24.7 C 16.3 g/m*3 24.7 C 0 km/h
1310 07-06-2014 19:45:00 24.9 C 16.25 g/m*3 24.9 C 0 km/h
1311 07-06-2014 19:50:00 25 C 16.34 g/m*3 25 C 1.6 km/h
1312 07-06-2014 19:55:00 25 C 16.57 g/m*3 25 C 1.6 km/h
1313 07-06-2014 20:00:00 24.9 C 16.02 g/m*3 24.9 C 0 km/h
1314 07-06-2014 20:05:00 24.9 C 16.02 g/m*3 24.9 C 0 km/h
1315 07-06-2014 20:10:00 24.8 C 15.93 g/m*3 24.8 C 1.6 km/h
1316 07-06-2014 20:15:00 24.7 C 15.62 g/m*3 24.7 C 0 km/h
1317 07-06-2014 20:20:00 24.6 C 15.75 g/m*3 24.6 C 1.6 km/h
1318 07-06-2014 20:25:00 24.4 C 15.58 g/m*3 24.4 C 0 km/h
1319 07-06-2014 20:30:00 24.3 C 15.49 g/m*3 24.3 C 0 km/h
1320 07-06-2014 20:35:00 24.1 C 15.32 g/m*3 24.1 C 1.6 km/h
1321 07-06-2014 20:40:00 23.9 C 15.36 g/m*3 23.9 C 1.6 km/h
1322 07-06-2014 20:45:00 23.8 C 15.27 g/m*3 23.8 C 0 km/h
1323 07-06-2014 20:50:00 23.6 C 15.1 g/m*3 23.6 C 0 km/h
1324 07-06-2014 20:55:00 23.4 C 15.14 g/m*3 23.4 C 0 km/h
1325 07-06-2014 21:00:00 23.2 C 14.97 g/m*3 23.2 C 0 km/h
Sensor: Nr:Datum:Temp:Abs-Feuchte:Windchill:Wind:
Aussen-T/F 1326 07-06-2014 21:05:00 23.1 C 14.88 g/m*3 23.1 C 0 km/h
1327 07-06-2014 21:10:00 23 C 14.8 g/m*3 23 C 1.6 km/h
1328 07-06-2014 21:15:00 22.8 C 14.63 g/m*3 22.8 C 1.6 km/h
1329 07-06-2014 21:20:00 22.7 C 14.75 g/m*3 22.7 C 1.6 km/h
1330 07-06-2014 21:25:00 22.5 C 14.58 g/m*3 22.5 C 1.6 km/h
1331 07-06-2014 21:30:00 22.3 C 14.61 g/m*3 22.3 C 1.6 km/h
1332 07-06-2014 21:35:00 22.2 C 14.53 g/m*3 22.2 C 1.6 km/h
1333 07-06-2014 21:40:00 22 C 14.56 g/m*3 22 C 1.6 km/h
1334 07-06-2014 21:45:00 21.9 C 14.47 g/m*3 21.9 C 1.6 km/h
1335 07-06-2014 21:50:00 21.8 C 14.39 g/m*3 21.8 C 1.6 km/h
1336 07-06-2014 21:55:00 21.8 C 14.39 g/m*3 21.8 C 1.6 km/h
1337 07-06-2014 22:00:00 21.7 C 14.31 g/m*3 21.7 C 1.6 km/h
1338 07-06-2014 22:05:00 21.6 C 14.22 g/m*3 21.6 C 1.6 km/h
1339 07-06-2014 22:10:00 21.6 C 14.22 g/m*3 21.6 C 0 km/h
1340 07-06-2014 22:15:00 21.4 C 14.25 g/m*3 21.4 C 0 km/h
1341 07-06-2014 22:20:00 21.2 C 14.08 g/m*3 21.2 C 0 km/h
1342 07-06-2014 22:25:00 21.1 C 14.19 g/m*3 21.1 C 1.6 km/h
1343 07-06-2014 22:30:00 21 C 13.92 g/m*3 21 C 0 km/h
1344 07-06-2014 22:35:00 20.9 C 14.02 g/m*3 20.9 C 1.6 km/h
1345 07-06-2014 22:40:00 20.9 C 13.84 g/m*3 20.9 C 1.6 km/h
1346 07-06-2014 22:45:00 20.9 C 14.02 g/m*3 20.9 C 0 km/h
1347 07-06-2014 22:50:00 20.8 C 13.94 g/m*3 20.8 C 1.6 km/h
1348 07-06-2014 22:55:00 20.8 C 13.76 g/m*3 20.8 C 1.6 km/h
1349 07-06-2014 23:00:00 20.8 C 13.94 g/m*3 20.8 C 1.6 km/h
1350 07-06-2014 23:05:00 20.7 C 13.86 g/m*3 20.7 C 0 km/h
Sensor: Nr:Datum:Temp:Abs-Feuchte:Windchill:Wind:
Aussen-T/F 1351 07-06-2014 23:10:00 20.7 C 13.86 g/m*3 20.7 C 1.6 km/h
1352 07-06-2014 23:15:00 20.6 C 13.78 g/m*3 20.6 C 0 km/h
1353 07-06-2014 23:20:00 20.4 C 13.62 g/m*3 20.4 C 0 km/h
1354 07-06-2014 23:25:00 20.3 C 13.72 g/m*3 20.3 C 0 km/h
1355 07-06-2014 23:30:00 20.1 C 13.73 g/m*3 20.1 C 0 km/h
1356 07-06-2014 23:35:00 20 C 13.65 g/m*3 20 C 1.6 km/h
1357 07-06-2014 23:40:00 19.9 C 13.74 g/m*3 19.9 C 0 km/h
1358 07-06-2014 23:45:00 19.8 C 13.66 g/m*3 19.8 C 0 km/h
1359 07-06-2014 23:50:00 19.7 C 13.58 g/m*3 19.7 C 0 km/h
1360 07-06-2014 23:55:00 19.6 C 13.51 g/m*3 19.6 C 0 km/h
1361 08-06-2014 00:00:00 19.5 C 13.43 g/m*3 19.5 C 0 km/h
1362 08-06-2014 00:05:00 19.3 C 13.44 g/m*3 19.3 C 0 km/h
1363 08-06-2014 00:10:00 19.3 C 13.44 g/m*3 19.3 C 0 km/h
1364 08-06-2014 00:15:00 19.2 C 13.52 g/m*3 19.2 C 0 km/h
1365 08-06-2014 00:20:00 19.1 C 13.44 g/m*3 19.1 C 0 km/h
1366 08-06-2014 00:25:00 18.9 C 13.45 g/m*3 18.9 C 0 km/h
1367 08-06-2014 00:30:00 18.8 C 13.37 g/m*3 18.8 C 0 km/h
1368 08-06-2014 00:35:00 18.7 C 13.29 g/m*3 18.7 C 0 km/h
1369 08-06-2014 00:40:00 18.7 C 13.29 g/m*3 18.7 C 1.6 km/h
1370 08-06-2014 00:45:00 18.7 C 13.29 g/m*3 18.7 C 0 km/h
1371 08-06-2014 00:50:00 18.7 C 13.29 g/m*3 18.7 C 0 km/h
1372 08-06-2014 00:55:00 18.7 C 13.29 g/m*3 18.7 C 0 km/h
1373 08-06-2014 01:00:00 18.6 C 13.21 g/m*3 18.6 C 0 km/h
1374 08-06-2014 01:05:00 18.4 C 13.05 g/m*3 18.4 C 1.6 km/h
1375 08-06-2014 01:10:00 18.4 C 13.21 g/m*3 18.4 C 0 km/h
Sensor: Nr:Datum:Temp:Abs-Feuchte:Windchill:Wind:
Aussen-T/F 1376 08-06-2014 01:15:00 18.3 C 13.13 g/m*3 18.3 C 0 km/h
1377 08-06-2014 01:20:00 18.2 C 13.21 g/m*3 18.2 C 0 km/h
1378 08-06-2014 01:25:00 18.1 C 13.13 g/m*3 18.1 C 0 km/h
1379 08-06-2014 01:30:00 18 C 13.21 g/m*3 18 C 0 km/h
1380 08-06-2014 01:35:00 17.9 C 13.13 g/m*3 17.9 C 0 km/h
1381 08-06-2014 01:40:00 17.9 C 13.13 g/m*3 17.9 C 0 km/h
1382 08-06-2014 01:45:00 17.8 C 13.05 g/m*3 17.8 C 0 km/h
1383 08-06-2014 01:50:00 17.8 C 13.05 g/m*3 17.8 C 0 km/h
1384 08-06-2014 01:55:00 17.7 C 12.98 g/m*3 17.7 C 1.6 km/h
1385 08-06-2014 02:00:00 17.7 C 12.98 g/m*3 17.7 C 0 km/h
1386 08-06-2014 02:05:00 17.6 C 13.05 g/m*3 17.6 C 0 km/h
1387 08-06-2014 02:10:00 17.5 C 12.97 g/m*3 17.5 C 0 km/h
1388 08-06-2014 02:15:00 17.4 C 12.89 g/m*3 17.4 C 0 km/h
1389 08-06-2014 02:20:00 17.3 C 12.82 g/m*3 17.3 C 0 km/h
1390 08-06-2014 02:25:00 17.3 C 12.82 g/m*3 17.3 C 0 km/h
1391 08-06-2014 02:30:00 17.2 C 12.74 g/m*3 17.2 C 0 km/h
1392 08-06-2014 02:35:00 17.1 C 12.81 g/m*3 17.1 C 0 km/h
1393 08-06-2014 02:40:00 17.1 C 12.81 g/m*3 17.1 C 0 km/h
1394 08-06-2014 02:45:00 17 C 12.73 g/m*3 17 C 0 km/h
1395 08-06-2014 02:50:00 16.9 C 12.66 g/m*3 16.9 C 0 km/h
1396 08-06-2014 02:55:00 16.9 C 12.66 g/m*3 16.9 C 0 km/h
1397 08-06-2014 03:00:00 16.9 C 12.66 g/m*3 16.9 C 0 km/h
1398 08-06-2014 03:05:00 16.8 C 12.58 g/m*3 16.8 C 0 km/h
1399 08-06-2014 03:10:00 16.8 C 12.58 g/m*3 16.8 C 0 km/h
1400 08-06-2014 03:15:00 16.7 C 12.51 g/m*3 16.7 C 0 km/h
Sensor: Nr:Datum:Temp:Abs-Feuchte:Windchill:Wind:
Aussen-T/F 1401 08-06-2014 03:20:00 16.7 C 12.65 g/m*3 16.7 C 0 km/h
1402 08-06-2014 03:25:00 16.6 C 12.57 g/m*3 16.6 C 0 km/h
1403 08-06-2014 03:30:00 16.4 C 12.42 g/m*3 16.4 C 0 km/h
1404 08-06-2014 03:35:00 16.4 C 12.56 g/m*3 16.4 C 0 km/h
1405 08-06-2014 03:40:00 16.3 C 12.49 g/m*3 16.3 C 0 km/h
1406 08-06-2014 03:45:00 16.3 C 12.62 g/m*3 16.3 C 0 km/h
1407 08-06-2014 03:50:00 16.3 C 12.62 g/m*3 16.3 C 0 km/h
1408 08-06-2014 03:55:00 16.3 C 12.62 g/m*3 16.3 C 0 km/h
1409 08-06-2014 04:00:00 16.3 C 12.62 g/m*3 16.3 C 0 km/h
1410 08-06-2014 04:05:00 16.3 C 12.62 g/m*3 16.3 C 0 km/h
1411 08-06-2014 04:10:00 16.3 C 12.62 g/m*3 16.3 C 0 km/h
1412 08-06-2014 04:15:00 16.2 C 12.55 g/m*3 16.2 C 0 km/h
1413 08-06-2014 04:20:00 16.2 C 12.55 g/m*3 16.2 C 0 km/h
1414 08-06-2014 04:25:00 16.2 C 12.55 g/m*3 16.2 C 0 km/h
1415 08-06-2014 04:30:00 16.2 C 12.69 g/m*3 16.2 C 0 km/h
1416 08-06-2014 04:35:00 16.2 C 12.55 g/m*3 16.2 C 0 km/h
1417 08-06-2014 04:40:00 16.2 C 12.55 g/m*3 16.2 C 0 km/h
1418 08-06-2014 04:45:00 16.2 C 12.55 g/m*3 16.2 C 0 km/h
1419 08-06-2014 04:50:00 16 C 12.4 g/m*3 16 C 0 km/h
1420 08-06-2014 04:55:00 15.9 C 12.32 g/m*3 15.9 C 0 km/h
1421 08-06-2014 05:00:00 15.8 C 12.38 g/m*3 15.8 C 0 km/h
1422 08-06-2014 05:05:00 15.8 C 12.38 g/m*3 15.8 C 0 km/h
1423 08-06-2014 05:10:00 15.8 C 12.38 g/m*3 15.8 C 1.6 km/h
1424 08-06-2014 05:15:00 15.8 C 12.38 g/m*3 15.8 C 0 km/h
1425 08-06-2014 05:20:00 15.8 C 12.38 g/m*3 15.8 C 0 km/h
Sensor: Nr:Datum:Temp:Abs-Feuchte:Windchill:Wind:
Aussen-T/F 1426 08-06-2014 05:25:00 15.8 C 12.38 g/m*3 15.8 C 0 km/h
1427 08-06-2014 05:30:00 15.7 C 12.31 g/m*3 15.7 C 0 km/h
1428 08-06-2014 05:35:00 15.7 C 12.31 g/m*3 15.7 C 0 km/h
1429 08-06-2014 05:40:00 15.6 C 12.23 g/m*3 15.6 C 0 km/h
1430 08-06-2014 05:45:00 15.6 C 12.37 g/m*3 15.6 C 0 km/h
1431 08-06-2014 05:50:00 15.6 C 12.37 g/m*3 15.6 C 0 km/h
1432 08-06-2014 05:55:00 15.6 C 12.37 g/m*3 15.6 C 0 km/h
1433 08-06-2014 06:00:00 15.5 C 12.29 g/m*3 15.5 C 0 km/h
1434 08-06-2014 06:05:00 15.6 C 12.37 g/m*3 15.6 C 0 km/h
1435 08-06-2014 06:10:00 15.6 C 12.5 g/m*3 15.6 C 0 km/h
1436 08-06-2014 06:15:00 15.7 C 12.58 g/m*3 15.7 C 0 km/h
1437 08-06-2014 06:20:00 15.8 C 12.65 g/m*3 15.8 C 0 km/h
1438 08-06-2014 06:25:00 15.9 C 12.73 g/m*3 15.9 C 0 km/h
1439 08-06-2014 06:30:00 16.1 C 12.88 g/m*3 16.1 C 0 km/h
1440 08-06-2014 06:35:00 16.2 C 12.82 g/m*3 16.2 C 0 km/h
1441 08-06-2014 06:40:00 16.4 C 12.98 g/m*3 16.4 C 0 km/h
1442 08-06-2014 06:45:00 16.5 C 13.06 g/m*3 16.5 C 0 km/h
1443 08-06-2014 06:50:00 16.6 C 13.14 g/m*3 16.6 C 0 km/h
1444 08-06-2014 06:55:00 16.8 C 13.15 g/m*3 16.8 C 0 km/h
1445 08-06-2014 07:00:00 16.9 C 13.09 g/m*3 16.9 C 0 km/h
1446 08-06-2014 07:05:00 17 C 13.02 g/m*3 17 C 0 km/h
1447 08-06-2014 07:10:00 17 C 13.02 g/m*3 17 C 0 km/h
1448 08-06-2014 07:15:00 17.1 C 13.1 g/m*3 17.1 C 0 km/h
1449 08-06-2014 07:20:00 17.1 C 13.1 g/m*3 17.1 C 0 km/h
1450 08-06-2014 07:25:00 17.1 C 13.1 g/m*3 17.1 C 0 km/h
Sensor: Nr:Datum:Temp:Abs-Feuchte:Windchill:Wind:
Aussen-T/F 1451 08-06-2014 07:30:00 17.2 C 13.33 g/m*3 17.2 C 0 km/h
1452 08-06-2014 07:35:00 17.2 C 13.33 g/m*3 17.2 C 0 km/h
1453 08-06-2014 07:40:00 17.2 C 13.33 g/m*3 17.2 C 0 km/h
1454 08-06-2014 07:45:00 17.3 C 13.26 g/m*3 17.3 C 1.6 km/h
1455 08-06-2014 07:50:00 17.5 C 13.42 g/m*3 17.5 C 0 km/h
1456 08-06-2014 07:55:00 17.7 C 13.58 g/m*3 17.7 C 0 km/h
1457 08-06-2014 08:00:00 18.1 C 13.75 g/m*3 18.1 C 0 km/h
1458 08-06-2014 08:05:00 18.3 C 13.76 g/m*3 18.3 C 0 km/h
1459 08-06-2014 08:10:00 18.6 C 13.85 g/m*3 18.6 C 0 km/h
1460 08-06-2014 08:15:00 18.8 C 14.01 g/m*3 18.8 C 0 km/h
1461 08-06-2014 08:20:00 19.1 C 13.93 g/m*3 19.1 C 0 km/h
1462 08-06-2014 08:25:00 19.2 C 14.02 g/m*3 19.2 C 0 km/h
1463 08-06-2014 08:30:00 19.4 C 14.18 g/m*3 19.4 C 0 km/h
1464 08-06-2014 08:35:00 19.7 C 14.26 g/m*3 19.7 C 0 km/h
1465 08-06-2014 08:40:00 19.9 C 14.43 g/m*3 19.9 C 0 km/h
1466 08-06-2014 08:45:00 20 C 14.17 g/m*3 20 C 0 km/h
1467 08-06-2014 08:50:00 20.1 C 14.43 g/m*3 20.1 C 0 km/h
1468 08-06-2014 08:55:00 20.1 C 14.43 g/m*3 20.1 C 0 km/h
1469 08-06-2014 09:00:00 20.4 C 14.51 g/m*3 20.4 C 0 km/h
1470 08-06-2014 09:05:00 20.6 C 14.5 g/m*3 20.6 C 0 km/h
1471 08-06-2014 09:10:00 20.6 C 14.5 g/m*3 20.6 C 0 km/h
1472 08-06-2014 09:15:00 20.6 C 14.68 g/m*3 20.6 C 0 km/h
1473 08-06-2014 09:20:00 20.4 C 14.68 g/m*3 20.4 C 0 km/h
1474 08-06-2014 09:25:00 20.3 C 14.6 g/m*3 20.3 C 0 km/h
1475 08-06-2014 09:30:00 20.3 C 14.6 g/m*3 20.3 C 0 km/h
Sensor: Nr:Datum:Temp:Abs-Feuchte:Windchill:Wind:
Aussen-T/F 1476 08-06-2014 09:35:00 20.3 C 14.77 g/m*3 20.3 C 0 km/h
1477 08-06-2014 09:40:00 20.4 C 14.86 g/m*3 20.4 C 0 km/h
1478 08-06-2014 09:45:00 20.5 C 14.95 g/m*3 20.5 C 0 km/h
1479 08-06-2014 09:50:00 20.8 C 15.21 g/m*3 20.8 C 0 km/h
1480 08-06-2014 09:55:00 21.1 C 15.29 g/m*3 21.1 C 0 km/h
1481 08-06-2014 10:00:00 21.6 C 15.55 g/m*3 21.6 C 0 km/h
1482 08-06-2014 10:05:00 21.9 C 15.63 g/m*3 21.9 C 0 km/h
1483 08-06-2014 10:10:00 22.2 C 15.71 g/m*3 22.2 C 0 km/h
1484 08-06-2014 10:15:00 22.4 C 15.89 g/m*3 22.4 C 0 km/h
1485 08-06-2014 10:20:00 22.7 C 15.96 g/m*3 22.7 C 0 km/h
1486 08-06-2014 10:25:00 22.9 C 16.14 g/m*3 22.9 C 0 km/h
1487 08-06-2014 10:30:00 22.8 C 15.85 g/m*3 22.8 C 0 km/h
1488 08-06-2014 10:35:00 22.9 C 16.14 g/m*3 22.9 C 0 km/h
1489 08-06-2014 10:40:00 23.1 C 16.33 g/m*3 23.1 C 0 km/h
1490 08-06-2014 10:45:00 23.3 C 16.52 g/m*3 23.3 C 0 km/h
1491 08-06-2014 10:50:00 23.4 C 16.4 g/m*3 23.4 C 0 km/h
1492 08-06-2014 10:55:00 23.2 C 16.22 g/m*3 23.2 C 0 km/h
1493 08-06-2014 11:00:00 23.2 C 16.22 g/m*3 23.2 C 0 km/h
1494 08-06-2014 11:05:00 23.3 C 16.1 g/m*3 23.3 C 0 km/h
1495 08-06-2014 11:10:00 23.7 C 15.4 g/m*3 23.7 C 0 km/h
1496 08-06-2014 11:15:00 24.6 C 16.43 g/m*3 24.6 C 0 km/h
1497 08-06-2014 11:20:00 25.3 C 16.86 g/m*3 25.3 C 0 km/h
1498 08-06-2014 11:25:00 25.6 C 16.19 g/m*3 25.6 C 0 km/h
1499 08-06-2014 11:30:00 25.5 C 16.1 g/m*3 25.5 C 0 km/h
1500 08-06-2014 11:35:00 25.3 C 16.62 g/m*3 25.3 C 0 km/h
Sensor: Nr:Datum:Temp:Abs-Feuchte:Windchill:Wind:
Aussen-T/F 1501 08-06-2014 11:40:00 25.4 C 16.24 g/m*3 25.4 C 0 km/h
1502 08-06-2014 11:45:00 25.8 C 16.61 g/m*3 25.8 C 0 km/h
1503 08-06-2014 11:50:00 25.7 C 16.28 g/m*3 25.7 C 0 km/h
1504 08-06-2014 11:55:00 25.5 C 15.86 g/m*3 25.5 C 1.6 km/h
1505 08-06-2014 12:00:00 26 C 16.55 g/m*3 26 C 4.8 km/h
1506 08-06-2014 12:05:00 26.9 C 15.87 g/m*3 26.9 C 4.8 km/h
1507 08-06-2014 12:10:00 27.7 C 15.25 g/m*3 27.7 C 4.8 km/h
1508 08-06-2014 12:15:00 28.3 C 15.48 g/m*3 28.3 C 8.1 km/h
1509 08-06-2014 12:20:00 28.8 C 14.77 g/m*3 28.8 C 6.4 km/h
1510 08-06-2014 12:25:00 29.2 C 16.55 g/m*3 29.2 C 3.2 km/h
1511 08-06-2014 12:30:00 29.2 C 15.97 g/m*3 29.2 C 4.8 km/h
1512 08-06-2014 12:35:00 29.1 C 14.73 g/m*3 29.1 C 6.4 km/h
1513 08-06-2014 12:40:00 29.5 C 15.64 g/m*3 29.5 C 6.4 km/h
1514 08-06-2014 12:45:00 29.7 C 14.92 g/m*3 29.7 C 1.6 km/h
1515 08-06-2014 12:50:00 29.9 C 14.78 g/m*3 29.9 C 3.2 km/h
1516 08-06-2014 12:55:00 30.1 C 14.63 g/m*3 30.1 C 4.8 km/h
1517 08-06-2014 13:00:00 30.3 C 14.49 g/m*3 30.3 C 6.4 km/h
1518 08-06-2014 13:05:00 30.6 C 14.72 g/m*3 30.6 C 6.4 km/h
1519 08-06-2014 13:10:00 30.8 C 14.88 g/m*3 30.8 C 4.8 km/h
1520 08-06-2014 13:15:00 30.8 C 14.88 g/m*3 30.8 C 6.4 km/h
1521 08-06-2014 13:20:00 30.8 C 14.56 g/m*3 30.8 C 6.4 km/h
1522 08-06-2014 13:25:00 30.9 C 16.23 g/m*3 30.9 C 6.4 km/h
1523 08-06-2014 13:30:00 31.1 C 15.44 g/m*3 31.1 C 4.8 km/h
1524 08-06-2014 13:35:00 31.2 C 14.88 g/m*3 31.2 C 8.1 km/h
1525 08-06-2014 13:40:00 31.5 C 14.79 g/m*3 31.5 C 9.7 km/h
Sensor: Nr:Datum:Temp:Abs-Feuchte:Windchill:Wind:
Aussen-T/F 1526 08-06-2014 13:45:00 31.6 C 14.54 g/m*3 31.6 C 9.7 km/h
1527 08-06-2014 13:50:00 31.7 C 15.95 g/m*3 31.7 C 6.4 km/h
1528 08-06-2014 13:55:00 31.9 C 15.45 g/m*3 31.9 C 4.8 km/h
1529 08-06-2014 14:00:00 32 C 15.53 g/m*3 32 C 8.1 km/h
1530 08-06-2014 14:05:00 32.2 C 15.35 g/m*3 32.2 C 3.2 km/h
1531 08-06-2014 14:10:00 32.2 C 16.04 g/m*3 32.2 C 6.4 km/h
1532 08-06-2014 14:15:00 32.3 C 15.78 g/m*3 32.3 C 9.7 km/h
1533 08-06-2014 14:20:00 32.4 C 15.86 g/m*3 32.4 C 9.7 km/h
1534 08-06-2014 14:25:00 32.3 C 16.12 g/m*3 32.3 C 11.3 km/h
1535 08-06-2014 14:30:00 32.3 C 15.44 g/m*3 32.3 C 8.1 km/h
1536 08-06-2014 14:35:00 32.4 C 14.83 g/m*3 32.4 C 8.1 km/h
1537 08-06-2014 14:40:00 32.7 C 14.72 g/m*3 32.7 C 6.4 km/h
1538 08-06-2014 14:45:00 32.7 C 15.77 g/m*3 32.7 C 4.8 km/h
1539 08-06-2014 14:50:00 32.8 C 14.79 g/m*3 32.8 C 4.8 km/h
1540 08-06-2014 14:55:00 32.8 C 14.09 g/m*3 32.8 C 8.1 km/h
1541 08-06-2014 15:00:00 32.5 C 14.21 g/m*3 32.5 C 4.8 km/h
1542 08-06-2014 15:05:00 32.6 C 14.64 g/m*3 32.6 C 6.4 km/h
1543 08-06-2014 15:10:00 32.8 C 14.79 g/m*3 32.8 C 6.4 km/h
1544 08-06-2014 15:15:00 33.2 C 14.75 g/m*3 33.2 C 6.4 km/h
1545 08-06-2014 15:20:00 33.6 C 14.7 g/m*3 33.6 C 4.8 km/h
1546 08-06-2014 15:25:00 33.7 C 13.67 g/m*3 33.7 C 8.1 km/h
1547 08-06-2014 15:30:00 33.6 C 14.33 g/m*3 33.6 C 8.1 km/h
1548 08-06-2014 15:35:00 33.2 C 14.39 g/m*3 33.2 C 8.1 km/h
1549 08-06-2014 15:40:00 32.8 C 15.85 g/m*3 32.8 C 0 km/h
1550 08-06-2014 15:45:00 31.7 C 16.28 g/m*3 31.7 C 1.6 km/h
Sensor: Nr:Datum:Temp:Abs-Feuchte:Windchill:Wind:
Aussen-T/F 1551 08-06-2014 15:50:00 30.6 C 16.91 g/m*3 30.6 C 0 km/h
1552 08-06-2014 15:55:00 29.3 C 16.93 g/m*3 29.3 C 1.6 km/h
1553 08-06-2014 16:00:00 29.2 C 16.55 g/m*3 29.2 C 6.4 km/h
1554 08-06-2014 16:05:00 30.5 C 16.51 g/m*3 30.5 C 6.4 km/h
1555 08-06-2014 16:10:00 31.1 C 16.09 g/m*3 31.1 C 11.3 km/h
1556 08-06-2014 16:15:00 31.8 C 16.37 g/m*3 31.8 C 14.5 km/h
1557 08-06-2014 16:20:00 32.4 C 15.86 g/m*3 32.4 C 11.3 km/h
1558 08-06-2014 16:25:00 32.7 C 17.17 g/m*3 32.7 C 8.1 km/h
1559 08-06-2014 16:30:00 32.8 C 16.55 g/m*3 32.8 C 11.3 km/h
1560 08-06-2014 16:35:00 32.7 C 15.77 g/m*3 32.7 C 8.1 km/h
1561 08-06-2014 16:40:00 32.4 C 16.21 g/m*3 32.4 C 8.1 km/h
1562 08-06-2014 16:45:00 32.5 C 15.95 g/m*3 32.5 C 8.1 km/h
1563 08-06-2014 16:50:00 32.9 C 15.58 g/m*3 32.9 C 6.4 km/h
1564 08-06-2014 16:55:00 32.9 C 16.29 g/m*3 32.9 C 9.7 km/h
1565 08-06-2014 17:00:00 33.1 C 17.18 g/m*3 33.1 C 9.7 km/h
1566 08-06-2014 17:05:00 33.6 C 16.53 g/m*3 33.6 C 4.8 km/h
1567 08-06-2014 17:10:00 33.7 C 15.51 g/m*3 33.7 C 6.4 km/h
1568 08-06-2014 17:15:00 33.6 C 16.17 g/m*3 33.6 C 6.4 km/h
1569 08-06-2014 17:20:00 33.9 C 16.05 g/m*3 33.9 C 8.1 km/h
1570 08-06-2014 17:25:00 34 C 16.51 g/m*3 34 C 4.8 km/h
1571 08-06-2014 17:30:00 33.8 C 16.71 g/m*3 33.8 C 4.8 km/h
1572 08-06-2014 17:35:00 33.6 C 16.9 g/m*3 33.6 C 6.4 km/h
1573 08-06-2014 17:40:00 33.5 C 14.98 g/m*3 33.5 C 4.8 km/h
1574 08-06-2014 17:45:00 33.4 C 14.91 g/m*3 33.4 C 3.2 km/h
1575 08-06-2014 17:50:00 33.6 C 17.64 g/m*3 33.6 C 6.4 km/h
Sensor: Nr:Datum:Temp:Abs-Feuchte:Windchill:Wind:
Aussen-T/F 1576 08-06-2014 17:55:00 33.7 C 15.51 g/m*3 33.7 C 6.4 km/h
1577 08-06-2014 18:00:00 33.7 C 15.88 g/m*3 33.7 C 9.7 km/h
1578 08-06-2014 18:05:00 33.6 C 15.8 g/m*3 33.6 C 6.4 km/h
1579 08-06-2014 18:10:00 33.4 C 16 g/m*3 33.4 C 6.4 km/h
1580 08-06-2014 18:15:00 33.5 C 16.81 g/m*3 33.5 C 8.1 km/h
1581 08-06-2014 18:20:00 33.6 C 15.8 g/m*3 33.6 C 4.8 km/h
1582 08-06-2014 18:25:00 33.6 C 16.53 g/m*3 33.6 C 6.4 km/h
1583 08-06-2014 18:30:00 33.4 C 15.63 g/m*3 33.4 C 8.1 km/h
1584 08-06-2014 18:35:00 33.4 C 15.27 g/m*3 33.4 C 3.2 km/h
1585 08-06-2014 18:40:00 33.4 C 15.63 g/m*3 33.4 C 6.4 km/h
1586 08-06-2014 18:45:00 33.4 C 16.36 g/m*3 33.4 C 9.7 km/h
1587 08-06-2014 18:50:00 33.2 C 16.91 g/m*3 33.2 C 11.3 km/h
1588 08-06-2014 18:55:00 33 C 16.02 g/m*3 33 C 8.1 km/h
1589 08-06-2014 19:00:00 32.8 C 16.2 g/m*3 32.8 C 9.7 km/h
1590 08-06-2014 19:05:00 32.5 C 16.29 g/m*3 32.5 C 8.1 km/h
1591 08-06-2014 19:10:00 32.3 C 16.81 g/m*3 32.3 C 8.1 km/h
1592 08-06-2014 19:15:00 32.1 C 16.29 g/m*3 32.1 C 9.7 km/h
1593 08-06-2014 19:20:00 31.8 C 16.7 g/m*3 31.8 C 8.1 km/h
1594 08-06-2014 19:25:00 31.6 C 16.52 g/m*3 31.6 C 4.8 km/h
1595 08-06-2014 19:30:00 31.3 C 16.59 g/m*3 31.3 C 8.1 km/h
1596 08-06-2014 19:35:00 31.1 C 16.41 g/m*3 31.1 C 6.4 km/h
1597 08-06-2014 19:40:00 30.8 C 16.15 g/m*3 30.8 C 8.1 km/h
1598 08-06-2014 19:45:00 30.6 C 16.6 g/m*3 30.6 C 8.1 km/h
1599 08-06-2014 19:50:00 30.4 C 16.42 g/m*3 30.4 C 6.4 km/h
1600 08-06-2014 19:55:00 30.4 C 16.42 g/m*3 30.4 C 6.4 km/h
Sensor: Nr:Datum:Temp:Abs-Feuchte:Windchill:Wind:
Aussen-T/F 1601 08-06-2014 20:00:00 30.3 C 16.64 g/m*3 30.3 C 4.8 km/h
1602 08-06-2014 20:05:00 30.2 C 16.86 g/m*3 30.2 C 6.4 km/h
1603 08-06-2014 20:10:00 30.1 C 16.46 g/m*3 30.1 C 6.4 km/h
1604 08-06-2014 20:15:00 29.8 C 16.2 g/m*3 29.8 C 8.1 km/h
1605 08-06-2014 20:20:00 29.6 C 16.02 g/m*3 29.6 C 9.7 km/h
1606 08-06-2014 20:25:00 29.4 C 16.15 g/m*3 29.4 C 8.1 km/h
1607 08-06-2014 20:30:00 29.2 C 16.26 g/m*3 29.2 C 8.1 km/h
1608 08-06-2014 20:35:00 28.9 C 16 g/m*3 28.9 C 6.4 km/h
1609 08-06-2014 20:40:00 28.7 C 16.11 g/m*3 28.7 C 8.1 km/h
1610 08-06-2014 20:45:00 28.5 C 16.21 g/m*3 28.5 C 8.1 km/h
1611 08-06-2014 20:50:00 28.3 C 16.03 g/m*3 28.3 C 9.7 km/h
1612 08-06-2014 20:55:00 28.1 C 16.13 g/m*3 28.1 C 6.4 km/h
1613 08-06-2014 21:00:00 27.7 C 17.12 g/m*3 27.7 C 8.1 km/h
1614 08-06-2014 21:05:00 26.9 C 16.89 g/m*3 26.9 C 1.6 km/h
1615 08-06-2014 21:10:00 26.1 C 16.89 g/m*3 26.1 C 0 km/h
1616 08-06-2014 21:15:00 25.5 C 16.81 g/m*3 25.5 C 0 km/h
1617 08-06-2014 21:20:00 25.1 C 16.67 g/m*3 25.1 C 0 km/h
1618 08-06-2014 21:25:00 24.9 C 16.71 g/m*3 24.9 C 0 km/h
1619 08-06-2014 21:30:00 24.7 C 16.75 g/m*3 24.7 C 0 km/h
1620 08-06-2014 21:35:00 24.4 C 16.69 g/m*3 24.4 C 0 km/h
1621 08-06-2014 21:40:00 24.2 C 16.72 g/m*3 24.2 C 1.6 km/h
1622 08-06-2014 21:45:00 23.9 C 16.44 g/m*3 23.9 C 1.6 km/h
1623 08-06-2014 21:50:00 23.8 C 16.56 g/m*3 23.8 C 0 km/h
1624 08-06-2014 21:55:00 23.8 C 16.78 g/m*3 23.8 C 0 km/h
1625 08-06-2014 22:00:00 23.7 C 16.68 g/m*3 23.7 C 1.6 km/h
Sensor: Nr:Datum:Temp:Abs-Feuchte:Windchill:Wind:
Aussen-T/F 1626 08-06-2014 22:05:00 23.5 C 16.71 g/m*3 23.5 C 0 km/h
1627 08-06-2014 22:10:00 23.4 C 16.61 g/m*3 23.4 C 0 km/h
1628 08-06-2014 22:15:00 23.3 C 16.73 g/m*3 23.3 C 0 km/h
1629 08-06-2014 22:20:00 23.2 C 16.63 g/m*3 23.2 C 0 km/h
1630 08-06-2014 22:25:00 23.1 C 16.54 g/m*3 23.1 C 0 km/h
1631 08-06-2014 22:30:00 23.2 C 16.63 g/m*3 23.2 C 1.6 km/h
1632 08-06-2014 22:35:00 23.1 C 16.54 g/m*3 23.1 C 0 km/h
1633 08-06-2014 22:40:00 23 C 16.65 g/m*3 23 C 1.6 km/h
1634 08-06-2014 22:45:00 22.9 C 16.55 g/m*3 22.9 C 0 km/h
1635 08-06-2014 22:50:00 22.8 C 16.66 g/m*3 22.8 C 0 km/h
1636 08-06-2014 22:55:00 22.7 C 16.57 g/m*3 22.7 C 0 km/h
1637 08-06-2014 23:00:00 22.6 C 16.47 g/m*3 22.6 C 0 km/h
1638 08-06-2014 23:05:00 22.5 C 16.38 g/m*3 22.5 C 0 km/h
1639 08-06-2014 23:10:00 22.4 C 16.28 g/m*3 22.4 C 0 km/h
1640 08-06-2014 23:15:00 22.3 C 16.39 g/m*3 22.3 C 0 km/h
1641 08-06-2014 23:20:00 22.3 C 16.39 g/m*3 22.3 C 0 km/h
1642 08-06-2014 23:25:00 22.2 C 16.3 g/m*3 22.2 C 0 km/h
1643 08-06-2014 23:30:00 22.2 C 16.3 g/m*3 22.2 C 0 km/h
1644 08-06-2014 23:35:00 22.1 C 16.4 g/m*3 22.1 C 0 km/h
1645 08-06-2014 23:40:00 21.9 C 16.21 g/m*3 21.9 C 0 km/h
1646 08-06-2014 23:45:00 21.9 C 16.21 g/m*3 21.9 C 0 km/h
1647 08-06-2014 23:50:00 21.8 C 16.12 g/m*3 21.8 C 0 km/h
1648 08-06-2014 23:55:00 21.7 C 16.21 g/m*3 21.7 C 0 km/h
1649 09-06-2014 00:00:00 21.7 C 16.21 g/m*3 21.7 C 1.6 km/h
1650 09-06-2014 00:05:00 21.6 C 16.12 g/m*3 21.6 C 0 km/h
Sensor: Nr:Datum:Temp:Abs-Feuchte:Windchill:Wind:
Aussen-T/F 1651 09-06-2014 00:10:00 21.5 C 16.03 g/m*3 21.5 C 0 km/h
1652 09-06-2014 00:15:00 21.4 C 16.12 g/m*3 21.4 C 0 km/h
1653 09-06-2014 00:20:00 21.4 C 16.12 g/m*3 21.4 C 0 km/h
1654 09-06-2014 00:25:00 21.3 C 16.03 g/m*3 21.3 C 0 km/h
1655 09-06-2014 00:30:00 21.2 C 15.94 g/m*3 21.2 C 0 km/h
1656 09-06-2014 00:35:00 21.2 C 15.94 g/m*3 21.2 C 0 km/h
1657 09-06-2014 00:40:00 21.1 C 15.85 g/m*3 21.1 C 1.6 km/h
1658 09-06-2014 00:45:00 20.9 C 15.66 g/m*3 20.9 C 0 km/h
1659 09-06-2014 00:50:00 20.8 C 15.75 g/m*3 20.8 C 0 km/h
1660 09-06-2014 00:55:00 20.7 C 15.66 g/m*3 20.7 C 0 km/h
1661 09-06-2014 01:00:00 20.7 C 15.66 g/m*3 20.7 C 0 km/h
1662 09-06-2014 01:05:00 20.6 C 15.57 g/m*3 20.6 C 0 km/h
1663 09-06-2014 01:10:00 20.5 C 15.66 g/m*3 20.5 C 0 km/h
1664 09-06-2014 01:15:00 20.4 C 15.57 g/m*3 20.4 C 0 km/h
1665 09-06-2014 01:20:00 20.3 C 15.48 g/m*3 20.3 C 0 km/h
1666 09-06-2014 01:25:00 20.3 C 15.48 g/m*3 20.3 C 0 km/h
1667 09-06-2014 01:30:00 20.3 C 15.48 g/m*3 20.3 C 0 km/h
1668 09-06-2014 01:35:00 20.3 C 15.65 g/m*3 20.3 C 0 km/h
1669 09-06-2014 01:40:00 20.2 C 15.39 g/m*3 20.2 C 0 km/h
1670 09-06-2014 01:45:00 20.1 C 15.47 g/m*3 20.1 C 0 km/h
1671 09-06-2014 01:50:00 20.1 C 15.47 g/m*3 20.1 C 0 km/h
1672 09-06-2014 01:55:00 20 C 15.38 g/m*3 20 C 0 km/h
1673 09-06-2014 02:00:00 19.9 C 15.29 g/m*3 19.9 C 0 km/h
1674 09-06-2014 02:05:00 19.8 C 15.37 g/m*3 19.8 C 0 km/h
1675 09-06-2014 02:10:00 19.8 C 15.37 g/m*3 19.8 C 0 km/h
Sensor: Nr:Datum:Temp:Abs-Feuchte:Windchill:Wind:
Aussen-T/F 1676 09-06-2014 02:15:00 19.7 C 15.28 g/m*3 19.7 C 0 km/h
1677 09-06-2014 02:20:00 19.7 C 15.28 g/m*3 19.7 C 0 km/h
1678 09-06-2014 02:25:00 19.7 C 15.28 g/m*3 19.7 C 1.6 km/h
1679 09-06-2014 02:30:00 19.7 C 15.45 g/m*3 19.7 C 1.6 km/h
1680 09-06-2014 02:35:00 19.7 C 15.45 g/m*3 19.7 C 0 km/h
1681 09-06-2014 02:40:00 19.7 C 15.45 g/m*3 19.7 C 0 km/h
1682 09-06-2014 02:45:00 19.7 C 15.28 g/m*3 19.7 C 0 km/h
1683 09-06-2014 02:50:00 19.7 C 15.45 g/m*3 19.7 C 0 km/h
1684 09-06-2014 02:55:00 19.7 C 15.45 g/m*3 19.7 C 0 km/h
1685 09-06-2014 03:00:00 19.6 C 15.36 g/m*3 19.6 C 0 km/h
1686 09-06-2014 03:05:00 19.6 C 15.36 g/m*3 19.6 C 0 km/h
1687 09-06-2014 03:10:00 19.6 C 15.53 g/m*3 19.6 C 0 km/h
1688 09-06-2014 03:15:00 19.6 C 15.53 g/m*3 19.6 C 0 km/h
1689 09-06-2014 03:20:00 19.6 C 15.53 g/m*3 19.6 C 0 km/h
1690 09-06-2014 03:25:00 19.4 C 15.35 g/m*3 19.4 C 0 km/h
1691 09-06-2014 03:30:00 19.4 C 15.35 g/m*3 19.4 C 0 km/h
1692 09-06-2014 03:35:00 19.3 C 15.26 g/m*3 19.3 C 0 km/h
1693 09-06-2014 03:40:00 19.3 C 15.26 g/m*3 19.3 C 0 km/h
1694 09-06-2014 03:45:00 19.4 C 15.35 g/m*3 19.4 C 0 km/h
1695 09-06-2014 03:50:00 19.3 C 15.26 g/m*3 19.3 C 0 km/h
1696 09-06-2014 03:55:00 19.4 C 15.35 g/m*3 19.4 C 1.6 km/h
1697 09-06-2014 04:00:00 19.4 C 15.35 g/m*3 19.4 C 1.6 km/h
1698 09-06-2014 04:05:00 19.4 C 15.35 g/m*3 19.4 C 0 km/h
1699 09-06-2014 04:10:00 19.4 C 15.35 g/m*3 19.4 C 3.2 km/h
1700 09-06-2014 04:15:00 19.4 C 15.35 g/m*3 19.4 C 0 km/h
Sensor: Nr:Datum:Temp:Abs-Feuchte:Windchill:Wind:
Aussen-T/F 1701 09-06-2014 04:20:00 19.5 C 15.44 g/m*3 19.5 C 1.6 km/h
1702 09-06-2014 04:25:00 19.6 C 15.53 g/m*3 19.6 C 1.6 km/h
1703 09-06-2014 04:30:00 19.6 C 15.36 g/m*3 19.6 C 0 km/h
1704 09-06-2014 04:35:00 19.6 C 15.19 g/m*3 19.6 C 0 km/h
1705 09-06-2014 04:40:00 19.6 C 15.19 g/m*3 19.6 C 1.6 km/h
1706 09-06-2014 04:45:00 19.5 C 15.1 g/m*3 19.5 C 1.6 km/h
1707 09-06-2014 04:50:00 19.6 C 15.19 g/m*3 19.6 C 8.1 km/h
1708 09-06-2014 04:55:00 19.8 C 15.2 g/m*3 19.8 C 8.1 km/h
1709 09-06-2014 05:00:00 19.7 C 15.11 g/m*3 19.7 C 0 km/h
1710 09-06-2014 05:05:00 19.5 C 14.94 g/m*3 19.5 C 0 km/h
1711 09-06-2014 05:10:00 19.4 C 15.02 g/m*3 19.4 C 0 km/h
1712 09-06-2014 05:15:00 19.3 C 14.93 g/m*3 19.3 C 0 km/h
1713 09-06-2014 05:20:00 19.1 C 14.75 g/m*3 19.1 C 0 km/h
1714 09-06-2014 05:25:00 19 C 14.83 g/m*3 19 C 0 km/h
1715 09-06-2014 05:30:00 18.9 C 14.74 g/m*3 18.9 C 0 km/h
1716 09-06-2014 05:35:00 18.8 C 14.66 g/m*3 18.8 C 0 km/h
1717 09-06-2014 05:40:00 18.8 C 14.82 g/m*3 18.8 C 0 km/h
1718 09-06-2014 05:45:00 18.7 C 14.73 g/m*3 18.7 C 0 km/h
1719 09-06-2014 05:50:00 18.7 C 14.73 g/m*3 18.7 C 0 km/h
1720 09-06-2014 05:55:00 18.7 C 14.73 g/m*3 18.7 C 0 km/h
1721 09-06-2014 06:00:00 18.7 C 14.73 g/m*3 18.7 C 0 km/h
1722 09-06-2014 06:05:00 18.6 C 14.64 g/m*3 18.6 C 0 km/h
1723 09-06-2014 06:10:00 18.6 C 14.64 g/m*3 18.6 C 0 km/h
1724 09-06-2014 06:15:00 18.6 C 14.64 g/m*3 18.6 C 0 km/h
1725 09-06-2014 06:20:00 18.6 C 14.64 g/m*3 18.6 C 0 km/h
Sensor: Nr:Datum:Temp:Abs-Feuchte:Windchill:Wind:
Aussen-T/F 1726 09-06-2014 06:25:00 18.6 C 14.64 g/m*3 18.6 C 0 km/h
1727 09-06-2014 06:30:00 18.6 C 14.8 g/m*3 18.6 C 0 km/h
1728 09-06-2014 06:35:00 18.6 C 14.8 g/m*3 18.6 C 0 km/h
1729 09-06-2014 06:40:00 18.6 C 14.8 g/m*3 18.6 C 0 km/h
1730 09-06-2014 06:45:00 18.6 C 14.8 g/m*3 18.6 C 0 km/h
1731 09-06-2014 06:50:00 18.7 C 14.89 g/m*3 18.7 C 1.6 km/h
1732 09-06-2014 06:55:00 18.7 C 14.89 g/m*3 18.7 C 0 km/h
1733 09-06-2014 07:00:00 18.8 C 14.98 g/m*3 18.8 C 0 km/h
1734 09-06-2014 07:05:00 18.8 C 14.98 g/m*3 18.8 C 0 km/h
1735 09-06-2014 07:10:00 18.8 C 14.98 g/m*3 18.8 C 0 km/h
1736 09-06-2014 07:15:00 18.8 C 14.98 g/m*3 18.8 C 0 km/h
1737 09-06-2014 07:20:00 18.9 C 15.07 g/m*3 18.9 C 0 km/h
1738 09-06-2014 07:25:00 19 C 15.16 g/m*3 19 C 0 km/h
1739 09-06-2014 07:30:00 19.1 C 15.25 g/m*3 19.1 C 0 km/h
1740 09-06-2014 07:35:00 19.2 C 15.34 g/m*3 19.2 C 0 km/h
1741 09-06-2014 07:40:00 19.3 C 15.43 g/m*3 19.3 C 0 km/h
1742 09-06-2014 07:45:00 19.3 C 15.43 g/m*3 19.3 C 0 km/h
1743 09-06-2014 07:50:00 19.4 C 15.52 g/m*3 19.4 C 0 km/h
1744 09-06-2014 07:55:00 19.7 C 15.79 g/m*3 19.7 C 0 km/h
1745 09-06-2014 08:00:00 19.9 C 15.81 g/m*3 19.9 C 0 km/h
1746 09-06-2014 08:05:00 20.2 C 15.91 g/m*3 20.2 C 0 km/h
1747 09-06-2014 08:10:00 20.5 C 16.01 g/m*3 20.5 C 0 km/h
1748 09-06-2014 08:15:00 20.7 C 16.02 g/m*3 20.7 C 0 km/h
1749 09-06-2014 08:20:00 20.9 C 16.03 g/m*3 20.9 C 0 km/h
1750 09-06-2014 08:25:00 21.2 C 16.31 g/m*3 21.2 C 0 km/h
Sensor: Nr:Datum:Temp:Abs-Feuchte:Windchill:Wind:
Aussen-T/F 1751 09-06-2014 08:30:00 21.4 C 16.5 g/m*3 21.4 C 0 km/h
1752 09-06-2014 08:35:00 21.6 C 16.31 g/m*3 21.6 C 0 km/h
1753 09-06-2014 08:40:00 21.8 C 16.5 g/m*3 21.8 C 0 km/h
1754 09-06-2014 08:45:00 21.9 C 16.6 g/m*3 21.9 C 0 km/h
1755 09-06-2014 08:50:00 21.9 C 16.4 g/m*3 21.9 C 0 km/h
1756 09-06-2014 08:55:00 22.1 C 16.79 g/m*3 22.1 C 0 km/h
1757 09-06-2014 09:00:00 22.4 C 17.08 g/m*3 22.4 C 0 km/h
1758 09-06-2014 09:05:00 22.7 C 16.77 g/m*3 22.7 C 4.8 km/h
1759 09-06-2014 09:10:00 23.2 C 16.84 g/m*3 23.2 C 4.8 km/h
1760 09-06-2014 09:15:00 23.6 C 17.23 g/m*3 23.6 C 3.2 km/h
1761 09-06-2014 09:20:00 23.7 C 16.9 g/m*3 23.7 C 1.6 km/h
1762 09-06-2014 09:25:00 23.7 C 17.11 g/m*3 23.7 C 3.2 km/h
1763 09-06-2014 09:30:00 23.4 C 16.82 g/m*3 23.4 C 9.7 km/h
1764 09-06-2014 09:35:00 23.6 C 16.8 g/m*3 23.6 C 9.7 km/h
1765 09-06-2014 09:40:00 23.9 C 16.66 g/m*3 23.9 C 1.6 km/h
1766 09-06-2014 09:45:00 24.2 C 16.72 g/m*3 24.2 C 6.4 km/h
1767 09-06-2014 09:50:00 24.4 C 16.91 g/m*3 24.4 C 4.8 km/h
1768 09-06-2014 09:55:00 24.8 C 17.07 g/m*3 24.8 C 8.1 km/h
1769 09-06-2014 10:00:00 25.2 C 16.76 g/m*3 25.2 C 4.8 km/h
1770 09-06-2014 10:05:00 25.6 C 16.9 g/m*3 25.6 C 3.2 km/h
1771 09-06-2014 10:10:00 25.9 C 16.95 g/m*3 25.9 C 9.7 km/h
1772 09-06-2014 10:15:00 26.3 C 17.08 g/m*3 26.3 C 8.1 km/h
1773 09-06-2014 10:20:00 26.5 C 17.02 g/m*3 26.5 C 6.4 km/h
1774 09-06-2014 10:25:00 26.7 C 16.96 g/m*3 26.7 C 8.1 km/h
1775 09-06-2014 10:30:00 26.7 C 16.71 g/m*3 26.7 C 6.4 km/h
Sensor: Nr:Datum:Temp:Abs-Feuchte:Windchill:Wind:
Aussen-T/F 1776 09-06-2014 10:35:00 26.8 C 17.05 g/m*3 26.8 C 8.1 km/h
1777 09-06-2014 10:40:00 26.9 C 16.89 g/m*3 26.9 C 6.4 km/h
1778 09-06-2014 10:45:00 27.1 C 17.08 g/m*3 27.1 C 6.4 km/h
1779 09-06-2014 10:50:00 27.1 C 16.82 g/m*3 27.1 C 12.9 km/h
1780 09-06-2014 10:55:00 27.2 C 16.39 g/m*3 27.2 C 6.4 km/h
1781 09-06-2014 11:00:00 27.4 C 16.84 g/m*3 27.4 C 6.4 km/h
1782 09-06-2014 11:05:00 27.6 C 16.76 g/m*3 27.6 C 6.4 km/h
1783 09-06-2014 11:10:00 27.8 C 17.21 g/m*3 27.8 C 9.7 km/h
1784 09-06-2014 11:15:00 28.1 C 17.23 g/m*3 28.1 C 6.4 km/h
1785 09-06-2014 11:20:00 28.2 C 17.32 g/m*3 28.2 C 9.7 km/h
1786 09-06-2014 11:25:00 28.4 C 17.51 g/m*3 28.4 C 4.8 km/h
1787 09-06-2014 11:30:00 28.4 C 17.51 g/m*3 28.4 C 4.8 km/h
1788 09-06-2014 11:35:00 28.6 C 17.99 g/m*3 28.6 C 4.8 km/h
1789 09-06-2014 11:40:00 28.9 C 17.43 g/m*3 28.9 C 6.4 km/h
1790 09-06-2014 11:45:00 29.2 C 17.42 g/m*3 29.2 C 8.1 km/h
1791 09-06-2014 11:50:00 29.3 C 17.81 g/m*3 29.3 C 8.1 km/h
1792 09-06-2014 11:55:00 29.6 C 18.1 g/m*3 29.6 C 6.4 km/h
1793 09-06-2014 12:00:00 29.8 C 18 g/m*3 29.8 C 6.4 km/h
1794 09-06-2014 12:05:00 30 C 17.89 g/m*3 30 C 11.3 km/h
1795 09-06-2014 12:10:00 30.2 C 17.47 g/m*3 30.2 C 8.1 km/h
1796 09-06-2014 12:15:00 30.2 C 18.09 g/m*3 30.2 C 8.1 km/h
1797 09-06-2014 12:20:00 30.2 C 17.78 g/m*3 30.2 C 9.7 km/h
1798 09-06-2014 12:25:00 30.2 C 18.39 g/m*3 30.2 C 9.7 km/h
1799 09-06-2014 12:30:00 30.3 C 17.88 g/m*3 30.3 C 9.7 km/h
1800 09-06-2014 12:35:00 30.4 C 17.66 g/m*3 30.4 C 8.1 km/h
Sensor: Nr:Datum:Temp:Abs-Feuchte:Windchill:Wind:
Aussen-T/F 1801 09-06-2014 12:40:00 30.5 C 18.07 g/m*3 30.5 C 11.3 km/h
1802 09-06-2014 12:45:00 30.7 C 17.95 g/m*3 30.7 C 8.1 km/h
1803 09-06-2014 12:50:00 30.8 C 17.73 g/m*3 30.8 C 9.7 km/h
1804 09-06-2014 12:55:00 31 C 17.92 g/m*3 31 C 9.7 km/h
1805 09-06-2014 13:00:00 31.2 C 17.79 g/m*3 31.2 C 8.1 km/h
1806 09-06-2014 13:05:00 31.5 C 17.75 g/m*3 31.5 C 12.9 km/h
1807 09-06-2014 13:10:00 31.5 C 18.08 g/m*3 31.5 C 12.9 km/h
1808 09-06-2014 13:15:00 31.7 C 17.28 g/m*3 31.7 C 12.9 km/h
1809 09-06-2014 13:20:00 32 C 17.89 g/m*3 32 C 11.3 km/h
1810 09-06-2014 13:25:00 32.2 C 17.4 g/m*3 32.2 C 8.1 km/h
1811 09-06-2014 13:30:00 32.5 C 18.37 g/m*3 32.5 C 6.4 km/h
1812 09-06-2014 13:35:00 32.7 C 17.52 g/m*3 32.7 C 11.3 km/h
1813 09-06-2014 13:40:00 32.9 C 17.35 g/m*3 32.9 C 8.1 km/h
1814 09-06-2014 13:45:00 33 C 17.44 g/m*3 33 C 4.8 km/h
1815 09-06-2014 13:50:00 33.1 C 17.54 g/m*3 33.1 C 6.4 km/h
1816 09-06-2014 13:55:00 33.3 C 17.36 g/m*3 33.3 C 9.7 km/h
1817 09-06-2014 14:00:00 33.3 C 17.72 g/m*3 33.3 C 12.9 km/h
1818 09-06-2014 14:05:00 33 C 17.09 g/m*3 33 C 9.7 km/h
1819 09-06-2014 14:10:00 33.3 C 17.72 g/m*3 33.3 C 6.4 km/h
1820 09-06-2014 14:15:00 33.5 C 17.91 g/m*3 33.5 C 9.7 km/h
1821 09-06-2014 14:20:00 33.6 C 16.9 g/m*3 33.6 C 8.1 km/h
1822 09-06-2014 14:25:00 33.7 C 17.73 g/m*3 33.7 C 8.1 km/h
1823 09-06-2014 14:30:00 33.8 C 17.82 g/m*3 33.8 C 6.4 km/h
1824 09-06-2014 14:35:00 33.8 C 17.82 g/m*3 33.8 C 9.7 km/h
1825 09-06-2014 14:40:00 33.8 C 17.82 g/m*3 33.8 C 8.1 km/h
Sensor: Nr:Datum:Temp:Abs-Feuchte:Windchill:Wind:
Aussen-T/F 1826 09-06-2014 14:45:00 33.9 C 17.54 g/m*3 33.9 C 9.7 km/h
1827 09-06-2014 14:50:00 34.2 C 17.44 g/m*3 34.2 C 9.7 km/h
1828 09-06-2014 14:55:00 34.2 C 16.68 g/m*3 34.2 C 9.7 km/h
1829 09-06-2014 15:00:00 34.2 C 17.06 g/m*3 34.2 C 6.4 km/h
1830 09-06-2014 15:05:00 34.2 C 17.44 g/m*3 34.2 C 11.3 km/h
1831 09-06-2014 15:10:00 34.3 C 17.15 g/m*3 34.3 C 11.3 km/h
1832 09-06-2014 15:15:00 34.2 C 17.06 g/m*3 34.2 C 14.5 km/h
1833 09-06-2014 15:20:00 34.1 C 16.6 g/m*3 34.1 C 9.7 km/h
1834 09-06-2014 15:25:00 34.2 C 17.44 g/m*3 34.2 C 9.7 km/h
1835 09-06-2014 15:30:00 34.4 C 17.62 g/m*3 34.4 C 9.7 km/h
1836 09-06-2014 15:35:00 34.4 C 17.24 g/m*3 34.4 C 8.1 km/h
1837 09-06-2014 15:40:00 34.4 C 16.09 g/m*3 34.4 C 6.4 km/h
1838 09-06-2014 15:45:00 34.6 C 15.87 g/m*3 34.6 C 11.3 km/h
1839 09-06-2014 15:50:00 34.6 C 16.26 g/m*3 34.6 C 8.1 km/h
1840 09-06-2014 15:55:00 34.7 C 16.35 g/m*3 34.7 C 4.8 km/h
1841 09-06-2014 16:00:00 34.8 C 16.04 g/m*3 34.8 C 11.3 km/h
1842 09-06-2014 16:05:00 34.8 C 16.04 g/m*3 34.8 C 8.1 km/h
1843 09-06-2014 16:10:00 34.9 C 16.52 g/m*3 34.9 C 6.4 km/h
1844 09-06-2014 16:15:00 34.8 C 15.65 g/m*3 34.8 C 8.1 km/h
1845 09-06-2014 16:20:00 34.7 C 15.18 g/m*3 34.7 C 8.1 km/h
1846 09-06-2014 16:25:00 34.8 C 15.65 g/m*3 34.8 C 4.8 km/h
1847 09-06-2014 16:30:00 34.8 C 15.26 g/m*3 34.8 C 4.8 km/h
1848 09-06-2014 16:35:00 34.8 C 15.26 g/m*3 34.8 C 6.4 km/h
1849 09-06-2014 16:40:00 34.9 C 16.91 g/m*3 34.9 C 4.8 km/h
1850 09-06-2014 16:45:00 35.1 C 16.29 g/m*3 35.1 C 4.8 km/h
Sensor: Nr:Datum:Temp:Abs-Feuchte:Windchill:Wind:
Aussen-T/F 1851 09-06-2014 16:50:00 35.1 C 16.69 g/m*3 35.1 C 6.4 km/h
1852 09-06-2014 16:55:00 34.8 C 16.82 g/m*3 34.8 C 3.2 km/h
1853 09-06-2014 17:00:00 34.7 C 17.51 g/m*3 34.7 C 8.1 km/h
1854 09-06-2014 17:05:00 35 C 17.39 g/m*3 35 C 8.1 km/h
1855 09-06-2014 17:10:00 35.3 C 17.67 g/m*3 35.3 C 9.7 km/h
1856 09-06-2014 17:15:00 35 C 16.6 g/m*3 35 C 6.4 km/h
1857 09-06-2014 17:20:00 35.2 C 16.38 g/m*3 35.2 C 8.1 km/h
1858 09-06-2014 17:25:00 35.2 C 16.78 g/m*3 35.2 C 6.4 km/h
1859 09-06-2014 17:30:00 35.2 C 17.18 g/m*3 35.2 C 6.4 km/h
1860 09-06-2014 17:35:00 35.1 C 17.48 g/m*3 35.1 C 3.2 km/h
1861 09-06-2014 17:40:00 35.1 C 17.09 g/m*3 35.1 C 6.4 km/h
1862 09-06-2014 17:45:00 35.2 C 17.18 g/m*3 35.2 C 12.9 km/h
1863 09-06-2014 17:50:00 35.2 C 17.18 g/m*3 35.2 C 8.1 km/h
1864 09-06-2014 17:55:00 35.3 C 16.46 g/m*3 35.3 C 4.8 km/h
1865 09-06-2014 18:00:00 35.4 C 17.36 g/m*3 35.4 C 8.1 km/h
1866 09-06-2014 18:05:00 35.3 C 16.46 g/m*3 35.3 C 6.4 km/h
1867 09-06-2014 18:10:00 35.2 C 16.38 g/m*3 35.2 C 8.1 km/h
1868 09-06-2014 18:15:00 35.2 C 16.38 g/m*3 35.2 C 11.3 km/h
1869 09-06-2014 18:20:00 35 C 16.6 g/m*3 35 C 16.1 km/h
1870 09-06-2014 18:25:00 34.8 C 16.43 g/m*3 34.8 C 16.1 km/h
1871 09-06-2014 18:30:00 34.8 C 16.43 g/m*3 34.8 C 9.7 km/h
1872 09-06-2014 18:35:00 34.8 C 16.43 g/m*3 34.8 C 9.7 km/h
1873 09-06-2014 18:40:00 34.8 C 16.43 g/m*3 34.8 C 9.7 km/h
1874 09-06-2014 18:45:00 34.6 C 17.42 g/m*3 34.6 C 11.3 km/h
1875 09-06-2014 18:50:00 34.2 C 18.2 g/m*3 34.2 C 11.3 km/h
Sensor: Nr:Datum:Temp:Abs-Feuchte:Windchill:Wind:
Aussen-T/F 1876 09-06-2014 18:55:00 33.9 C 17.54 g/m*3 33.9 C 9.7 km/h
1877 09-06-2014 19:00:00 33.5 C 17.54 g/m*3 33.5 C 12.9 km/h
1878 09-06-2014 19:05:00 33.4 C 17.45 g/m*3 33.4 C 11.3 km/h
1879 09-06-2014 19:10:00 33.3 C 17.72 g/m*3 33.3 C 9.7 km/h
1880 09-06-2014 19:15:00 33.1 C 18.25 g/m*3 33.1 C 4.8 km/h
1881 09-06-2014 19:20:00 32.9 C 17.7 g/m*3 32.9 C 6.4 km/h
1882 09-06-2014 19:25:00 32.7 C 18.57 g/m*3 32.7 C 3.2 km/h
1883 09-06-2014 19:30:00 32.4 C 17.93 g/m*3 32.4 C 3.2 km/h
1884 09-06-2014 19:35:00 32.2 C 19.11 g/m*3 32.2 C 3.2 km/h
1885 09-06-2014 19:40:00 31.2 C 18.76 g/m*3 31.2 C 1.6 km/h
1886 09-06-2014 19:45:00 30.2 C 19.01 g/m*3 30.2 C 0 km/h
1887 09-06-2014 19:50:00 29.1 C 19.06 g/m*3 29.1 C 1.6 km/h
1888 09-06-2014 19:55:00 28.2 C 18.97 g/m*3 28.2 C 1.6 km/h
1889 09-06-2014 20:00:00 27.6 C 18.89 g/m*3 27.6 C 1.6 km/h
1890 09-06-2014 20:05:00 27.2 C 18.74 g/m*3 27.2 C 0 km/h
1891 09-06-2014 20:10:00 26.8 C 18.58 g/m*3 26.8 C 1.6 km/h
1892 09-06-2014 20:15:00 26.7 C 18.48 g/m*3 26.7 C 0 km/h
1893 09-06-2014 20:20:00 26.5 C 18.52 g/m*3 26.5 C 0 km/h
1894 09-06-2014 20:25:00 26.3 C 18.32 g/m*3 26.3 C 1.6 km/h
1895 09-06-2014 20:30:00 26.1 C 17.38 g/m*3 26.1 C 1.6 km/h
1896 09-06-2014 20:35:00 25.9 C 17.19 g/m*3 25.9 C 1.6 km/h
1897 09-06-2014 20:40:00 25.7 C 16.76 g/m*3 25.7 C 0 km/h
1898 09-06-2014 20:45:00 25.4 C 16.72 g/m*3 25.4 C 1.6 km/h
1899 09-06-2014 20:50:00 25.3 C 16.62 g/m*3 25.3 C 1.6 km/h
1900 09-06-2014 20:55:00 25.2 C 16.76 g/m*3 25.2 C 1.6 km/h
Sensor: Nr:Datum:Temp:Abs-Feuchte:Windchill:Wind:
Aussen-T/F 1901 09-06-2014 21:00:00 25.1 C 16.67 g/m*3 25.1 C 0 km/h
1902 09-06-2014 21:05:00 25.1 C 16.67 g/m*3 25.1 C 1.6 km/h
1903 09-06-2014 21:10:00 25.2 C 16.3 g/m*3 25.2 C 1.6 km/h
1904 09-06-2014 21:15:00 25.1 C 16.2 g/m*3 25.1 C 1.6 km/h
1905 09-06-2014 21:20:00 25.3 C 16.86 g/m*3 25.3 C 11.3 km/h
1906 09-06-2014 21:25:00 26.3 C 15.84 g/m*3 26.3 C 14.5 km/h
1907 09-06-2014 21:30:00 26.8 C 15.27 g/m*3 26.8 C 20.9 km/h
1908 09-06-2014 21:35:00 26.8 C 14.76 g/m*3 26.8 C 11.3 km/h
1909 09-06-2014 21:40:00 26.3 C 13.62 g/m*3 26.3 C 19.3 km/h
1910 09-06-2014 21:45:00 25.8 C 13 g/m*3 25.8 C 11.3 km/h
1911 09-06-2014 21:50:00 25.2 C 12.8 g/m*3 25.2 C 14.5 km/h
1912 09-06-2014 21:55:00 24.8 C 12.29 g/m*3 24.8 C 11.3 km/h
1913 09-06-2014 22:00:00 24.4 C 12.24 g/m*3 24.4 C 19.3 km/h
1914 09-06-2014 22:05:00 23.9 C 12.33 g/m*3 23.9 C 14.5 km/h
1915 09-06-2014 22:10:00 23.1 C 12.4 g/m*3 23.1 C 9.7 km/h
1916 09-06-2014 22:15:00 22.3 C 12.44 g/m*3 22.3 C 16.1 km/h
1917 09-06-2014 22:20:00 21.8 C 12.47 g/m*3 21.8 C 6.4 km/h
1918 09-06-2014 22:25:00 21.6 C 12.52 g/m*3 21.6 C 6.4 km/h
1919 09-06-2014 22:30:00 21.4 C 12.75 g/m*3 21.4 C 12.9 km/h
1920 09-06-2014 22:35:00 21.2 C 12.79 g/m*3 21.2 C 9.7 km/h
1921 09-06-2014 22:40:00 21.2 C 12.79 g/m*3 21.2 C 8.1 km/h
1922 09-06-2014 22:45:00 21.1 C 12.9 g/m*3 21.1 C 4.8 km/h
1923 09-06-2014 22:50:00 20.9 C 12.75 g/m*3 20.9 C 3.2 km/h
1924 09-06-2014 22:55:00 20.8 C 12.86 g/m*3 20.8 C 3.2 km/h
1925 09-06-2014 23:00:00 20.7 C 12.78 g/m*3 20.7 C 3.2 km/h
Sensor: Nr:Datum:Temp:Abs-Feuchte:Windchill:Wind:
Aussen-T/F 1926 09-06-2014 23:05:00 20.6 C 12.71 g/m*3 20.6 C 4.8 km/h
1927 09-06-2014 23:10:00 20.6 C 12.89 g/m*3 20.6 C 3.2 km/h
1928 09-06-2014 23:15:00 20.5 C 12.99 g/m*3 20.5 C 0 km/h
1929 09-06-2014 23:20:00 20.2 C 12.94 g/m*3 20.2 C 0 km/h
1930 09-06-2014 23:25:00 19.9 C 12.89 g/m*3 19.9 C 0 km/h
1931 09-06-2014 23:30:00 19.7 C 12.91 g/m*3 19.7 C 0 km/h
1932 09-06-2014 23:35:00 19.6 C 13 g/m*3 19.6 C 0 km/h
1933 09-06-2014 23:40:00 19.4 C 12.85 g/m*3 19.4 C 0 km/h
1934 09-06-2014 23:45:00 19.3 C 12.94 g/m*3 19.3 C 0 km/h
1935 09-06-2014 23:50:00 19.2 C 12.86 g/m*3 19.2 C 0 km/h
1936 09-06-2014 23:55:00 18.9 C 12.8 g/m*3 18.9 C 0 km/h

Legende:
   Min
   Max


Maximal/Minimal-Werte vom 03.06.2014 - 09.06.2014

Sensor Min Max Avg
Temp
(Aussen-T/F)
6.8 °C
06-06-2014  05:30:00
35.4 °C
09-06-2014  18:00:00
19.18 °C
Abs-Feuchte
(Aussen-T/F)
6.51 g/m*3
05-06-2014  19:45:00
19.11 g/m*3
09-06-2014  19:35:00
11.79 g/m*3
Windchill
(Aussen-T/F)
6.8 C
06-06-2014  05:30:00
35.4 C
09-06-2014  18:00:00
19.17 C

Die Daten stammen von einer Davis Vantage Pro 2 Wetter-Station und werden unter Linux mit der Software wview2wettercgi und aufbereitet. Alle Angaben erfolgen ohne Gewähr für ihre Vollständigkeit oder Richtigkeit.
Kontakt: Rainer Krienke krienke@uni-koblenz.de . Meine Webseiten an der Uni Koblenz oder privat.
Version: $Revision: 0.78 $